<?xml version="1.0" encoding="UTF-8" standalone="no" ?>
<gpx xmlns="http://www.topografix.com/GPX/1/1" xmlns:xsi="http://www.w3.org/2001/XMLSchema-instance" xsi:schemaLocation="http://www.topografix.com/GPX/1/1 http://www.topografix.com/GPX/1/1/gpx.xsd" version="1.1" creator="VisuGPX - https://www.visugpx.com">
  <metadata>
    <name>Proupiary 2019-01-23</name>
    <desc><![CDATA[
]]></desc>
  </metadata>
  <trk>
    <name><![CDATA[Proupiary 2019-01-23]]></name>
    <trkseg>
      <trkpt lat="43.15985" lon="0.86386">
        <ele>501.4</ele>
        <time>2019-01-23T10:19:26.000Z</time>
      </trkpt>
      <trkpt lat="43.15984" lon="0.86384">
        <ele>499</ele>
        <time>2019-01-23T10:19:26.000Z</time>
      </trkpt>
      <trkpt lat="43.15979" lon="0.86371">
        <ele>483</ele>
        <time>2019-01-23T10:19:34.000Z</time>
      </trkpt>
      <trkpt lat="43.15985" lon="0.8635">
        <ele>462</ele>
        <time>2019-01-23T10:20:46.000Z</time>
      </trkpt>
      <trkpt lat="43.15976" lon="0.86353">
        <ele>462.4</ele>
        <time>2019-01-23T10:20:56.000Z</time>
      </trkpt>
      <trkpt lat="43.15973" lon="0.86341">
        <ele>462.3</ele>
        <time>2019-01-23T10:21:15.000Z</time>
      </trkpt>
      <trkpt lat="43.15983" lon="0.86338">
        <ele>462.2</ele>
        <time>2019-01-23T10:21:27.000Z</time>
      </trkpt>
      <trkpt lat="43.15992" lon="0.86335">
        <ele>461.6</ele>
        <time>2019-01-23T10:21:47.000Z</time>
      </trkpt>
      <trkpt lat="43.16001" lon="0.86337">
        <ele>461.2</ele>
        <time>2019-01-23T10:22:4.000Z</time>
      </trkpt>
      <trkpt lat="43.16007" lon="0.86325">
        <ele>461</ele>
        <time>2019-01-23T10:22:13.000Z</time>
      </trkpt>
      <trkpt lat="43.16006" lon="0.86312">
        <ele>460.2</ele>
        <time>2019-01-23T10:22:43.000Z</time>
      </trkpt>
      <trkpt lat="43.16011" lon="0.86292">
        <ele>459</ele>
        <time>2019-01-23T10:23:34.000Z</time>
      </trkpt>
      <trkpt lat="43.16011" lon="0.86276">
        <ele>459.3</ele>
        <time>2019-01-23T10:25:8.000Z</time>
      </trkpt>
      <trkpt lat="43.16004" lon="0.86285">
        <ele>459.3</ele>
        <time>2019-01-23T10:25:49.000Z</time>
      </trkpt>
      <trkpt lat="43.16012" lon="0.86289">
        <ele>458.6</ele>
        <time>2019-01-23T10:26:46.000Z</time>
      </trkpt>
      <trkpt lat="43.16021" lon="0.86293">
        <ele>457.8</ele>
        <time>2019-01-23T10:26:57.000Z</time>
      </trkpt>
      <trkpt lat="43.1603" lon="0.86299">
        <ele>456.4</ele>
        <time>2019-01-23T10:27:9.000Z</time>
      </trkpt>
      <trkpt lat="43.16039" lon="0.86304">
        <ele>455.3</ele>
        <time>2019-01-23T10:27:17.000Z</time>
      </trkpt>
      <trkpt lat="43.16046" lon="0.86312">
        <ele>454.3</ele>
        <time>2019-01-23T10:27:24.000Z</time>
      </trkpt>
      <trkpt lat="43.16054" lon="0.86319">
        <ele>451.8</ele>
        <time>2019-01-23T10:27:49.000Z</time>
      </trkpt>
      <trkpt lat="43.16063" lon="0.86325">
        <ele>450.7</ele>
        <time>2019-01-23T10:27:59.000Z</time>
      </trkpt>
      <trkpt lat="43.16071" lon="0.86332">
        <ele>449.7</ele>
        <time>2019-01-23T10:28:8.000Z</time>
      </trkpt>
      <trkpt lat="43.1608" lon="0.86335">
        <ele>448.3</ele>
        <time>2019-01-23T10:28:18.000Z</time>
      </trkpt>
      <trkpt lat="43.16089" lon="0.86338">
        <ele>447.1</ele>
        <time>2019-01-23T10:28:27.000Z</time>
      </trkpt>
      <trkpt lat="43.16098" lon="0.86342">
        <ele>445.9</ele>
        <time>2019-01-23T10:28:37.000Z</time>
      </trkpt>
      <trkpt lat="43.16104" lon="0.86332">
        <ele>444.6</ele>
        <time>2019-01-23T10:28:51.000Z</time>
      </trkpt>
      <trkpt lat="43.16111" lon="0.86323">
        <ele>444.3</ele>
        <time>2019-01-23T10:28:56.000Z</time>
      </trkpt>
      <trkpt lat="43.16117" lon="0.86313">
        <ele>444</ele>
        <time>2019-01-23T10:29:4.000Z</time>
      </trkpt>
      <trkpt lat="43.16121" lon="0.863">
        <ele>443.7</ele>
        <time>2019-01-23T10:29:15.000Z</time>
      </trkpt>
      <trkpt lat="43.16125" lon="0.86289">
        <ele>443.9</ele>
        <time>2019-01-23T10:29:24.000Z</time>
      </trkpt>
      <trkpt lat="43.16131" lon="0.86277">
        <ele>444.1</ele>
        <time>2019-01-23T10:29:35.000Z</time>
      </trkpt>
      <trkpt lat="43.16137" lon="0.86267">
        <ele>444.4</ele>
        <time>2019-01-23T10:29:43.000Z</time>
      </trkpt>
      <trkpt lat="43.16142" lon="0.86256">
        <ele>444.8</ele>
        <time>2019-01-23T10:29:51.000Z</time>
      </trkpt>
      <trkpt lat="43.16146" lon="0.86244">
        <ele>445.2</ele>
        <time>2019-01-23T10:29:58.000Z</time>
      </trkpt>
      <trkpt lat="43.1615" lon="0.86233">
        <ele>445.7</ele>
        <time>2019-01-23T10:30:7.000Z</time>
      </trkpt>
      <trkpt lat="43.16154" lon="0.86221">
        <ele>446.3</ele>
        <time>2019-01-23T10:30:16.000Z</time>
      </trkpt>
      <trkpt lat="43.16157" lon="0.86208">
        <ele>446.9</ele>
        <time>2019-01-23T10:30:24.000Z</time>
      </trkpt>
      <trkpt lat="43.16162" lon="0.86195">
        <ele>447.3</ele>
        <time>2019-01-23T10:30:30.000Z</time>
      </trkpt>
      <trkpt lat="43.16163" lon="0.86181">
        <ele>447.7</ele>
        <time>2019-01-23T10:30:37.000Z</time>
      </trkpt>
      <trkpt lat="43.16163" lon="0.86169">
        <ele>448.1</ele>
        <time>2019-01-23T10:30:44.000Z</time>
      </trkpt>
      <trkpt lat="43.16165" lon="0.86156">
        <ele>448.4</ele>
        <time>2019-01-23T10:30:51.000Z</time>
      </trkpt>
      <trkpt lat="43.16165" lon="0.86143">
        <ele>448.8</ele>
        <time>2019-01-23T10:30:59.000Z</time>
      </trkpt>
      <trkpt lat="43.16165" lon="0.8613">
        <ele>449.2</ele>
        <time>2019-01-23T10:31:6.000Z</time>
      </trkpt>
      <trkpt lat="43.16164" lon="0.86118">
        <ele>449.4</ele>
        <time>2019-01-23T10:31:13.000Z</time>
      </trkpt>
      <trkpt lat="43.16163" lon="0.86105">
        <ele>449.7</ele>
        <time>2019-01-23T10:31:21.000Z</time>
      </trkpt>
      <trkpt lat="43.16165" lon="0.86092">
        <ele>450</ele>
        <time>2019-01-23T10:31:30.000Z</time>
      </trkpt>
      <trkpt lat="43.16169" lon="0.86079">
        <ele>450.1</ele>
        <time>2019-01-23T10:31:40.000Z</time>
      </trkpt>
      <trkpt lat="43.16171" lon="0.86064">
        <ele>450.1</ele>
        <time>2019-01-23T10:31:48.000Z</time>
      </trkpt>
      <trkpt lat="43.16175" lon="0.86052">
        <ele>450.1</ele>
        <time>2019-01-23T10:31:57.000Z</time>
      </trkpt>
      <trkpt lat="43.16177" lon="0.86039">
        <ele>450</ele>
        <time>2019-01-23T10:32:5.000Z</time>
      </trkpt>
      <trkpt lat="43.1618" lon="0.86027">
        <ele>449.9</ele>
        <time>2019-01-23T10:32:12.000Z</time>
      </trkpt>
      <trkpt lat="43.16183" lon="0.86015">
        <ele>449.6</ele>
        <time>2019-01-23T10:32:17.000Z</time>
      </trkpt>
      <trkpt lat="43.16183" lon="0.86002">
        <ele>448.9</ele>
        <time>2019-01-23T10:32:25.000Z</time>
      </trkpt>
      <trkpt lat="43.16185" lon="0.85989">
        <ele>448.4</ele>
        <time>2019-01-23T10:32:32.000Z</time>
      </trkpt>
      <trkpt lat="43.16183" lon="0.85976">
        <ele>447.7</ele>
        <time>2019-01-23T10:32:40.000Z</time>
      </trkpt>
      <trkpt lat="43.16182" lon="0.85963">
        <ele>447</ele>
        <time>2019-01-23T10:32:47.000Z</time>
      </trkpt>
      <trkpt lat="43.16176" lon="0.85953">
        <ele>446.3</ele>
        <time>2019-01-23T10:32:54.000Z</time>
      </trkpt>
      <trkpt lat="43.16172" lon="0.85941">
        <ele>445.6</ele>
        <time>2019-01-23T10:33:2.000Z</time>
      </trkpt>
      <trkpt lat="43.16168" lon="0.85929">
        <ele>444.6</ele>
        <time>2019-01-23T10:33:11.000Z</time>
      </trkpt>
      <trkpt lat="43.16163" lon="0.85916">
        <ele>444</ele>
        <time>2019-01-23T10:33:18.000Z</time>
      </trkpt>
      <trkpt lat="43.16159" lon="0.85904">
        <ele>443.5</ele>
        <time>2019-01-23T10:33:25.000Z</time>
      </trkpt>
      <trkpt lat="43.16156" lon="0.85892">
        <ele>442.9</ele>
        <time>2019-01-23T10:33:33.000Z</time>
      </trkpt>
      <trkpt lat="43.16155" lon="0.8588">
        <ele>442.5</ele>
        <time>2019-01-23T10:33:40.000Z</time>
      </trkpt>
      <trkpt lat="43.16151" lon="0.85866">
        <ele>442.3</ele>
        <time>2019-01-23T10:33:49.000Z</time>
      </trkpt>
      <trkpt lat="43.16148" lon="0.85852">
        <ele>442.1</ele>
        <time>2019-01-23T10:33:57.000Z</time>
      </trkpt>
      <trkpt lat="43.16143" lon="0.85841">
        <ele>442</ele>
        <time>2019-01-23T10:34:4.000Z</time>
      </trkpt>
      <trkpt lat="43.16142" lon="0.85828">
        <ele>442</ele>
        <time>2019-01-23T10:34:11.000Z</time>
      </trkpt>
      <trkpt lat="43.16138" lon="0.85816">
        <ele>442.1</ele>
        <time>2019-01-23T10:34:18.000Z</time>
      </trkpt>
      <trkpt lat="43.16133" lon="0.85805">
        <ele>442.2</ele>
        <time>2019-01-23T10:34:24.000Z</time>
      </trkpt>
      <trkpt lat="43.16129" lon="0.85792">
        <ele>442.3</ele>
        <time>2019-01-23T10:34:32.000Z</time>
      </trkpt>
      <trkpt lat="43.16124" lon="0.8578">
        <ele>442.6</ele>
        <time>2019-01-23T10:34:40.000Z</time>
      </trkpt>
      <trkpt lat="43.16121" lon="0.85766">
        <ele>442.7</ele>
        <time>2019-01-23T10:34:48.000Z</time>
      </trkpt>
      <trkpt lat="43.16119" lon="0.85753">
        <ele>442.8</ele>
        <time>2019-01-23T10:34:56.000Z</time>
      </trkpt>
      <trkpt lat="43.16116" lon="0.85741">
        <ele>442.9</ele>
        <time>2019-01-23T10:35:4.000Z</time>
      </trkpt>
      <trkpt lat="43.16112" lon="0.8573">
        <ele>443</ele>
        <time>2019-01-23T10:35:12.000Z</time>
      </trkpt>
      <trkpt lat="43.16107" lon="0.85719">
        <ele>443.5</ele>
        <time>2019-01-23T10:35:21.000Z</time>
      </trkpt>
      <trkpt lat="43.16116" lon="0.85715">
        <ele>444.8</ele>
        <time>2019-01-23T10:35:44.000Z</time>
      </trkpt>
      <trkpt lat="43.16126" lon="0.85709">
        <ele>445.4</ele>
        <time>2019-01-23T10:35:52.000Z</time>
      </trkpt>
      <trkpt lat="43.16133" lon="0.85699">
        <ele>445.8</ele>
        <time>2019-01-23T10:35:58.000Z</time>
      </trkpt>
      <trkpt lat="43.1614" lon="0.85688">
        <ele>446</ele>
        <time>2019-01-23T10:36:3.000Z</time>
      </trkpt>
      <trkpt lat="43.16143" lon="0.85676">
        <ele>446.4</ele>
        <time>2019-01-23T10:36:9.000Z</time>
      </trkpt>
      <trkpt lat="43.16148" lon="0.85663">
        <ele>446.8</ele>
        <time>2019-01-23T10:36:16.000Z</time>
      </trkpt>
      <trkpt lat="43.16149" lon="0.85649">
        <ele>447.3</ele>
        <time>2019-01-23T10:36:23.000Z</time>
      </trkpt>
      <trkpt lat="43.1615" lon="0.85637">
        <ele>448</ele>
        <time>2019-01-23T10:36:32.000Z</time>
      </trkpt>
      <trkpt lat="43.16148" lon="0.85625">
        <ele>448.9</ele>
        <time>2019-01-23T10:36:42.000Z</time>
      </trkpt>
      <trkpt lat="43.16148" lon="0.85612">
        <ele>449.8</ele>
        <time>2019-01-23T10:36:52.000Z</time>
      </trkpt>
      <trkpt lat="43.16144" lon="0.856">
        <ele>450.5</ele>
        <time>2019-01-23T10:37:1.000Z</time>
      </trkpt>
      <trkpt lat="43.16147" lon="0.85588">
        <ele>451.1</ele>
        <time>2019-01-23T10:37:9.000Z</time>
      </trkpt>
      <trkpt lat="43.16148" lon="0.85575">
        <ele>452</ele>
        <time>2019-01-23T10:37:18.000Z</time>
      </trkpt>
      <trkpt lat="43.16148" lon="0.85562">
        <ele>453</ele>
        <time>2019-01-23T10:37:28.000Z</time>
      </trkpt>
      <trkpt lat="43.16146" lon="0.85549">
        <ele>453.9</ele>
        <time>2019-01-23T10:37:38.000Z</time>
      </trkpt>
      <trkpt lat="43.16148" lon="0.85537">
        <ele>455</ele>
        <time>2019-01-23T10:37:48.000Z</time>
      </trkpt>
      <trkpt lat="43.16151" lon="0.85524">
        <ele>456.4</ele>
        <time>2019-01-23T10:37:59.000Z</time>
      </trkpt>
      <trkpt lat="43.16154" lon="0.85512">
        <ele>457.4</ele>
        <time>2019-01-23T10:38:8.000Z</time>
      </trkpt>
      <trkpt lat="43.16161" lon="0.85501">
        <ele>458.1</ele>
        <time>2019-01-23T10:38:18.000Z</time>
      </trkpt>
      <trkpt lat="43.16167" lon="0.8549">
        <ele>458.9</ele>
        <time>2019-01-23T10:38:26.000Z</time>
      </trkpt>
      <trkpt lat="43.16171" lon="0.85479">
        <ele>459.8</ele>
        <time>2019-01-23T10:38:36.000Z</time>
      </trkpt>
      <trkpt lat="43.16172" lon="0.85466">
        <ele>460.7</ele>
        <time>2019-01-23T10:38:45.000Z</time>
      </trkpt>
      <trkpt lat="43.16176" lon="0.85453">
        <ele>461.8</ele>
        <time>2019-01-23T10:38:55.000Z</time>
      </trkpt>
      <trkpt lat="43.1618" lon="0.85442">
        <ele>462.9</ele>
        <time>2019-01-23T10:39:4.000Z</time>
      </trkpt>
      <trkpt lat="43.1618" lon="0.85429">
        <ele>464.1</ele>
        <time>2019-01-23T10:39:16.000Z</time>
      </trkpt>
      <trkpt lat="43.16186" lon="0.85417">
        <ele>464.9</ele>
        <time>2019-01-23T10:39:25.000Z</time>
      </trkpt>
      <trkpt lat="43.16191" lon="0.85406">
        <ele>465.5</ele>
        <time>2019-01-23T10:39:33.000Z</time>
      </trkpt>
      <trkpt lat="43.16197" lon="0.85397">
        <ele>465.7</ele>
        <time>2019-01-23T10:39:37.000Z</time>
      </trkpt>
      <trkpt lat="43.162" lon="0.85383">
        <ele>466.1</ele>
        <time>2019-01-23T10:39:47.000Z</time>
      </trkpt>
      <trkpt lat="43.16206" lon="0.85371">
        <ele>466.5</ele>
        <time>2019-01-23T10:39:55.000Z</time>
      </trkpt>
      <trkpt lat="43.1621" lon="0.8536">
        <ele>467.2</ele>
        <time>2019-01-23T10:40:3.000Z</time>
      </trkpt>
      <trkpt lat="43.16214" lon="0.85348">
        <ele>468</ele>
        <time>2019-01-23T10:40:12.000Z</time>
      </trkpt>
      <trkpt lat="43.1622" lon="0.85338">
        <ele>468.8</ele>
        <time>2019-01-23T10:40:20.000Z</time>
      </trkpt>
      <trkpt lat="43.1622" lon="0.85324">
        <ele>470.3</ele>
        <time>2019-01-23T10:40:31.000Z</time>
      </trkpt>
      <trkpt lat="43.16223" lon="0.85311">
        <ele>471.6</ele>
        <time>2019-01-23T10:40:42.000Z</time>
      </trkpt>
      <trkpt lat="43.16228" lon="0.853">
        <ele>472</ele>
        <time>2019-01-23T10:40:48.000Z</time>
      </trkpt>
      <trkpt lat="43.16229" lon="0.85287">
        <ele>472.5</ele>
        <time>2019-01-23T10:40:58.000Z</time>
      </trkpt>
      <trkpt lat="43.16233" lon="0.85276">
        <ele>473</ele>
        <time>2019-01-23T10:41:7.000Z</time>
      </trkpt>
      <trkpt lat="43.16242" lon="0.85271">
        <ele>473.1</ele>
        <time>2019-01-23T10:41:13.000Z</time>
      </trkpt>
      <trkpt lat="43.16252" lon="0.85269">
        <ele>472.9</ele>
        <time>2019-01-23T10:41:21.000Z</time>
      </trkpt>
      <trkpt lat="43.16261" lon="0.85268">
        <ele>472.3</ele>
        <time>2019-01-23T10:41:30.000Z</time>
      </trkpt>
      <trkpt lat="43.16269" lon="0.85265">
        <ele>471.4</ele>
        <time>2019-01-23T10:41:37.000Z</time>
      </trkpt>
      <trkpt lat="43.16278" lon="0.85263">
        <ele>470.3</ele>
        <time>2019-01-23T10:41:44.000Z</time>
      </trkpt>
      <trkpt lat="43.16287" lon="0.85258">
        <ele>469.5</ele>
        <time>2019-01-23T10:41:51.000Z</time>
      </trkpt>
      <trkpt lat="43.16297" lon="0.85257">
        <ele>468.5</ele>
        <time>2019-01-23T10:41:57.000Z</time>
      </trkpt>
      <trkpt lat="43.16306" lon="0.85258">
        <ele>467.2</ele>
        <time>2019-01-23T10:42:5.000Z</time>
      </trkpt>
      <trkpt lat="43.16316" lon="0.85262">
        <ele>466</ele>
        <time>2019-01-23T10:42:13.000Z</time>
      </trkpt>
      <trkpt lat="43.16326" lon="0.85267">
        <ele>464.9</ele>
        <time>2019-01-23T10:42:21.000Z</time>
      </trkpt>
      <trkpt lat="43.16335" lon="0.8527">
        <ele>464.2</ele>
        <time>2019-01-23T10:42:27.000Z</time>
      </trkpt>
      <trkpt lat="43.16343" lon="0.85277">
        <ele>462.8</ele>
        <time>2019-01-23T10:42:35.000Z</time>
      </trkpt>
      <trkpt lat="43.1635" lon="0.85287">
        <ele>461.9</ele>
        <time>2019-01-23T10:42:43.000Z</time>
      </trkpt>
      <trkpt lat="43.16359" lon="0.85292">
        <ele>461.2</ele>
        <time>2019-01-23T10:42:53.000Z</time>
      </trkpt>
      <trkpt lat="43.16368" lon="0.85297">
        <ele>460.7</ele>
        <time>2019-01-23T10:43:0.000Z</time>
      </trkpt>
      <trkpt lat="43.16378" lon="0.853">
        <ele>460.2</ele>
        <time>2019-01-23T10:43:10.000Z</time>
      </trkpt>
      <trkpt lat="43.16387" lon="0.85303">
        <ele>459.9</ele>
        <time>2019-01-23T10:43:17.000Z</time>
      </trkpt>
      <trkpt lat="43.16394" lon="0.8531">
        <ele>459.3</ele>
        <time>2019-01-23T10:43:25.000Z</time>
      </trkpt>
      <trkpt lat="43.16403" lon="0.85316">
        <ele>458.9</ele>
        <time>2019-01-23T10:43:31.000Z</time>
      </trkpt>
      <trkpt lat="43.16411" lon="0.85325">
        <ele>458.4</ele>
        <time>2019-01-23T10:43:39.000Z</time>
      </trkpt>
      <trkpt lat="43.16418" lon="0.85332">
        <ele>457.7</ele>
        <time>2019-01-23T10:43:46.000Z</time>
      </trkpt>
      <trkpt lat="43.16426" lon="0.85339">
        <ele>457</ele>
        <time>2019-01-23T10:43:53.000Z</time>
      </trkpt>
      <trkpt lat="43.16433" lon="0.8535">
        <ele>456.1</ele>
        <time>2019-01-23T10:44:3.000Z</time>
      </trkpt>
      <trkpt lat="43.16441" lon="0.85357">
        <ele>455.4</ele>
        <time>2019-01-23T10:44:11.000Z</time>
      </trkpt>
      <trkpt lat="43.16449" lon="0.85364">
        <ele>454.7</ele>
        <time>2019-01-23T10:44:20.000Z</time>
      </trkpt>
      <trkpt lat="43.16458" lon="0.85368">
        <ele>454.1</ele>
        <time>2019-01-23T10:44:28.000Z</time>
      </trkpt>
      <trkpt lat="43.16468" lon="0.85372">
        <ele>453.5</ele>
        <time>2019-01-23T10:44:35.000Z</time>
      </trkpt>
      <trkpt lat="43.16477" lon="0.85376">
        <ele>452.9</ele>
        <time>2019-01-23T10:44:44.000Z</time>
      </trkpt>
      <trkpt lat="43.16486" lon="0.8538">
        <ele>452.5</ele>
        <time>2019-01-23T10:44:49.000Z</time>
      </trkpt>
      <trkpt lat="43.16495" lon="0.85384">
        <ele>451.8</ele>
        <time>2019-01-23T10:44:58.000Z</time>
      </trkpt>
      <trkpt lat="43.16503" lon="0.8539">
        <ele>451.2</ele>
        <time>2019-01-23T10:45:6.000Z</time>
      </trkpt>
      <trkpt lat="43.16512" lon="0.85396">
        <ele>450.8</ele>
        <time>2019-01-23T10:45:14.000Z</time>
      </trkpt>
      <trkpt lat="43.16519" lon="0.85403">
        <ele>450.2</ele>
        <time>2019-01-23T10:45:22.000Z</time>
      </trkpt>
      <trkpt lat="43.16527" lon="0.8541">
        <ele>449.7</ele>
        <time>2019-01-23T10:45:28.000Z</time>
      </trkpt>
      <trkpt lat="43.16536" lon="0.85416">
        <ele>449.2</ele>
        <time>2019-01-23T10:45:35.000Z</time>
      </trkpt>
      <trkpt lat="43.16544" lon="0.85423">
        <ele>448.9</ele>
        <time>2019-01-23T10:45:43.000Z</time>
      </trkpt>
      <trkpt lat="43.16552" lon="0.85428">
        <ele>448.5</ele>
        <time>2019-01-23T10:45:51.000Z</time>
      </trkpt>
      <trkpt lat="43.16561" lon="0.85434">
        <ele>448.3</ele>
        <time>2019-01-23T10:45:56.000Z</time>
      </trkpt>
      <trkpt lat="43.1657" lon="0.85438">
        <ele>447.8</ele>
        <time>2019-01-23T10:46:5.000Z</time>
      </trkpt>
      <trkpt lat="43.16579" lon="0.85441">
        <ele>447.1</ele>
        <time>2019-01-23T10:46:13.000Z</time>
      </trkpt>
      <trkpt lat="43.16589" lon="0.85444">
        <ele>446.5</ele>
        <time>2019-01-23T10:46:20.000Z</time>
      </trkpt>
      <trkpt lat="43.16599" lon="0.85447">
        <ele>445.6</ele>
        <time>2019-01-23T10:46:28.000Z</time>
      </trkpt>
      <trkpt lat="43.16609" lon="0.85453">
        <ele>444.7</ele>
        <time>2019-01-23T10:46:37.000Z</time>
      </trkpt>
      <trkpt lat="43.16618" lon="0.85458">
        <ele>444.2</ele>
        <time>2019-01-23T10:46:44.000Z</time>
      </trkpt>
      <trkpt lat="43.16626" lon="0.85465">
        <ele>443.7</ele>
        <time>2019-01-23T10:46:53.000Z</time>
      </trkpt>
      <trkpt lat="43.16633" lon="0.85472">
        <ele>443.2</ele>
        <time>2019-01-23T10:47:1.000Z</time>
      </trkpt>
      <trkpt lat="43.16643" lon="0.85478">
        <ele>442.6</ele>
        <time>2019-01-23T10:47:7.000Z</time>
      </trkpt>
      <trkpt lat="43.16653" lon="0.8548">
        <ele>441.6</ele>
        <time>2019-01-23T10:47:15.000Z</time>
      </trkpt>
      <trkpt lat="43.16662" lon="0.85486">
        <ele>440.6</ele>
        <time>2019-01-23T10:47:23.000Z</time>
      </trkpt>
      <trkpt lat="43.16671" lon="0.85492">
        <ele>439.7</ele>
        <time>2019-01-23T10:47:32.000Z</time>
      </trkpt>
      <trkpt lat="43.1668" lon="0.85497">
        <ele>439.2</ele>
        <time>2019-01-23T10:47:39.000Z</time>
      </trkpt>
      <trkpt lat="43.16687" lon="0.85506">
        <ele>439</ele>
        <time>2019-01-23T10:47:45.000Z</time>
      </trkpt>
      <trkpt lat="43.16696" lon="0.85514">
        <ele>438.6</ele>
        <time>2019-01-23T10:47:53.000Z</time>
      </trkpt>
      <trkpt lat="43.16705" lon="0.85519">
        <ele>437.8</ele>
        <time>2019-01-23T10:48:2.000Z</time>
      </trkpt>
      <trkpt lat="43.16713" lon="0.85527">
        <ele>437.2</ele>
        <time>2019-01-23T10:48:10.000Z</time>
      </trkpt>
      <trkpt lat="43.16721" lon="0.85534">
        <ele>436.4</ele>
        <time>2019-01-23T10:48:18.000Z</time>
      </trkpt>
      <trkpt lat="43.1673" lon="0.8554">
        <ele>436.1</ele>
        <time>2019-01-23T10:48:25.000Z</time>
      </trkpt>
      <trkpt lat="43.16738" lon="0.85546">
        <ele>435.8</ele>
        <time>2019-01-23T10:48:32.000Z</time>
      </trkpt>
      <trkpt lat="43.16746" lon="0.85555">
        <ele>435.3</ele>
        <time>2019-01-23T10:48:40.000Z</time>
      </trkpt>
      <trkpt lat="43.16754" lon="0.85564">
        <ele>435.1</ele>
        <time>2019-01-23T10:48:47.000Z</time>
      </trkpt>
      <trkpt lat="43.1676" lon="0.85573">
        <ele>434.7</ele>
        <time>2019-01-23T10:48:53.000Z</time>
      </trkpt>
      <trkpt lat="43.16768" lon="0.8558">
        <ele>434.3</ele>
        <time>2019-01-23T10:48:59.000Z</time>
      </trkpt>
      <trkpt lat="43.16776" lon="0.85588">
        <ele>433.7</ele>
        <time>2019-01-23T10:49:6.000Z</time>
      </trkpt>
      <trkpt lat="43.16778" lon="0.856">
        <ele>433</ele>
        <time>2019-01-23T10:49:15.000Z</time>
      </trkpt>
      <trkpt lat="43.16779" lon="0.85613">
        <ele>431.8</ele>
        <time>2019-01-23T10:49:23.000Z</time>
      </trkpt>
      <trkpt lat="43.16782" lon="0.85626">
        <ele>430.7</ele>
        <time>2019-01-23T10:49:32.000Z</time>
      </trkpt>
      <trkpt lat="43.16786" lon="0.85638">
        <ele>429.9</ele>
        <time>2019-01-23T10:49:40.000Z</time>
      </trkpt>
      <trkpt lat="43.1679" lon="0.85649">
        <ele>429.2</ele>
        <time>2019-01-23T10:49:47.000Z</time>
      </trkpt>
      <trkpt lat="43.16794" lon="0.8566">
        <ele>428.7</ele>
        <time>2019-01-23T10:49:54.000Z</time>
      </trkpt>
      <trkpt lat="43.16798" lon="0.85672">
        <ele>428.2</ele>
        <time>2019-01-23T10:50:2.000Z</time>
      </trkpt>
      <trkpt lat="43.16804" lon="0.85683">
        <ele>427.7</ele>
        <time>2019-01-23T10:50:10.000Z</time>
      </trkpt>
      <trkpt lat="43.16807" lon="0.85695">
        <ele>427.4</ele>
        <time>2019-01-23T10:50:21.000Z</time>
      </trkpt>
      <trkpt lat="43.16805" lon="0.85708">
        <ele>427.1</ele>
        <time>2019-01-23T10:50:30.000Z</time>
      </trkpt>
      <trkpt lat="43.16811" lon="0.8572">
        <ele>426.7</ele>
        <time>2019-01-23T10:50:39.000Z</time>
      </trkpt>
      <trkpt lat="43.16817" lon="0.8573">
        <ele>426.6</ele>
        <time>2019-01-23T10:50:47.000Z</time>
      </trkpt>
      <trkpt lat="43.16823" lon="0.8574">
        <ele>426.8</ele>
        <time>2019-01-23T10:50:55.000Z</time>
      </trkpt>
      <trkpt lat="43.16829" lon="0.8575">
        <ele>427.1</ele>
        <time>2019-01-23T10:51:3.000Z</time>
      </trkpt>
      <trkpt lat="43.16838" lon="0.85757">
        <ele>427.6</ele>
        <time>2019-01-23T10:51:12.000Z</time>
      </trkpt>
      <trkpt lat="43.16846" lon="0.85764">
        <ele>428.2</ele>
        <time>2019-01-23T10:51:25.000Z</time>
      </trkpt>
      <trkpt lat="43.16855" lon="0.85767">
        <ele>428.6</ele>
        <time>2019-01-23T10:51:35.000Z</time>
      </trkpt>
      <trkpt lat="43.16863" lon="0.85775">
        <ele>428.9</ele>
        <time>2019-01-23T10:51:42.000Z</time>
      </trkpt>
      <trkpt lat="43.16871" lon="0.85781">
        <ele>429.2</ele>
        <time>2019-01-23T10:51:50.000Z</time>
      </trkpt>
      <trkpt lat="43.16879" lon="0.85787">
        <ele>429.5</ele>
        <time>2019-01-23T10:51:57.000Z</time>
      </trkpt>
      <trkpt lat="43.16888" lon="0.85794">
        <ele>429.8</ele>
        <time>2019-01-23T10:52:7.000Z</time>
      </trkpt>
      <trkpt lat="43.16898" lon="0.85798">
        <ele>429.7</ele>
        <time>2019-01-23T10:52:14.000Z</time>
      </trkpt>
      <trkpt lat="43.16907" lon="0.85802">
        <ele>429.6</ele>
        <time>2019-01-23T10:52:21.000Z</time>
      </trkpt>
      <trkpt lat="43.16915" lon="0.85808">
        <ele>429.3</ele>
        <time>2019-01-23T10:52:29.000Z</time>
      </trkpt>
      <trkpt lat="43.16924" lon="0.85814">
        <ele>429</ele>
        <time>2019-01-23T10:52:37.000Z</time>
      </trkpt>
      <trkpt lat="43.16932" lon="0.85822">
        <ele>428.3</ele>
        <time>2019-01-23T10:52:44.000Z</time>
      </trkpt>
      <trkpt lat="43.16938" lon="0.85831">
        <ele>427.8</ele>
        <time>2019-01-23T10:52:51.000Z</time>
      </trkpt>
      <trkpt lat="43.16946" lon="0.8584">
        <ele>426.6</ele>
        <time>2019-01-23T10:53:1.000Z</time>
      </trkpt>
      <trkpt lat="43.16954" lon="0.85847">
        <ele>425.3</ele>
        <time>2019-01-23T10:53:9.000Z</time>
      </trkpt>
      <trkpt lat="43.16961" lon="0.85855">
        <ele>423.9</ele>
        <time>2019-01-23T10:53:18.000Z</time>
      </trkpt>
      <trkpt lat="43.16967" lon="0.85864">
        <ele>422.4</ele>
        <time>2019-01-23T10:53:27.000Z</time>
      </trkpt>
      <trkpt lat="43.16974" lon="0.85874">
        <ele>420.6</ele>
        <time>2019-01-23T10:53:37.000Z</time>
      </trkpt>
      <trkpt lat="43.1698" lon="0.85884">
        <ele>419.3</ele>
        <time>2019-01-23T10:53:45.000Z</time>
      </trkpt>
      <trkpt lat="43.16986" lon="0.85894">
        <ele>418.2</ele>
        <time>2019-01-23T10:53:53.000Z</time>
      </trkpt>
      <trkpt lat="43.16989" lon="0.85906">
        <ele>417.3</ele>
        <time>2019-01-23T10:54:1.000Z</time>
      </trkpt>
      <trkpt lat="43.16994" lon="0.85919">
        <ele>416</ele>
        <time>2019-01-23T10:54:9.000Z</time>
      </trkpt>
      <trkpt lat="43.16999" lon="0.8593">
        <ele>415.1</ele>
        <time>2019-01-23T10:54:18.000Z</time>
      </trkpt>
      <trkpt lat="43.17005" lon="0.85941">
        <ele>414.4</ele>
        <time>2019-01-23T10:54:26.000Z</time>
      </trkpt>
      <trkpt lat="43.1701" lon="0.85952">
        <ele>413.6</ele>
        <time>2019-01-23T10:54:35.000Z</time>
      </trkpt>
      <trkpt lat="43.17014" lon="0.85963">
        <ele>412.8</ele>
        <time>2019-01-23T10:54:43.000Z</time>
      </trkpt>
      <trkpt lat="43.17018" lon="0.85975">
        <ele>411.9</ele>
        <time>2019-01-23T10:54:51.000Z</time>
      </trkpt>
      <trkpt lat="43.17023" lon="0.85986">
        <ele>411.1</ele>
        <time>2019-01-23T10:55:0.000Z</time>
      </trkpt>
      <trkpt lat="43.17026" lon="0.85998">
        <ele>410.2</ele>
        <time>2019-01-23T10:55:8.000Z</time>
      </trkpt>
      <trkpt lat="43.1703" lon="0.86011">
        <ele>409.5</ele>
        <time>2019-01-23T10:55:17.000Z</time>
      </trkpt>
      <trkpt lat="43.17035" lon="0.86022">
        <ele>409.1</ele>
        <time>2019-01-23T10:55:24.000Z</time>
      </trkpt>
      <trkpt lat="43.1704" lon="0.86033">
        <ele>408.6</ele>
        <time>2019-01-23T10:55:32.000Z</time>
      </trkpt>
      <trkpt lat="43.17044" lon="0.86045">
        <ele>408.1</ele>
        <time>2019-01-23T10:55:42.000Z</time>
      </trkpt>
      <trkpt lat="43.17049" lon="0.86056">
        <ele>407.6</ele>
        <time>2019-01-23T10:55:50.000Z</time>
      </trkpt>
      <trkpt lat="43.1705" lon="0.86068">
        <ele>407.2</ele>
        <time>2019-01-23T10:55:57.000Z</time>
      </trkpt>
      <trkpt lat="43.1705" lon="0.86081">
        <ele>406.6</ele>
        <time>2019-01-23T10:56:4.000Z</time>
      </trkpt>
      <trkpt lat="43.1705" lon="0.86094">
        <ele>405.9</ele>
        <time>2019-01-23T10:56:18.000Z</time>
      </trkpt>
      <trkpt lat="43.17052" lon="0.86107">
        <ele>405.4</ele>
        <time>2019-01-23T10:56:34.000Z</time>
      </trkpt>
      <trkpt lat="43.17057" lon="0.86118">
        <ele>404.8</ele>
        <time>2019-01-23T10:56:45.000Z</time>
      </trkpt>
      <trkpt lat="43.17063" lon="0.86128">
        <ele>404.1</ele>
        <time>2019-01-23T10:56:55.000Z</time>
      </trkpt>
      <trkpt lat="43.17066" lon="0.86141">
        <ele>403.2</ele>
        <time>2019-01-23T10:57:4.000Z</time>
      </trkpt>
      <trkpt lat="43.17071" lon="0.8615">
        <ele>402.8</ele>
        <time>2019-01-23T10:57:11.000Z</time>
      </trkpt>
      <trkpt lat="43.17078" lon="0.86158">
        <ele>402.6</ele>
        <time>2019-01-23T10:57:19.000Z</time>
      </trkpt>
      <trkpt lat="43.17086" lon="0.86167">
        <ele>402.6</ele>
        <time>2019-01-23T10:57:26.000Z</time>
      </trkpt>
      <trkpt lat="43.17094" lon="0.86175">
        <ele>402.7</ele>
        <time>2019-01-23T10:57:33.000Z</time>
      </trkpt>
      <trkpt lat="43.17103" lon="0.86181">
        <ele>403</ele>
        <time>2019-01-23T10:57:40.000Z</time>
      </trkpt>
      <trkpt lat="43.17111" lon="0.86189">
        <ele>403.6</ele>
        <time>2019-01-23T10:57:47.000Z</time>
      </trkpt>
      <trkpt lat="43.1712" lon="0.86195">
        <ele>404.2</ele>
        <time>2019-01-23T10:57:53.000Z</time>
      </trkpt>
      <trkpt lat="43.17128" lon="0.86201">
        <ele>404.8</ele>
        <time>2019-01-23T10:58:0.000Z</time>
      </trkpt>
      <trkpt lat="43.17136" lon="0.86208">
        <ele>405.3</ele>
        <time>2019-01-23T10:58:7.000Z</time>
      </trkpt>
      <trkpt lat="43.17145" lon="0.86215">
        <ele>405.9</ele>
        <time>2019-01-23T10:58:14.000Z</time>
      </trkpt>
      <trkpt lat="43.17153" lon="0.86223">
        <ele>406.4</ele>
        <time>2019-01-23T10:58:21.000Z</time>
      </trkpt>
      <trkpt lat="43.17161" lon="0.8623">
        <ele>406.8</ele>
        <time>2019-01-23T10:58:27.000Z</time>
      </trkpt>
      <trkpt lat="43.17169" lon="0.86237">
        <ele>407.3</ele>
        <time>2019-01-23T10:58:33.000Z</time>
      </trkpt>
      <trkpt lat="43.17178" lon="0.86244">
        <ele>407.6</ele>
        <time>2019-01-23T10:58:39.000Z</time>
      </trkpt>
      <trkpt lat="43.17187" lon="0.8625">
        <ele>407.5</ele>
        <time>2019-01-23T10:58:46.000Z</time>
      </trkpt>
      <trkpt lat="43.17196" lon="0.86257">
        <ele>407.2</ele>
        <time>2019-01-23T10:58:53.000Z</time>
      </trkpt>
      <trkpt lat="43.17205" lon="0.86263">
        <ele>407</ele>
        <time>2019-01-23T10:58:59.000Z</time>
      </trkpt>
      <trkpt lat="43.17213" lon="0.8627">
        <ele>406.8</ele>
        <time>2019-01-23T10:59:5.000Z</time>
      </trkpt>
      <trkpt lat="43.17221" lon="0.86277">
        <ele>406.4</ele>
        <time>2019-01-23T10:59:10.000Z</time>
      </trkpt>
      <trkpt lat="43.17228" lon="0.86285">
        <ele>406.1</ele>
        <time>2019-01-23T10:59:15.000Z</time>
      </trkpt>
      <trkpt lat="43.17236" lon="0.86294">
        <ele>405.5</ele>
        <time>2019-01-23T10:59:21.000Z</time>
      </trkpt>
      <trkpt lat="43.17244" lon="0.86301">
        <ele>404.9</ele>
        <time>2019-01-23T10:59:27.000Z</time>
      </trkpt>
      <trkpt lat="43.17251" lon="0.86308">
        <ele>404.4</ele>
        <time>2019-01-23T10:59:32.000Z</time>
      </trkpt>
      <trkpt lat="43.1726" lon="0.86315">
        <ele>403.9</ele>
        <time>2019-01-23T10:59:38.000Z</time>
      </trkpt>
      <trkpt lat="43.17268" lon="0.86323">
        <ele>403.2</ele>
        <time>2019-01-23T10:59:44.000Z</time>
      </trkpt>
      <trkpt lat="43.17275" lon="0.8633">
        <ele>402.6</ele>
        <time>2019-01-23T10:59:49.000Z</time>
      </trkpt>
      <trkpt lat="43.17282" lon="0.86339">
        <ele>401.9</ele>
        <time>2019-01-23T10:59:55.000Z</time>
      </trkpt>
      <trkpt lat="43.1729" lon="0.86347">
        <ele>400.9</ele>
        <time>2019-01-23T11:00:1.000Z</time>
      </trkpt>
      <trkpt lat="43.17298" lon="0.86356">
        <ele>400.3</ele>
        <time>2019-01-23T11:00:7.000Z</time>
      </trkpt>
      <trkpt lat="43.17305" lon="0.86363">
        <ele>399.8</ele>
        <time>2019-01-23T11:00:13.000Z</time>
      </trkpt>
      <trkpt lat="43.17313" lon="0.86372">
        <ele>399.3</ele>
        <time>2019-01-23T11:00:19.000Z</time>
      </trkpt>
      <trkpt lat="43.17321" lon="0.86379">
        <ele>398.1</ele>
        <time>2019-01-23T11:00:33.000Z</time>
      </trkpt>
      <trkpt lat="43.1733" lon="0.86383">
        <ele>397.4</ele>
        <time>2019-01-23T11:00:48.000Z</time>
      </trkpt>
      <trkpt lat="43.17339" lon="0.86384">
        <ele>397</ele>
        <time>2019-01-23T11:01:16.000Z</time>
      </trkpt>
      <trkpt lat="43.17348" lon="0.86383">
        <ele>397.3</ele>
        <time>2019-01-23T11:01:27.000Z</time>
      </trkpt>
      <trkpt lat="43.17357" lon="0.86383">
        <ele>397.8</ele>
        <time>2019-01-23T11:01:37.000Z</time>
      </trkpt>
      <trkpt lat="43.17366" lon="0.86379">
        <ele>398.3</ele>
        <time>2019-01-23T11:01:46.000Z</time>
      </trkpt>
      <trkpt lat="43.17375" lon="0.86376">
        <ele>398.6</ele>
        <time>2019-01-23T11:01:54.000Z</time>
      </trkpt>
      <trkpt lat="43.17385" lon="0.86374">
        <ele>399.1</ele>
        <time>2019-01-23T11:02:3.000Z</time>
      </trkpt>
      <trkpt lat="43.17395" lon="0.86371">
        <ele>399.5</ele>
        <time>2019-01-23T11:02:12.000Z</time>
      </trkpt>
      <trkpt lat="43.17404" lon="0.86367">
        <ele>400</ele>
        <time>2019-01-23T11:02:20.000Z</time>
      </trkpt>
      <trkpt lat="43.17413" lon="0.86365">
        <ele>400.6</ele>
        <time>2019-01-23T11:02:30.000Z</time>
      </trkpt>
      <trkpt lat="43.17421" lon="0.86362">
        <ele>401.1</ele>
        <time>2019-01-23T11:02:38.000Z</time>
      </trkpt>
      <trkpt lat="43.17431" lon="0.86358">
        <ele>401.6</ele>
        <time>2019-01-23T11:02:47.000Z</time>
      </trkpt>
      <trkpt lat="43.17441" lon="0.86356">
        <ele>402.2</ele>
        <time>2019-01-23T11:02:55.000Z</time>
      </trkpt>
      <trkpt lat="43.1745" lon="0.86354">
        <ele>403.1</ele>
        <time>2019-01-23T11:03:3.000Z</time>
      </trkpt>
      <trkpt lat="43.1746" lon="0.86352">
        <ele>403.8</ele>
        <time>2019-01-23T11:03:11.000Z</time>
      </trkpt>
      <trkpt lat="43.1747" lon="0.86352">
        <ele>404.2</ele>
        <time>2019-01-23T11:03:20.000Z</time>
      </trkpt>
      <trkpt lat="43.17479" lon="0.86355">
        <ele>404.7</ele>
        <time>2019-01-23T11:04:8.000Z</time>
      </trkpt>
      <trkpt lat="43.17482" lon="0.86366">
        <ele>404.7</ele>
        <time>2019-01-23T11:04:20.000Z</time>
      </trkpt>
      <trkpt lat="43.17487" lon="0.86378">
        <ele>404.7</ele>
        <time>2019-01-23T11:04:28.000Z</time>
      </trkpt>
      <trkpt lat="43.17491" lon="0.86391">
        <ele>404.4</ele>
        <time>2019-01-23T11:04:36.000Z</time>
      </trkpt>
      <trkpt lat="43.17495" lon="0.86402">
        <ele>404.3</ele>
        <time>2019-01-23T11:04:44.000Z</time>
      </trkpt>
      <trkpt lat="43.175" lon="0.86414">
        <ele>403.9</ele>
        <time>2019-01-23T11:04:52.000Z</time>
      </trkpt>
      <trkpt lat="43.17504" lon="0.86425">
        <ele>403.5</ele>
        <time>2019-01-23T11:04:59.000Z</time>
      </trkpt>
      <trkpt lat="43.17508" lon="0.86438">
        <ele>402.9</ele>
        <time>2019-01-23T11:05:7.000Z</time>
      </trkpt>
      <trkpt lat="43.17513" lon="0.8645">
        <ele>402.4</ele>
        <time>2019-01-23T11:05:14.000Z</time>
      </trkpt>
      <trkpt lat="43.17517" lon="0.86461">
        <ele>401.8</ele>
        <time>2019-01-23T11:05:21.000Z</time>
      </trkpt>
      <trkpt lat="43.17522" lon="0.86472">
        <ele>401.2</ele>
        <time>2019-01-23T11:05:28.000Z</time>
      </trkpt>
      <trkpt lat="43.17528" lon="0.86483">
        <ele>400.6</ele>
        <time>2019-01-23T11:05:36.000Z</time>
      </trkpt>
      <trkpt lat="43.17535" lon="0.86494">
        <ele>399.8</ele>
        <time>2019-01-23T11:05:44.000Z</time>
      </trkpt>
      <trkpt lat="43.17541" lon="0.86505">
        <ele>398.5</ele>
        <time>2019-01-23T11:05:52.000Z</time>
      </trkpt>
      <trkpt lat="43.17547" lon="0.86516">
        <ele>397.3</ele>
        <time>2019-01-23T11:06:0.000Z</time>
      </trkpt>
      <trkpt lat="43.17553" lon="0.86527">
        <ele>395.9</ele>
        <time>2019-01-23T11:06:7.000Z</time>
      </trkpt>
      <trkpt lat="43.17559" lon="0.86535">
        <ele>394.7</ele>
        <time>2019-01-23T11:06:13.000Z</time>
      </trkpt>
      <trkpt lat="43.17565" lon="0.86546">
        <ele>393.8</ele>
        <time>2019-01-23T11:06:19.000Z</time>
      </trkpt>
      <trkpt lat="43.17573" lon="0.86554">
        <ele>392.8</ele>
        <time>2019-01-23T11:06:26.000Z</time>
      </trkpt>
      <trkpt lat="43.17579" lon="0.86564">
        <ele>391.6</ele>
        <time>2019-01-23T11:06:33.000Z</time>
      </trkpt>
      <trkpt lat="43.17586" lon="0.86573">
        <ele>390.5</ele>
        <time>2019-01-23T11:06:40.000Z</time>
      </trkpt>
      <trkpt lat="43.17591" lon="0.86585">
        <ele>388.8</ele>
        <time>2019-01-23T11:06:49.000Z</time>
      </trkpt>
      <trkpt lat="43.17595" lon="0.86597">
        <ele>387.3</ele>
        <time>2019-01-23T11:06:57.000Z</time>
      </trkpt>
      <trkpt lat="43.17595" lon="0.8661">
        <ele>386</ele>
        <time>2019-01-23T11:07:4.000Z</time>
      </trkpt>
      <trkpt lat="43.17593" lon="0.86623">
        <ele>385.1</ele>
        <time>2019-01-23T11:07:11.000Z</time>
      </trkpt>
      <trkpt lat="43.17593" lon="0.86637">
        <ele>384.3</ele>
        <time>2019-01-23T11:07:18.000Z</time>
      </trkpt>
      <trkpt lat="43.1759" lon="0.86651">
        <ele>383.5</ele>
        <time>2019-01-23T11:07:26.000Z</time>
      </trkpt>
      <trkpt lat="43.17587" lon="0.86663">
        <ele>383</ele>
        <time>2019-01-23T11:07:32.000Z</time>
      </trkpt>
      <trkpt lat="43.17585" lon="0.86676">
        <ele>382.6</ele>
        <time>2019-01-23T11:07:39.000Z</time>
      </trkpt>
      <trkpt lat="43.17583" lon="0.86689">
        <ele>382.4</ele>
        <time>2019-01-23T11:07:46.000Z</time>
      </trkpt>
      <trkpt lat="43.1758" lon="0.86703">
        <ele>382</ele>
        <time>2019-01-23T11:07:54.000Z</time>
      </trkpt>
      <trkpt lat="43.17577" lon="0.86715">
        <ele>381.7</ele>
        <time>2019-01-23T11:08:2.000Z</time>
      </trkpt>
      <trkpt lat="43.17576" lon="0.86728">
        <ele>381.2</ele>
        <time>2019-01-23T11:08:10.000Z</time>
      </trkpt>
      <trkpt lat="43.17574" lon="0.86741">
        <ele>381</ele>
        <time>2019-01-23T11:08:19.000Z</time>
      </trkpt>
      <trkpt lat="43.17569" lon="0.86751">
        <ele>380.7</ele>
        <time>2019-01-23T11:08:28.000Z</time>
      </trkpt>
      <trkpt lat="43.17566" lon="0.86763">
        <ele>380.6</ele>
        <time>2019-01-23T11:08:35.000Z</time>
      </trkpt>
      <trkpt lat="43.17563" lon="0.86775">
        <ele>380.4</ele>
        <time>2019-01-23T11:08:42.000Z</time>
      </trkpt>
      <trkpt lat="43.17559" lon="0.86787">
        <ele>380.2</ele>
        <time>2019-01-23T11:08:50.000Z</time>
      </trkpt>
      <trkpt lat="43.17555" lon="0.868">
        <ele>379.8</ele>
        <time>2019-01-23T11:08:58.000Z</time>
      </trkpt>
      <trkpt lat="43.1755" lon="0.86812">
        <ele>379.6</ele>
        <time>2019-01-23T11:09:6.000Z</time>
      </trkpt>
      <trkpt lat="43.17547" lon="0.86825">
        <ele>379.5</ele>
        <time>2019-01-23T11:09:14.000Z</time>
      </trkpt>
      <trkpt lat="43.17546" lon="0.86838">
        <ele>379.4</ele>
        <time>2019-01-23T11:09:21.000Z</time>
      </trkpt>
      <trkpt lat="43.17545" lon="0.86851">
        <ele>379.3</ele>
        <time>2019-01-23T11:09:28.000Z</time>
      </trkpt>
      <trkpt lat="43.17547" lon="0.86865">
        <ele>378.9</ele>
        <time>2019-01-23T11:09:36.000Z</time>
      </trkpt>
      <trkpt lat="43.17551" lon="0.86876">
        <ele>378.6</ele>
        <time>2019-01-23T11:09:43.000Z</time>
      </trkpt>
      <trkpt lat="43.17556" lon="0.86888">
        <ele>378.4</ele>
        <time>2019-01-23T11:09:49.000Z</time>
      </trkpt>
      <trkpt lat="43.17561" lon="0.86899">
        <ele>378.2</ele>
        <time>2019-01-23T11:09:56.000Z</time>
      </trkpt>
      <trkpt lat="43.17566" lon="0.8691">
        <ele>378.1</ele>
        <time>2019-01-23T11:10:2.000Z</time>
      </trkpt>
      <trkpt lat="43.1757" lon="0.86921">
        <ele>377.7</ele>
        <time>2019-01-23T11:10:9.000Z</time>
      </trkpt>
      <trkpt lat="43.17575" lon="0.86932">
        <ele>377.6</ele>
        <time>2019-01-23T11:10:16.000Z</time>
      </trkpt>
      <trkpt lat="43.17581" lon="0.86943">
        <ele>377.2</ele>
        <time>2019-01-23T11:10:24.000Z</time>
      </trkpt>
      <trkpt lat="43.17588" lon="0.86952">
        <ele>377</ele>
        <time>2019-01-23T11:10:31.000Z</time>
      </trkpt>
      <trkpt lat="43.17596" lon="0.8696">
        <ele>376.8</ele>
        <time>2019-01-23T11:10:38.000Z</time>
      </trkpt>
      <trkpt lat="43.17604" lon="0.86969">
        <ele>376.9</ele>
        <time>2019-01-23T11:10:45.000Z</time>
      </trkpt>
      <trkpt lat="43.17612" lon="0.86977">
        <ele>377</ele>
        <time>2019-01-23T11:10:54.000Z</time>
      </trkpt>
      <trkpt lat="43.17619" lon="0.86985">
        <ele>377</ele>
        <time>2019-01-23T11:11:1.000Z</time>
      </trkpt>
      <trkpt lat="43.17626" lon="0.86993">
        <ele>377</ele>
        <time>2019-01-23T11:11:8.000Z</time>
      </trkpt>
      <trkpt lat="43.17634" lon="0.87">
        <ele>377.1</ele>
        <time>2019-01-23T11:11:17.000Z</time>
      </trkpt>
      <trkpt lat="43.17644" lon="0.86999">
        <ele>377.1</ele>
        <time>2019-01-23T11:11:26.000Z</time>
      </trkpt>
      <trkpt lat="43.17653" lon="0.87005">
        <ele>377.2</ele>
        <time>2019-01-23T11:11:34.000Z</time>
      </trkpt>
      <trkpt lat="43.1766" lon="0.87014">
        <ele>377.2</ele>
        <time>2019-01-23T11:11:42.000Z</time>
      </trkpt>
      <trkpt lat="43.17668" lon="0.8702">
        <ele>377.3</ele>
        <time>2019-01-23T11:11:52.000Z</time>
      </trkpt>
      <trkpt lat="43.17675" lon="0.8703">
        <ele>377.5</ele>
        <time>2019-01-23T11:11:59.000Z</time>
      </trkpt>
      <trkpt lat="43.17681" lon="0.87041">
        <ele>377.7</ele>
        <time>2019-01-23T11:12:7.000Z</time>
      </trkpt>
      <trkpt lat="43.17689" lon="0.87049">
        <ele>378</ele>
        <time>2019-01-23T11:12:15.000Z</time>
      </trkpt>
      <trkpt lat="43.17696" lon="0.87058">
        <ele>377.9</ele>
        <time>2019-01-23T11:12:24.000Z</time>
      </trkpt>
      <trkpt lat="43.17705" lon="0.87065">
        <ele>377.8</ele>
        <time>2019-01-23T11:12:31.000Z</time>
      </trkpt>
      <trkpt lat="43.17713" lon="0.87072">
        <ele>377.8</ele>
        <time>2019-01-23T11:12:39.000Z</time>
      </trkpt>
      <trkpt lat="43.1772" lon="0.87081">
        <ele>377.8</ele>
        <time>2019-01-23T11:12:48.000Z</time>
      </trkpt>
      <trkpt lat="43.17727" lon="0.87089">
        <ele>377.9</ele>
        <time>2019-01-23T11:12:57.000Z</time>
      </trkpt>
      <trkpt lat="43.17737" lon="0.87099">
        <ele>378.4</ele>
        <time>2019-01-23T11:13:4.000Z</time>
      </trkpt>
      <trkpt lat="43.17741" lon="0.87111">
        <ele>379.2</ele>
        <time>2019-01-23T11:13:15.000Z</time>
      </trkpt>
      <trkpt lat="43.17734" lon="0.87122">
        <ele>379.5</ele>
        <time>2019-01-23T11:13:22.000Z</time>
      </trkpt>
      <trkpt lat="43.17729" lon="0.87133">
        <ele>379.8</ele>
        <time>2019-01-23T11:13:30.000Z</time>
      </trkpt>
      <trkpt lat="43.17727" lon="0.87146">
        <ele>379.7</ele>
        <time>2019-01-23T11:13:38.000Z</time>
      </trkpt>
      <trkpt lat="43.17726" lon="0.87159">
        <ele>379.4</ele>
        <time>2019-01-23T11:13:45.000Z</time>
      </trkpt>
      <trkpt lat="43.17725" lon="0.87173">
        <ele>378.7</ele>
        <time>2019-01-23T11:13:52.000Z</time>
      </trkpt>
      <trkpt lat="43.17723" lon="0.87186">
        <ele>378.3</ele>
        <time>2019-01-23T11:13:58.000Z</time>
      </trkpt>
      <trkpt lat="43.17722" lon="0.87199">
        <ele>377.6</ele>
        <time>2019-01-23T11:14:5.000Z</time>
      </trkpt>
      <trkpt lat="43.17723" lon="0.87212">
        <ele>377.1</ele>
        <time>2019-01-23T11:14:11.000Z</time>
      </trkpt>
      <trkpt lat="43.17727" lon="0.87225">
        <ele>376.4</ele>
        <time>2019-01-23T11:14:19.000Z</time>
      </trkpt>
      <trkpt lat="43.17732" lon="0.87235">
        <ele>375.8</ele>
        <time>2019-01-23T11:14:26.000Z</time>
      </trkpt>
      <trkpt lat="43.17739" lon="0.87243">
        <ele>375</ele>
        <time>2019-01-23T11:14:33.000Z</time>
      </trkpt>
      <trkpt lat="43.17747" lon="0.87252">
        <ele>374.4</ele>
        <time>2019-01-23T11:14:41.000Z</time>
      </trkpt>
      <trkpt lat="43.17754" lon="0.8726">
        <ele>374</ele>
        <time>2019-01-23T11:14:48.000Z</time>
      </trkpt>
      <trkpt lat="43.1776" lon="0.8727">
        <ele>373.8</ele>
        <time>2019-01-23T11:14:57.000Z</time>
      </trkpt>
      <trkpt lat="43.17766" lon="0.87279">
        <ele>373.7</ele>
        <time>2019-01-23T11:15:6.000Z</time>
      </trkpt>
      <trkpt lat="43.17772" lon="0.87289">
        <ele>373.8</ele>
        <time>2019-01-23T11:15:14.000Z</time>
      </trkpt>
      <trkpt lat="43.17781" lon="0.87298">
        <ele>374.4</ele>
        <time>2019-01-23T11:15:24.000Z</time>
      </trkpt>
      <trkpt lat="43.17788" lon="0.87304">
        <ele>375.1</ele>
        <time>2019-01-23T11:15:31.000Z</time>
      </trkpt>
      <trkpt lat="43.17796" lon="0.87311">
        <ele>376.1</ele>
        <time>2019-01-23T11:15:38.000Z</time>
      </trkpt>
      <trkpt lat="43.17805" lon="0.87317">
        <ele>377.1</ele>
        <time>2019-01-23T11:15:45.000Z</time>
      </trkpt>
      <trkpt lat="43.17812" lon="0.87326">
        <ele>377.9</ele>
        <time>2019-01-23T11:15:54.000Z</time>
      </trkpt>
      <trkpt lat="43.17817" lon="0.87337">
        <ele>378.3</ele>
        <time>2019-01-23T11:16:2.000Z</time>
      </trkpt>
      <trkpt lat="43.17813" lon="0.87348">
        <ele>378.2</ele>
        <time>2019-01-23T11:16:11.000Z</time>
      </trkpt>
      <trkpt lat="43.17808" lon="0.87358">
        <ele>377.5</ele>
        <time>2019-01-23T11:16:19.000Z</time>
      </trkpt>
      <trkpt lat="43.17808" lon="0.87372">
        <ele>376.4</ele>
        <time>2019-01-23T11:16:27.000Z</time>
      </trkpt>
      <trkpt lat="43.17813" lon="0.87382">
        <ele>375.5</ele>
        <time>2019-01-23T11:16:33.000Z</time>
      </trkpt>
      <trkpt lat="43.1782" lon="0.87391">
        <ele>373.9</ele>
        <time>2019-01-23T11:16:41.000Z</time>
      </trkpt>
      <trkpt lat="43.17825" lon="0.87402">
        <ele>372.7</ele>
        <time>2019-01-23T11:16:47.000Z</time>
      </trkpt>
      <trkpt lat="43.17833" lon="0.87411">
        <ele>371.6</ele>
        <time>2019-01-23T11:16:55.000Z</time>
      </trkpt>
      <trkpt lat="43.17842" lon="0.87418">
        <ele>370</ele>
        <time>2019-01-23T11:17:4.000Z</time>
      </trkpt>
      <trkpt lat="43.1785" lon="0.87424">
        <ele>369.2</ele>
        <time>2019-01-23T11:17:10.000Z</time>
      </trkpt>
      <trkpt lat="43.17858" lon="0.87431">
        <ele>368.7</ele>
        <time>2019-01-23T11:17:16.000Z</time>
      </trkpt>
      <trkpt lat="43.17864" lon="0.87442">
        <ele>368.2</ele>
        <time>2019-01-23T11:17:28.000Z</time>
      </trkpt>
      <trkpt lat="43.17873" lon="0.8745">
        <ele>368</ele>
        <time>2019-01-23T11:17:36.000Z</time>
      </trkpt>
      <trkpt lat="43.17878" lon="0.87461">
        <ele>368</ele>
        <time>2019-01-23T11:17:44.000Z</time>
      </trkpt>
      <trkpt lat="43.17881" lon="0.87473">
        <ele>368.1</ele>
        <time>2019-01-23T11:17:53.000Z</time>
      </trkpt>
      <trkpt lat="43.17885" lon="0.87485">
        <ele>368.3</ele>
        <time>2019-01-23T11:18:3.000Z</time>
      </trkpt>
      <trkpt lat="43.17891" lon="0.87496">
        <ele>368.4</ele>
        <time>2019-01-23T11:18:12.000Z</time>
      </trkpt>
      <trkpt lat="43.17897" lon="0.87508">
        <ele>368.3</ele>
        <time>2019-01-23T11:18:19.000Z</time>
      </trkpt>
      <trkpt lat="43.17902" lon="0.8752">
        <ele>368.3</ele>
        <time>2019-01-23T11:18:24.000Z</time>
      </trkpt>
      <trkpt lat="43.17908" lon="0.8753">
        <ele>368.2</ele>
        <time>2019-01-23T11:18:30.000Z</time>
      </trkpt>
      <trkpt lat="43.17912" lon="0.87543">
        <ele>368.2</ele>
        <time>2019-01-23T11:18:39.000Z</time>
      </trkpt>
      <trkpt lat="43.17909" lon="0.87555">
        <ele>367.9</ele>
        <time>2019-01-23T11:18:46.000Z</time>
      </trkpt>
      <trkpt lat="43.17905" lon="0.87566">
        <ele>367.3</ele>
        <time>2019-01-23T11:18:55.000Z</time>
      </trkpt>
      <trkpt lat="43.179" lon="0.87579">
        <ele>367.1</ele>
        <time>2019-01-23T11:19:4.000Z</time>
      </trkpt>
      <trkpt lat="43.17896" lon="0.87591">
        <ele>367</ele>
        <time>2019-01-23T11:19:12.000Z</time>
      </trkpt>
      <trkpt lat="43.17894" lon="0.87603">
        <ele>366.8</ele>
        <time>2019-01-23T11:19:19.000Z</time>
      </trkpt>
      <trkpt lat="43.17894" lon="0.87617">
        <ele>366.4</ele>
        <time>2019-01-23T11:19:26.000Z</time>
      </trkpt>
      <trkpt lat="43.17894" lon="0.8763">
        <ele>365.9</ele>
        <time>2019-01-23T11:19:33.000Z</time>
      </trkpt>
      <trkpt lat="43.17895" lon="0.87644">
        <ele>365.5</ele>
        <time>2019-01-23T11:19:42.000Z</time>
      </trkpt>
      <trkpt lat="43.17895" lon="0.87657">
        <ele>365</ele>
        <time>2019-01-23T11:19:50.000Z</time>
      </trkpt>
      <trkpt lat="43.17893" lon="0.8767">
        <ele>364.6</ele>
        <time>2019-01-23T11:19:57.000Z</time>
      </trkpt>
      <trkpt lat="43.1789" lon="0.87682">
        <ele>364</ele>
        <time>2019-01-23T11:20:5.000Z</time>
      </trkpt>
      <trkpt lat="43.17888" lon="0.87694">
        <ele>363.5</ele>
        <time>2019-01-23T11:20:15.000Z</time>
      </trkpt>
      <trkpt lat="43.17883" lon="0.87705">
        <ele>362.7</ele>
        <time>2019-01-23T11:20:23.000Z</time>
      </trkpt>
      <trkpt lat="43.1788" lon="0.87717">
        <ele>362.2</ele>
        <time>2019-01-23T11:20:30.000Z</time>
      </trkpt>
      <trkpt lat="43.17886" lon="0.87728">
        <ele>361.7</ele>
        <time>2019-01-23T11:20:40.000Z</time>
      </trkpt>
      <trkpt lat="43.17895" lon="0.87731">
        <ele>361.4</ele>
        <time>2019-01-23T11:20:47.000Z</time>
      </trkpt>
      <trkpt lat="43.17905" lon="0.87732">
        <ele>361.5</ele>
        <time>2019-01-23T11:20:56.000Z</time>
      </trkpt>
      <trkpt lat="43.17914" lon="0.87734">
        <ele>362</ele>
        <time>2019-01-23T11:21:4.000Z</time>
      </trkpt>
      <trkpt lat="43.17923" lon="0.87734">
        <ele>362.6</ele>
        <time>2019-01-23T11:21:11.000Z</time>
      </trkpt>
      <trkpt lat="43.17933" lon="0.87733">
        <ele>363.4</ele>
        <time>2019-01-23T11:21:20.000Z</time>
      </trkpt>
      <trkpt lat="43.17944" lon="0.87731">
        <ele>363.9</ele>
        <time>2019-01-23T11:21:28.000Z</time>
      </trkpt>
      <trkpt lat="43.17953" lon="0.87729">
        <ele>364.4</ele>
        <time>2019-01-23T11:21:36.000Z</time>
      </trkpt>
      <trkpt lat="43.17963" lon="0.87727">
        <ele>364.6</ele>
        <time>2019-01-23T11:21:43.000Z</time>
      </trkpt>
      <trkpt lat="43.17972" lon="0.87724">
        <ele>364.3</ele>
        <time>2019-01-23T11:21:50.000Z</time>
      </trkpt>
      <trkpt lat="43.17983" lon="0.87722">
        <ele>364</ele>
        <time>2019-01-23T11:21:58.000Z</time>
      </trkpt>
      <trkpt lat="43.17992" lon="0.87719">
        <ele>363.4</ele>
        <time>2019-01-23T11:22:5.000Z</time>
      </trkpt>
      <trkpt lat="43.18002" lon="0.87716">
        <ele>362.9</ele>
        <time>2019-01-23T11:22:13.000Z</time>
      </trkpt>
      <trkpt lat="43.18012" lon="0.87713">
        <ele>362.5</ele>
        <time>2019-01-23T11:22:21.000Z</time>
      </trkpt>
      <trkpt lat="43.18021" lon="0.8771">
        <ele>362.4</ele>
        <time>2019-01-23T11:22:28.000Z</time>
      </trkpt>
      <trkpt lat="43.18031" lon="0.87709">
        <ele>362.3</ele>
        <time>2019-01-23T11:22:36.000Z</time>
      </trkpt>
      <trkpt lat="43.1804" lon="0.87707">
        <ele>362.3</ele>
        <time>2019-01-23T11:22:44.000Z</time>
      </trkpt>
      <trkpt lat="43.18049" lon="0.87706">
        <ele>362.2</ele>
        <time>2019-01-23T11:22:51.000Z</time>
      </trkpt>
      <trkpt lat="43.18059" lon="0.87705">
        <ele>362.2</ele>
        <time>2019-01-23T11:22:59.000Z</time>
      </trkpt>
      <trkpt lat="43.18068" lon="0.87704">
        <ele>362.4</ele>
        <time>2019-01-23T11:23:6.000Z</time>
      </trkpt>
      <trkpt lat="43.18077" lon="0.87704">
        <ele>363.3</ele>
        <time>2019-01-23T11:23:16.000Z</time>
      </trkpt>
      <trkpt lat="43.18086" lon="0.87701">
        <ele>364.3</ele>
        <time>2019-01-23T11:23:25.000Z</time>
      </trkpt>
      <trkpt lat="43.18086" lon="0.877">
        <ele>366.7</ele>
        <time>2019-01-23T11:26:35.000Z</time>
      </trkpt>
      <trkpt lat="43.18079" lon="0.87711">
        <ele>367.1</ele>
        <time>2019-01-23T11:26:42.000Z</time>
      </trkpt>
      <trkpt lat="43.18073" lon="0.87722">
        <ele>367.6</ele>
        <time>2019-01-23T11:26:49.000Z</time>
      </trkpt>
      <trkpt lat="43.18068" lon="0.87733">
        <ele>368</ele>
        <time>2019-01-23T11:26:55.000Z</time>
      </trkpt>
      <trkpt lat="43.18065" lon="0.87745">
        <ele>368.7</ele>
        <time>2019-01-23T11:27:2.000Z</time>
      </trkpt>
      <trkpt lat="43.18061" lon="0.87758">
        <ele>369.6</ele>
        <time>2019-01-23T11:27:10.000Z</time>
      </trkpt>
      <trkpt lat="43.18057" lon="0.87769">
        <ele>370.2</ele>
        <time>2019-01-23T11:27:16.000Z</time>
      </trkpt>
      <trkpt lat="43.18053" lon="0.87781">
        <ele>370.9</ele>
        <time>2019-01-23T11:27:22.000Z</time>
      </trkpt>
      <trkpt lat="43.18049" lon="0.87793">
        <ele>371.5</ele>
        <time>2019-01-23T11:27:29.000Z</time>
      </trkpt>
      <trkpt lat="43.18044" lon="0.87804">
        <ele>372.2</ele>
        <time>2019-01-23T11:27:36.000Z</time>
      </trkpt>
      <trkpt lat="43.18041" lon="0.87816">
        <ele>372.8</ele>
        <time>2019-01-23T11:27:42.000Z</time>
      </trkpt>
      <trkpt lat="43.18036" lon="0.87827">
        <ele>373.3</ele>
        <time>2019-01-23T11:27:48.000Z</time>
      </trkpt>
      <trkpt lat="43.18031" lon="0.87838">
        <ele>374</ele>
        <time>2019-01-23T11:27:55.000Z</time>
      </trkpt>
      <trkpt lat="43.18026" lon="0.8785">
        <ele>374.5</ele>
        <time>2019-01-23T11:28:2.000Z</time>
      </trkpt>
      <trkpt lat="43.18019" lon="0.87859">
        <ele>375.1</ele>
        <time>2019-01-23T11:28:9.000Z</time>
      </trkpt>
      <trkpt lat="43.18012" lon="0.87869">
        <ele>375.4</ele>
        <time>2019-01-23T11:28:16.000Z</time>
      </trkpt>
      <trkpt lat="43.18006" lon="0.87878">
        <ele>375.4</ele>
        <time>2019-01-23T11:28:23.000Z</time>
      </trkpt>
      <trkpt lat="43.17999" lon="0.87889">
        <ele>375.5</ele>
        <time>2019-01-23T11:28:30.000Z</time>
      </trkpt>
      <trkpt lat="43.17996" lon="0.87901">
        <ele>375.7</ele>
        <time>2019-01-23T11:28:36.000Z</time>
      </trkpt>
      <trkpt lat="43.17992" lon="0.87915">
        <ele>375.9</ele>
        <time>2019-01-23T11:28:43.000Z</time>
      </trkpt>
      <trkpt lat="43.17989" lon="0.87927">
        <ele>376</ele>
        <time>2019-01-23T11:28:49.000Z</time>
      </trkpt>
      <trkpt lat="43.17985" lon="0.8794">
        <ele>375.8</ele>
        <time>2019-01-23T11:28:55.000Z</time>
      </trkpt>
      <trkpt lat="43.17981" lon="0.87952">
        <ele>375.6</ele>
        <time>2019-01-23T11:29:1.000Z</time>
      </trkpt>
      <trkpt lat="43.17978" lon="0.87963">
        <ele>375.3</ele>
        <time>2019-01-23T11:29:7.000Z</time>
      </trkpt>
      <trkpt lat="43.17974" lon="0.87975">
        <ele>375.1</ele>
        <time>2019-01-23T11:29:13.000Z</time>
      </trkpt>
      <trkpt lat="43.1797" lon="0.87988">
        <ele>375</ele>
        <time>2019-01-23T11:29:19.000Z</time>
      </trkpt>
      <trkpt lat="43.17968" lon="0.88">
        <ele>374.9</ele>
        <time>2019-01-23T11:29:25.000Z</time>
      </trkpt>
      <trkpt lat="43.17964" lon="0.88013">
        <ele>374.9</ele>
        <time>2019-01-23T11:29:32.000Z</time>
      </trkpt>
      <trkpt lat="43.17959" lon="0.88025">
        <ele>375</ele>
        <time>2019-01-23T11:29:38.000Z</time>
      </trkpt>
      <trkpt lat="43.17954" lon="0.88037">
        <ele>375</ele>
        <time>2019-01-23T11:29:44.000Z</time>
      </trkpt>
      <trkpt lat="43.1795" lon="0.88048">
        <ele>375.1</ele>
        <time>2019-01-23T11:29:51.000Z</time>
      </trkpt>
      <trkpt lat="43.17945" lon="0.8806">
        <ele>374.8</ele>
        <time>2019-01-23T11:29:58.000Z</time>
      </trkpt>
      <trkpt lat="43.17938" lon="0.88071">
        <ele>374.3</ele>
        <time>2019-01-23T11:30:5.000Z</time>
      </trkpt>
      <trkpt lat="43.17932" lon="0.88082">
        <ele>373.5</ele>
        <time>2019-01-23T11:30:11.000Z</time>
      </trkpt>
      <trkpt lat="43.17927" lon="0.88095">
        <ele>373</ele>
        <time>2019-01-23T11:30:17.000Z</time>
      </trkpt>
      <trkpt lat="43.17924" lon="0.88108">
        <ele>372.6</ele>
        <time>2019-01-23T11:30:24.000Z</time>
      </trkpt>
      <trkpt lat="43.1792" lon="0.8812">
        <ele>372.5</ele>
        <time>2019-01-23T11:30:32.000Z</time>
      </trkpt>
      <trkpt lat="43.17917" lon="0.88131">
        <ele>372.6</ele>
        <time>2019-01-23T11:30:39.000Z</time>
      </trkpt>
      <trkpt lat="43.17915" lon="0.88144">
        <ele>372.9</ele>
        <time>2019-01-23T11:30:46.000Z</time>
      </trkpt>
      <trkpt lat="43.17913" lon="0.88156">
        <ele>373.2</ele>
        <time>2019-01-23T11:30:53.000Z</time>
      </trkpt>
      <trkpt lat="43.1791" lon="0.88169">
        <ele>373.5</ele>
        <time>2019-01-23T11:31:2.000Z</time>
      </trkpt>
      <trkpt lat="43.17908" lon="0.88182">
        <ele>373.9</ele>
        <time>2019-01-23T11:31:10.000Z</time>
      </trkpt>
      <trkpt lat="43.17907" lon="0.88195">
        <ele>374.2</ele>
        <time>2019-01-23T11:31:17.000Z</time>
      </trkpt>
      <trkpt lat="43.17906" lon="0.88209">
        <ele>374.6</ele>
        <time>2019-01-23T11:31:25.000Z</time>
      </trkpt>
      <trkpt lat="43.17907" lon="0.88222">
        <ele>375.2</ele>
        <time>2019-01-23T11:31:34.000Z</time>
      </trkpt>
      <trkpt lat="43.17909" lon="0.88234">
        <ele>376.5</ele>
        <time>2019-01-23T11:31:43.000Z</time>
      </trkpt>
      <trkpt lat="43.1791" lon="0.88247">
        <ele>377.7</ele>
        <time>2019-01-23T11:31:51.000Z</time>
      </trkpt>
      <trkpt lat="43.17906" lon="0.8826">
        <ele>378.8</ele>
        <time>2019-01-23T11:32:0.000Z</time>
      </trkpt>
      <trkpt lat="43.17903" lon="0.88272">
        <ele>379.4</ele>
        <time>2019-01-23T11:32:8.000Z</time>
      </trkpt>
      <trkpt lat="43.179" lon="0.88285">
        <ele>379.9</ele>
        <time>2019-01-23T11:32:17.000Z</time>
      </trkpt>
      <trkpt lat="43.17898" lon="0.88299">
        <ele>380</ele>
        <time>2019-01-23T11:32:25.000Z</time>
      </trkpt>
      <trkpt lat="43.17894" lon="0.88311">
        <ele>379.9</ele>
        <time>2019-01-23T11:32:32.000Z</time>
      </trkpt>
      <trkpt lat="43.17891" lon="0.88324">
        <ele>379.7</ele>
        <time>2019-01-23T11:32:40.000Z</time>
      </trkpt>
      <trkpt lat="43.17889" lon="0.88336">
        <ele>379.4</ele>
        <time>2019-01-23T11:32:48.000Z</time>
      </trkpt>
      <trkpt lat="43.17889" lon="0.8835">
        <ele>378.2</ele>
        <time>2019-01-23T11:33:15.000Z</time>
      </trkpt>
      <trkpt lat="43.17885" lon="0.88361">
        <ele>377.7</ele>
        <time>2019-01-23T11:33:23.000Z</time>
      </trkpt>
      <trkpt lat="43.17879" lon="0.88371">
        <ele>377.4</ele>
        <time>2019-01-23T11:33:30.000Z</time>
      </trkpt>
      <trkpt lat="43.17874" lon="0.88384">
        <ele>377.2</ele>
        <time>2019-01-23T11:33:38.000Z</time>
      </trkpt>
      <trkpt lat="43.17871" lon="0.88395">
        <ele>377</ele>
        <time>2019-01-23T11:33:45.000Z</time>
      </trkpt>
      <trkpt lat="43.17867" lon="0.88408">
        <ele>376.6</ele>
        <time>2019-01-23T11:33:52.000Z</time>
      </trkpt>
      <trkpt lat="43.17864" lon="0.88421">
        <ele>375.8</ele>
        <time>2019-01-23T11:33:59.000Z</time>
      </trkpt>
      <trkpt lat="43.17859" lon="0.88433">
        <ele>375.2</ele>
        <time>2019-01-23T11:34:6.000Z</time>
      </trkpt>
      <trkpt lat="43.17855" lon="0.88445">
        <ele>374.5</ele>
        <time>2019-01-23T11:34:14.000Z</time>
      </trkpt>
      <trkpt lat="43.1785" lon="0.88456">
        <ele>374</ele>
        <time>2019-01-23T11:34:21.000Z</time>
      </trkpt>
      <trkpt lat="43.17843" lon="0.88466">
        <ele>373</ele>
        <time>2019-01-23T11:34:29.000Z</time>
      </trkpt>
      <trkpt lat="43.17839" lon="0.88478">
        <ele>372.4</ele>
        <time>2019-01-23T11:34:37.000Z</time>
      </trkpt>
      <trkpt lat="43.17832" lon="0.88487">
        <ele>371.8</ele>
        <time>2019-01-23T11:34:44.000Z</time>
      </trkpt>
      <trkpt lat="43.17827" lon="0.88499">
        <ele>371.3</ele>
        <time>2019-01-23T11:34:52.000Z</time>
      </trkpt>
      <trkpt lat="43.17821" lon="0.8851">
        <ele>371</ele>
        <time>2019-01-23T11:35:0.000Z</time>
      </trkpt>
      <trkpt lat="43.17815" lon="0.8852">
        <ele>370.8</ele>
        <time>2019-01-23T11:35:7.000Z</time>
      </trkpt>
      <trkpt lat="43.17806" lon="0.88529">
        <ele>370.4</ele>
        <time>2019-01-23T11:35:14.000Z</time>
      </trkpt>
      <trkpt lat="43.17799" lon="0.88538">
        <ele>370.2</ele>
        <time>2019-01-23T11:35:20.000Z</time>
      </trkpt>
      <trkpt lat="43.17792" lon="0.88548">
        <ele>370</ele>
        <time>2019-01-23T11:35:27.000Z</time>
      </trkpt>
      <trkpt lat="43.17788" lon="0.88559">
        <ele>369.8</ele>
        <time>2019-01-23T11:35:34.000Z</time>
      </trkpt>
      <trkpt lat="43.17782" lon="0.88569">
        <ele>369.6</ele>
        <time>2019-01-23T11:35:40.000Z</time>
      </trkpt>
      <trkpt lat="43.17776" lon="0.8858">
        <ele>369.4</ele>
        <time>2019-01-23T11:35:47.000Z</time>
      </trkpt>
      <trkpt lat="43.17771" lon="0.88592">
        <ele>368.7</ele>
        <time>2019-01-23T11:35:55.000Z</time>
      </trkpt>
      <trkpt lat="43.17766" lon="0.88604">
        <ele>368.3</ele>
        <time>2019-01-23T11:36:3.000Z</time>
      </trkpt>
      <trkpt lat="43.17761" lon="0.88616">
        <ele>368</ele>
        <time>2019-01-23T11:36:12.000Z</time>
      </trkpt>
      <trkpt lat="43.17755" lon="0.88628">
        <ele>367.8</ele>
        <time>2019-01-23T11:36:19.000Z</time>
      </trkpt>
      <trkpt lat="43.17752" lon="0.8864">
        <ele>367.6</ele>
        <time>2019-01-23T11:36:26.000Z</time>
      </trkpt>
      <trkpt lat="43.17745" lon="0.88651">
        <ele>367.5</ele>
        <time>2019-01-23T11:36:31.000Z</time>
      </trkpt>
      <trkpt lat="43.17739" lon="0.88662">
        <ele>367</ele>
        <time>2019-01-23T11:36:39.000Z</time>
      </trkpt>
      <trkpt lat="43.17737" lon="0.88676">
        <ele>366.6</ele>
        <time>2019-01-23T11:36:46.000Z</time>
      </trkpt>
      <trkpt lat="43.17734" lon="0.88689">
        <ele>366.2</ele>
        <time>2019-01-23T11:36:53.000Z</time>
      </trkpt>
      <trkpt lat="43.1773" lon="0.88702">
        <ele>365.9</ele>
        <time>2019-01-23T11:37:0.000Z</time>
      </trkpt>
      <trkpt lat="43.17728" lon="0.88715">
        <ele>365</ele>
        <time>2019-01-23T11:37:8.000Z</time>
      </trkpt>
      <trkpt lat="43.17725" lon="0.88728">
        <ele>364.3</ele>
        <time>2019-01-23T11:37:16.000Z</time>
      </trkpt>
      <trkpt lat="43.17724" lon="0.88741">
        <ele>363.8</ele>
        <time>2019-01-23T11:37:24.000Z</time>
      </trkpt>
      <trkpt lat="43.17722" lon="0.88754">
        <ele>363</ele>
        <time>2019-01-23T11:37:32.000Z</time>
      </trkpt>
      <trkpt lat="43.1772" lon="0.88766">
        <ele>362.4</ele>
        <time>2019-01-23T11:37:40.000Z</time>
      </trkpt>
      <trkpt lat="43.17716" lon="0.88778">
        <ele>361.9</ele>
        <time>2019-01-23T11:37:48.000Z</time>
      </trkpt>
      <trkpt lat="43.17711" lon="0.8879">
        <ele>361.6</ele>
        <time>2019-01-23T11:37:54.000Z</time>
      </trkpt>
      <trkpt lat="43.17708" lon="0.88802">
        <ele>361.3</ele>
        <time>2019-01-23T11:38:1.000Z</time>
      </trkpt>
      <trkpt lat="43.17705" lon="0.88815">
        <ele>361.1</ele>
        <time>2019-01-23T11:38:8.000Z</time>
      </trkpt>
      <trkpt lat="43.17703" lon="0.88827">
        <ele>360.7</ele>
        <time>2019-01-23T11:38:15.000Z</time>
      </trkpt>
      <trkpt lat="43.17699" lon="0.88839">
        <ele>360.5</ele>
        <time>2019-01-23T11:38:23.000Z</time>
      </trkpt>
      <trkpt lat="43.17695" lon="0.88851">
        <ele>360</ele>
        <time>2019-01-23T11:38:31.000Z</time>
      </trkpt>
      <trkpt lat="43.17693" lon="0.88864">
        <ele>359.7</ele>
        <time>2019-01-23T11:38:39.000Z</time>
      </trkpt>
      <trkpt lat="43.17688" lon="0.88875">
        <ele>359.2</ele>
        <time>2019-01-23T11:38:48.000Z</time>
      </trkpt>
      <trkpt lat="43.17682" lon="0.88887">
        <ele>359</ele>
        <time>2019-01-23T11:38:56.000Z</time>
      </trkpt>
      <trkpt lat="43.17676" lon="0.88897">
        <ele>358.6</ele>
        <time>2019-01-23T11:39:5.000Z</time>
      </trkpt>
      <trkpt lat="43.1767" lon="0.88909">
        <ele>358.3</ele>
        <time>2019-01-23T11:39:11.000Z</time>
      </trkpt>
      <trkpt lat="43.17665" lon="0.8892">
        <ele>357.5</ele>
        <time>2019-01-23T11:39:20.000Z</time>
      </trkpt>
      <trkpt lat="43.17661" lon="0.88931">
        <ele>357.1</ele>
        <time>2019-01-23T11:39:27.000Z</time>
      </trkpt>
      <trkpt lat="43.17657" lon="0.88942">
        <ele>356.7</ele>
        <time>2019-01-23T11:39:34.000Z</time>
      </trkpt>
      <trkpt lat="43.17656" lon="0.88956">
        <ele>356.1</ele>
        <time>2019-01-23T11:39:40.000Z</time>
      </trkpt>
      <trkpt lat="43.17654" lon="0.88968">
        <ele>355.6</ele>
        <time>2019-01-23T11:39:47.000Z</time>
      </trkpt>
      <trkpt lat="43.17649" lon="0.88979">
        <ele>355.2</ele>
        <time>2019-01-23T11:39:54.000Z</time>
      </trkpt>
      <trkpt lat="43.17643" lon="0.8899">
        <ele>354.9</ele>
        <time>2019-01-23T11:40:1.000Z</time>
      </trkpt>
      <trkpt lat="43.17636" lon="0.88999">
        <ele>354.4</ele>
        <time>2019-01-23T11:40:8.000Z</time>
      </trkpt>
      <trkpt lat="43.1763" lon="0.8901">
        <ele>353.9</ele>
        <time>2019-01-23T11:40:15.000Z</time>
      </trkpt>
      <trkpt lat="43.17624" lon="0.89019">
        <ele>353.5</ele>
        <time>2019-01-23T11:40:22.000Z</time>
      </trkpt>
      <trkpt lat="43.17617" lon="0.89029">
        <ele>353</ele>
        <time>2019-01-23T11:40:30.000Z</time>
      </trkpt>
      <trkpt lat="43.17611" lon="0.89038">
        <ele>352.2</ele>
        <time>2019-01-23T11:40:37.000Z</time>
      </trkpt>
      <trkpt lat="43.17606" lon="0.8905">
        <ele>351.6</ele>
        <time>2019-01-23T11:40:44.000Z</time>
      </trkpt>
      <trkpt lat="43.17601" lon="0.89062">
        <ele>350.9</ele>
        <time>2019-01-23T11:40:51.000Z</time>
      </trkpt>
      <trkpt lat="43.17595" lon="0.89073">
        <ele>350.3</ele>
        <time>2019-01-23T11:40:58.000Z</time>
      </trkpt>
      <trkpt lat="43.17588" lon="0.89082">
        <ele>349.7</ele>
        <time>2019-01-23T11:41:7.000Z</time>
      </trkpt>
      <trkpt lat="43.1758" lon="0.8909">
        <ele>349.1</ele>
        <time>2019-01-23T11:41:15.000Z</time>
      </trkpt>
      <trkpt lat="43.17572" lon="0.89098">
        <ele>348.3</ele>
        <time>2019-01-23T11:41:23.000Z</time>
      </trkpt>
      <trkpt lat="43.17564" lon="0.89105">
        <ele>347.7</ele>
        <time>2019-01-23T11:41:31.000Z</time>
      </trkpt>
      <trkpt lat="43.17556" lon="0.89113">
        <ele>347.2</ele>
        <time>2019-01-23T11:41:41.000Z</time>
      </trkpt>
      <trkpt lat="43.17548" lon="0.89107">
        <ele>345.5</ele>
        <time>2019-01-23T11:42:0.000Z</time>
      </trkpt>
      <trkpt lat="43.17541" lon="0.89098">
        <ele>343.4</ele>
        <time>2019-01-23T11:42:18.000Z</time>
      </trkpt>
      <trkpt lat="43.17537" lon="0.89087">
        <ele>340.9</ele>
        <time>2019-01-23T11:42:32.000Z</time>
      </trkpt>
      <trkpt lat="43.17538" lon="0.89074">
        <ele>339.6</ele>
        <time>2019-01-23T11:42:40.000Z</time>
      </trkpt>
      <trkpt lat="43.1754" lon="0.8906">
        <ele>337.8</ele>
        <time>2019-01-23T11:42:51.000Z</time>
      </trkpt>
      <trkpt lat="43.17541" lon="0.89047">
        <ele>335.6</ele>
        <time>2019-01-23T11:43:3.000Z</time>
      </trkpt>
      <trkpt lat="43.1754" lon="0.89034">
        <ele>334.2</ele>
        <time>2019-01-23T11:43:11.000Z</time>
      </trkpt>
      <trkpt lat="43.17539" lon="0.89022">
        <ele>332.8</ele>
        <time>2019-01-23T11:43:19.000Z</time>
      </trkpt>
      <trkpt lat="43.17535" lon="0.8901">
        <ele>331.3</ele>
        <time>2019-01-23T11:43:28.000Z</time>
      </trkpt>
      <trkpt lat="43.17534" lon="0.88998">
        <ele>329.9</ele>
        <time>2019-01-23T11:43:36.000Z</time>
      </trkpt>
      <trkpt lat="43.17531" lon="0.88986">
        <ele>328.5</ele>
        <time>2019-01-23T11:43:43.000Z</time>
      </trkpt>
      <trkpt lat="43.17525" lon="0.88975">
        <ele>327</ele>
        <time>2019-01-23T11:43:51.000Z</time>
      </trkpt>
      <trkpt lat="43.17522" lon="0.88962">
        <ele>324.8</ele>
        <time>2019-01-23T11:44:2.000Z</time>
      </trkpt>
      <trkpt lat="43.17517" lon="0.88951">
        <ele>322.9</ele>
        <time>2019-01-23T11:44:12.000Z</time>
      </trkpt>
      <trkpt lat="43.17515" lon="0.88938">
        <ele>321.6</ele>
        <time>2019-01-23T11:44:21.000Z</time>
      </trkpt>
      <trkpt lat="43.17512" lon="0.88926">
        <ele>320</ele>
        <time>2019-01-23T11:44:29.000Z</time>
      </trkpt>
      <trkpt lat="43.17509" lon="0.88914">
        <ele>318.6</ele>
        <time>2019-01-23T11:44:37.000Z</time>
      </trkpt>
      <trkpt lat="43.17504" lon="0.88902">
        <ele>317.4</ele>
        <time>2019-01-23T11:44:46.000Z</time>
      </trkpt>
      <trkpt lat="43.175" lon="0.88891">
        <ele>316.5</ele>
        <time>2019-01-23T11:44:53.000Z</time>
      </trkpt>
      <trkpt lat="43.17496" lon="0.88879">
        <ele>315.5</ele>
        <time>2019-01-23T11:45:2.000Z</time>
      </trkpt>
      <trkpt lat="43.17491" lon="0.88868">
        <ele>314.8</ele>
        <time>2019-01-23T11:45:11.000Z</time>
      </trkpt>
      <trkpt lat="43.17484" lon="0.88859">
        <ele>314.4</ele>
        <time>2019-01-23T11:45:18.000Z</time>
      </trkpt>
      <trkpt lat="43.17479" lon="0.88848">
        <ele>314.1</ele>
        <time>2019-01-23T11:45:24.000Z</time>
      </trkpt>
      <trkpt lat="43.17472" lon="0.8884">
        <ele>313.8</ele>
        <time>2019-01-23T11:45:33.000Z</time>
      </trkpt>
      <trkpt lat="43.17464" lon="0.88833">
        <ele>313.6</ele>
        <time>2019-01-23T11:45:43.000Z</time>
      </trkpt>
      <trkpt lat="43.17454" lon="0.88829">
        <ele>313.6</ele>
        <time>2019-01-23T11:45:50.000Z</time>
      </trkpt>
      <trkpt lat="43.17445" lon="0.88827">
        <ele>313.5</ele>
        <time>2019-01-23T11:45:56.000Z</time>
      </trkpt>
      <trkpt lat="43.17436" lon="0.88827">
        <ele>313.7</ele>
        <time>2019-01-23T11:46:4.000Z</time>
      </trkpt>
      <trkpt lat="43.17427" lon="0.88829">
        <ele>314.5</ele>
        <time>2019-01-23T11:46:13.000Z</time>
      </trkpt>
      <trkpt lat="43.17417" lon="0.88832">
        <ele>315.1</ele>
        <time>2019-01-23T11:46:20.000Z</time>
      </trkpt>
      <trkpt lat="43.17408" lon="0.88836">
        <ele>315.8</ele>
        <time>2019-01-23T11:46:29.000Z</time>
      </trkpt>
      <trkpt lat="43.17399" lon="0.8884">
        <ele>316.6</ele>
        <time>2019-01-23T11:46:38.000Z</time>
      </trkpt>
      <trkpt lat="43.1739" lon="0.88843">
        <ele>317.7</ele>
        <time>2019-01-23T11:46:47.000Z</time>
      </trkpt>
      <trkpt lat="43.1738" lon="0.88845">
        <ele>319.1</ele>
        <time>2019-01-23T11:46:58.000Z</time>
      </trkpt>
      <trkpt lat="43.17371" lon="0.88848">
        <ele>320.2</ele>
        <time>2019-01-23T11:47:8.000Z</time>
      </trkpt>
      <trkpt lat="43.17363" lon="0.88856">
        <ele>321.4</ele>
        <time>2019-01-23T11:47:17.000Z</time>
      </trkpt>
      <trkpt lat="43.17355" lon="0.88861">
        <ele>322.4</ele>
        <time>2019-01-23T11:47:26.000Z</time>
      </trkpt>
      <trkpt lat="43.17347" lon="0.88869">
        <ele>323.8</ele>
        <time>2019-01-23T11:47:39.000Z</time>
      </trkpt>
      <trkpt lat="43.17339" lon="0.88875">
        <ele>325.2</ele>
        <time>2019-01-23T11:47:52.000Z</time>
      </trkpt>
      <trkpt lat="43.1733" lon="0.8888">
        <ele>326.3</ele>
        <time>2019-01-23T11:48:0.000Z</time>
      </trkpt>
      <trkpt lat="43.17321" lon="0.88885">
        <ele>327.6</ele>
        <time>2019-01-23T11:48:10.000Z</time>
      </trkpt>
      <trkpt lat="43.17312" lon="0.88889">
        <ele>328.7</ele>
        <time>2019-01-23T11:48:22.000Z</time>
      </trkpt>
      <trkpt lat="43.17303" lon="0.88892">
        <ele>329.5</ele>
        <time>2019-01-23T11:48:33.000Z</time>
      </trkpt>
      <trkpt lat="43.17294" lon="0.88893">
        <ele>330.5</ele>
        <time>2019-01-23T11:48:43.000Z</time>
      </trkpt>
      <trkpt lat="43.17285" lon="0.88892">
        <ele>331.7</ele>
        <time>2019-01-23T11:48:52.000Z</time>
      </trkpt>
      <trkpt lat="43.17275" lon="0.8889">
        <ele>332.8</ele>
        <time>2019-01-23T11:49:4.000Z</time>
      </trkpt>
      <trkpt lat="43.17267" lon="0.88883">
        <ele>333.5</ele>
        <time>2019-01-23T11:49:14.000Z</time>
      </trkpt>
      <trkpt lat="43.1726" lon="0.88875">
        <ele>334.9</ele>
        <time>2019-01-23T11:49:27.000Z</time>
      </trkpt>
      <trkpt lat="43.17254" lon="0.88864">
        <ele>336.9</ele>
        <time>2019-01-23T11:49:42.000Z</time>
      </trkpt>
      <trkpt lat="43.17251" lon="0.88852">
        <ele>338.3</ele>
        <time>2019-01-23T11:49:53.000Z</time>
      </trkpt>
      <trkpt lat="43.17248" lon="0.8884">
        <ele>339.2</ele>
        <time>2019-01-23T11:50:0.000Z</time>
      </trkpt>
      <trkpt lat="43.17243" lon="0.8883">
        <ele>339.7</ele>
        <time>2019-01-23T11:50:7.000Z</time>
      </trkpt>
      <trkpt lat="43.17238" lon="0.88818">
        <ele>340.2</ele>
        <time>2019-01-23T11:50:15.000Z</time>
      </trkpt>
      <trkpt lat="43.17233" lon="0.88807">
        <ele>340.4</ele>
        <time>2019-01-23T11:50:22.000Z</time>
      </trkpt>
      <trkpt lat="43.17228" lon="0.88796">
        <ele>340.5</ele>
        <time>2019-01-23T11:50:29.000Z</time>
      </trkpt>
      <trkpt lat="43.17223" lon="0.88785">
        <ele>340.5</ele>
        <time>2019-01-23T11:50:38.000Z</time>
      </trkpt>
      <trkpt lat="43.17218" lon="0.88775">
        <ele>340.1</ele>
        <time>2019-01-23T11:50:56.000Z</time>
      </trkpt>
      <trkpt lat="43.17211" lon="0.88766">
        <ele>339.7</ele>
        <time>2019-01-23T11:51:10.000Z</time>
      </trkpt>
      <trkpt lat="43.17204" lon="0.88756">
        <ele>339.2</ele>
        <time>2019-01-23T11:51:20.000Z</time>
      </trkpt>
      <trkpt lat="43.17196" lon="0.88748">
        <ele>338.7</ele>
        <time>2019-01-23T11:51:30.000Z</time>
      </trkpt>
      <trkpt lat="43.17189" lon="0.88739">
        <ele>338</ele>
        <time>2019-01-23T11:51:41.000Z</time>
      </trkpt>
      <trkpt lat="43.17182" lon="0.8873">
        <ele>337.6</ele>
        <time>2019-01-23T11:51:50.000Z</time>
      </trkpt>
      <trkpt lat="43.17174" lon="0.88722">
        <ele>337.3</ele>
        <time>2019-01-23T11:51:59.000Z</time>
      </trkpt>
      <trkpt lat="43.17167" lon="0.88714">
        <ele>337.1</ele>
        <time>2019-01-23T11:52:8.000Z</time>
      </trkpt>
      <trkpt lat="43.17159" lon="0.88707">
        <ele>337</ele>
        <time>2019-01-23T11:52:17.000Z</time>
      </trkpt>
      <trkpt lat="43.17151" lon="0.88699">
        <ele>337</ele>
        <time>2019-01-23T11:52:25.000Z</time>
      </trkpt>
      <trkpt lat="43.17142" lon="0.88693">
        <ele>337</ele>
        <time>2019-01-23T11:52:32.000Z</time>
      </trkpt>
      <trkpt lat="43.17134" lon="0.88686">
        <ele>337.3</ele>
        <time>2019-01-23T11:52:39.000Z</time>
      </trkpt>
      <trkpt lat="43.17127" lon="0.88678">
        <ele>337.6</ele>
        <time>2019-01-23T11:52:47.000Z</time>
      </trkpt>
      <trkpt lat="43.17119" lon="0.88669">
        <ele>337.7</ele>
        <time>2019-01-23T11:52:56.000Z</time>
      </trkpt>
      <trkpt lat="43.17112" lon="0.8866">
        <ele>337.9</ele>
        <time>2019-01-23T11:53:5.000Z</time>
      </trkpt>
      <trkpt lat="43.17106" lon="0.8865">
        <ele>338.2</ele>
        <time>2019-01-23T11:53:14.000Z</time>
      </trkpt>
      <trkpt lat="43.17099" lon="0.8864">
        <ele>338.7</ele>
        <time>2019-01-23T11:53:24.000Z</time>
      </trkpt>
      <trkpt lat="43.17092" lon="0.88631">
        <ele>339.1</ele>
        <time>2019-01-23T11:53:32.000Z</time>
      </trkpt>
      <trkpt lat="43.17087" lon="0.8862">
        <ele>339.9</ele>
        <time>2019-01-23T11:53:40.000Z</time>
      </trkpt>
      <trkpt lat="43.17081" lon="0.88609">
        <ele>340.9</ele>
        <time>2019-01-23T11:53:49.000Z</time>
      </trkpt>
      <trkpt lat="43.17074" lon="0.88601">
        <ele>341.3</ele>
        <time>2019-01-23T11:53:57.000Z</time>
      </trkpt>
      <trkpt lat="43.17068" lon="0.88591">
        <ele>341.7</ele>
        <time>2019-01-23T11:54:8.000Z</time>
      </trkpt>
      <trkpt lat="43.17063" lon="0.8858">
        <ele>342</ele>
        <time>2019-01-23T11:54:18.000Z</time>
      </trkpt>
      <trkpt lat="43.17054" lon="0.88571">
        <ele>341.9</ele>
        <time>2019-01-23T11:54:26.000Z</time>
      </trkpt>
      <trkpt lat="43.17048" lon="0.88562">
        <ele>341.8</ele>
        <time>2019-01-23T11:54:34.000Z</time>
      </trkpt>
      <trkpt lat="43.17043" lon="0.88552">
        <ele>341.7</ele>
        <time>2019-01-23T11:54:43.000Z</time>
      </trkpt>
      <trkpt lat="43.17036" lon="0.88542">
        <ele>341.6</ele>
        <time>2019-01-23T11:54:52.000Z</time>
      </trkpt>
      <trkpt lat="43.17029" lon="0.88534">
        <ele>341.6</ele>
        <time>2019-01-23T11:55:2.000Z</time>
      </trkpt>
      <trkpt lat="43.1702" lon="0.88527">
        <ele>341.6</ele>
        <time>2019-01-23T11:55:10.000Z</time>
      </trkpt>
      <trkpt lat="43.17011" lon="0.8852">
        <ele>341.6</ele>
        <time>2019-01-23T11:55:19.000Z</time>
      </trkpt>
      <trkpt lat="43.17002" lon="0.88516">
        <ele>341.6</ele>
        <time>2019-01-23T11:55:24.000Z</time>
      </trkpt>
      <trkpt lat="43.16993" lon="0.88513">
        <ele>342</ele>
        <time>2019-01-23T11:55:33.000Z</time>
      </trkpt>
      <trkpt lat="43.16984" lon="0.8851">
        <ele>342.3</ele>
        <time>2019-01-23T11:55:41.000Z</time>
      </trkpt>
      <trkpt lat="43.16975" lon="0.88506">
        <ele>342.6</ele>
        <time>2019-01-23T11:55:50.000Z</time>
      </trkpt>
      <trkpt lat="43.16966" lon="0.88504">
        <ele>342.7</ele>
        <time>2019-01-23T11:55:56.000Z</time>
      </trkpt>
      <trkpt lat="43.16956" lon="0.88505">
        <ele>343</ele>
        <time>2019-01-23T11:56:4.000Z</time>
      </trkpt>
      <trkpt lat="43.16947" lon="0.88503">
        <ele>343.9</ele>
        <time>2019-01-23T11:56:17.000Z</time>
      </trkpt>
      <trkpt lat="43.16937" lon="0.88505">
        <ele>344.5</ele>
        <time>2019-01-23T11:56:25.000Z</time>
      </trkpt>
      <trkpt lat="43.16928" lon="0.885">
        <ele>344.9</ele>
        <time>2019-01-23T11:56:38.000Z</time>
      </trkpt>
      <trkpt lat="43.16922" lon="0.88499">
        <ele>348.1</ele>
        <time>2019-01-23T11:56:55.000Z</time>
      </trkpt>
      <trkpt lat="43.16915" lon="0.88498">
        <ele>348.1</ele>
        <time>2019-01-23T11:57:8.000Z</time>
      </trkpt>
      <trkpt lat="43.1691" lon="0.88495">
        <ele>348.3</ele>
        <time>2019-01-23T11:57:30.000Z</time>
      </trkpt>
      <trkpt lat="43.16907" lon="0.88492">
        <ele>346</ele>
        <time>2019-01-23T11:58:33.000Z</time>
      </trkpt>
      <trkpt lat="43.16906" lon="0.88504">
        <ele>345</ele>
        <time>2019-01-23T11:58:46.000Z</time>
      </trkpt>
      <trkpt lat="43.1692" lon="0.88503">
        <ele>347.6</ele>
        <time>2019-01-23T11:59:27.000Z</time>
      </trkpt>
      <trkpt lat="43.16934" lon="0.88507">
        <ele>347.2</ele>
        <time>2019-01-23T11:59:36.000Z</time>
      </trkpt>
      <trkpt lat="43.16933" lon="0.88485">
        <ele>348.8</ele>
        <time>2019-01-23T11:59:46.000Z</time>
      </trkpt>
      <trkpt lat="43.1693" lon="0.88469">
        <ele>349.6</ele>
        <time>2019-01-23T11:59:58.000Z</time>
      </trkpt>
      <trkpt lat="43.1693" lon="0.88456">
        <ele>350.3</ele>
        <time>2019-01-23T12:00:8.000Z</time>
      </trkpt>
      <trkpt lat="43.16928" lon="0.88442">
        <ele>351</ele>
        <time>2019-01-23T12:00:16.000Z</time>
      </trkpt>
      <trkpt lat="43.16926" lon="0.88431">
        <ele>351.5</ele>
        <time>2019-01-23T12:00:28.000Z</time>
      </trkpt>
      <trkpt lat="43.16924" lon="0.88423">
        <ele>351.9</ele>
        <time>2019-01-23T12:00:35.000Z</time>
      </trkpt>
      <trkpt lat="43.16922" lon="0.88412">
        <ele>352.5</ele>
        <time>2019-01-23T12:00:44.000Z</time>
      </trkpt>
      <trkpt lat="43.1692" lon="0.88395">
        <ele>353.7</ele>
        <time>2019-01-23T12:00:52.000Z</time>
      </trkpt>
      <trkpt lat="43.16918" lon="0.88384">
        <ele>354.5</ele>
        <time>2019-01-23T12:00:58.000Z</time>
      </trkpt>
      <trkpt lat="43.16916" lon="0.88374">
        <ele>355.1</ele>
        <time>2019-01-23T12:01:5.000Z</time>
      </trkpt>
      <trkpt lat="43.16915" lon="0.88366">
        <ele>355.8</ele>
        <time>2019-01-23T12:01:13.000Z</time>
      </trkpt>
      <trkpt lat="43.16913" lon="0.88356">
        <ele>356.6</ele>
        <time>2019-01-23T12:01:19.000Z</time>
      </trkpt>
      <trkpt lat="43.16911" lon="0.88342">
        <ele>357.7</ele>
        <time>2019-01-23T12:01:34.000Z</time>
      </trkpt>
      <trkpt lat="43.16911" lon="0.8833">
        <ele>358.5</ele>
        <time>2019-01-23T12:01:44.000Z</time>
      </trkpt>
      <trkpt lat="43.16908" lon="0.8832">
        <ele>359.3</ele>
        <time>2019-01-23T12:01:52.000Z</time>
      </trkpt>
      <trkpt lat="43.16905" lon="0.88308">
        <ele>360.2</ele>
        <time>2019-01-23T12:01:58.000Z</time>
      </trkpt>
      <trkpt lat="43.16902" lon="0.88292">
        <ele>361.3</ele>
        <time>2019-01-23T12:02:5.000Z</time>
      </trkpt>
      <trkpt lat="43.16899" lon="0.88276">
        <ele>362.4</ele>
        <time>2019-01-23T12:02:14.000Z</time>
      </trkpt>
      <trkpt lat="43.16897" lon="0.88264">
        <ele>363.4</ele>
        <time>2019-01-23T12:02:20.000Z</time>
      </trkpt>
      <trkpt lat="43.16895" lon="0.88252">
        <ele>364.2</ele>
        <time>2019-01-23T12:02:27.000Z</time>
      </trkpt>
      <trkpt lat="43.16893" lon="0.8824">
        <ele>364.9</ele>
        <time>2019-01-23T12:02:35.000Z</time>
      </trkpt>
      <trkpt lat="43.16891" lon="0.88228">
        <ele>365.5</ele>
        <time>2019-01-23T12:02:42.000Z</time>
      </trkpt>
      <trkpt lat="43.16889" lon="0.88211">
        <ele>366.2</ele>
        <time>2019-01-23T12:02:50.000Z</time>
      </trkpt>
      <trkpt lat="43.16888" lon="0.882">
        <ele>366.7</ele>
        <time>2019-01-23T12:02:59.000Z</time>
      </trkpt>
      <trkpt lat="43.16887" lon="0.88187">
        <ele>367.2</ele>
        <time>2019-01-23T12:03:4.000Z</time>
      </trkpt>
      <trkpt lat="43.16888" lon="0.88174">
        <ele>367.7</ele>
        <time>2019-01-23T12:03:14.000Z</time>
      </trkpt>
      <trkpt lat="43.1689" lon="0.88163">
        <ele>368.2</ele>
        <time>2019-01-23T12:03:22.000Z</time>
      </trkpt>
      <trkpt lat="43.16891" lon="0.88153">
        <ele>368.9</ele>
        <time>2019-01-23T12:03:31.000Z</time>
      </trkpt>
      <trkpt lat="43.16889" lon="0.88139">
        <ele>367.5</ele>
        <time>2019-01-23T12:03:41.000Z</time>
      </trkpt>
      <trkpt lat="43.16896" lon="0.88131">
        <ele>367.9</ele>
        <time>2019-01-23T12:03:54.000Z</time>
      </trkpt>
      <trkpt lat="43.16905" lon="0.88136">
        <ele>367.8</ele>
        <time>2019-01-23T12:04:41.000Z</time>
      </trkpt>
      <trkpt lat="43.16928" lon="0.88138">
        <ele>365</ele>
        <time>2019-01-23T12:06:20.000Z</time>
      </trkpt>
      <trkpt lat="43.16938" lon="0.88134">
        <ele>363</ele>
        <time>2019-01-23T12:07:9.000Z</time>
      </trkpt>
      <trkpt lat="43.16928" lon="0.88127">
        <ele>370.6</ele>
        <time>2019-01-23T12:07:32.000Z</time>
      </trkpt>
      <trkpt lat="43.16926" lon="0.8812">
        <ele>370.9</ele>
        <time>2019-01-23T12:35:23.000Z</time>
      </trkpt>
      <trkpt lat="43.16922" lon="0.88118">
        <ele>371.1</ele>
        <time>2019-01-23T12:35:34.000Z</time>
      </trkpt>
      <trkpt lat="43.16916" lon="0.88117">
        <ele>366.7</ele>
        <time>2019-01-23T12:35:40.000Z</time>
      </trkpt>
      <trkpt lat="43.16905" lon="0.88115">
        <ele>366.5</ele>
        <time>2019-01-23T12:35:45.000Z</time>
      </trkpt>
      <trkpt lat="43.16895" lon="0.88117">
        <ele>369.9</ele>
        <time>2019-01-23T12:36:23.000Z</time>
      </trkpt>
      <trkpt lat="43.1689" lon="0.88103">
        <ele>372</ele>
        <time>2019-01-23T12:37:22.000Z</time>
      </trkpt>
      <trkpt lat="43.16896" lon="0.88093">
        <ele>373.9</ele>
        <time>2019-01-23T12:38:25.000Z</time>
      </trkpt>
      <trkpt lat="43.16902" lon="0.88083">
        <ele>374.1</ele>
        <time>2019-01-23T12:38:34.000Z</time>
      </trkpt>
      <trkpt lat="43.16905" lon="0.88071">
        <ele>374.3</ele>
        <time>2019-01-23T12:38:42.000Z</time>
      </trkpt>
      <trkpt lat="43.16899" lon="0.88061">
        <ele>374.6</ele>
        <time>2019-01-23T12:38:52.000Z</time>
      </trkpt>
      <trkpt lat="43.16891" lon="0.88054">
        <ele>374.8</ele>
        <time>2019-01-23T12:38:58.000Z</time>
      </trkpt>
      <trkpt lat="43.16883" lon="0.88049">
        <ele>375</ele>
        <time>2019-01-23T12:39:2.000Z</time>
      </trkpt>
      <trkpt lat="43.16873" lon="0.88044">
        <ele>375.3</ele>
        <time>2019-01-23T12:39:9.000Z</time>
      </trkpt>
      <trkpt lat="43.16864" lon="0.88039">
        <ele>375.6</ele>
        <time>2019-01-23T12:39:17.000Z</time>
      </trkpt>
      <trkpt lat="43.16855" lon="0.88034">
        <ele>375.9</ele>
        <time>2019-01-23T12:39:28.000Z</time>
      </trkpt>
      <trkpt lat="43.16845" lon="0.88032">
        <ele>376.3</ele>
        <time>2019-01-23T12:39:37.000Z</time>
      </trkpt>
      <trkpt lat="43.16838" lon="0.88025">
        <ele>376.8</ele>
        <time>2019-01-23T12:39:49.000Z</time>
      </trkpt>
      <trkpt lat="43.16829" lon="0.88018">
        <ele>377.1</ele>
        <time>2019-01-23T12:39:59.000Z</time>
      </trkpt>
      <trkpt lat="43.16819" lon="0.88013">
        <ele>377.4</ele>
        <time>2019-01-23T12:40:7.000Z</time>
      </trkpt>
      <trkpt lat="43.1681" lon="0.88008">
        <ele>377.7</ele>
        <time>2019-01-23T12:40:15.000Z</time>
      </trkpt>
      <trkpt lat="43.168" lon="0.88005">
        <ele>378</ele>
        <time>2019-01-23T12:40:21.000Z</time>
      </trkpt>
      <trkpt lat="43.16792" lon="0.88001">
        <ele>378.6</ele>
        <time>2019-01-23T12:40:29.000Z</time>
      </trkpt>
      <trkpt lat="43.16783" lon="0.87994">
        <ele>379.1</ele>
        <time>2019-01-23T12:40:36.000Z</time>
      </trkpt>
      <trkpt lat="43.16774" lon="0.8799">
        <ele>379.6</ele>
        <time>2019-01-23T12:40:43.000Z</time>
      </trkpt>
      <trkpt lat="43.16766" lon="0.87983">
        <ele>380.1</ele>
        <time>2019-01-23T12:40:51.000Z</time>
      </trkpt>
      <trkpt lat="43.16756" lon="0.87979">
        <ele>380.7</ele>
        <time>2019-01-23T12:40:58.000Z</time>
      </trkpt>
      <trkpt lat="43.16748" lon="0.87973">
        <ele>381.3</ele>
        <time>2019-01-23T12:41:5.000Z</time>
      </trkpt>
      <trkpt lat="43.1674" lon="0.87966">
        <ele>381.9</ele>
        <time>2019-01-23T12:41:14.000Z</time>
      </trkpt>
      <trkpt lat="43.16732" lon="0.87958">
        <ele>382.3</ele>
        <time>2019-01-23T12:41:23.000Z</time>
      </trkpt>
      <trkpt lat="43.16724" lon="0.87951">
        <ele>382.7</ele>
        <time>2019-01-23T12:41:31.000Z</time>
      </trkpt>
      <trkpt lat="43.16716" lon="0.87944">
        <ele>383.5</ele>
        <time>2019-01-23T12:41:40.000Z</time>
      </trkpt>
      <trkpt lat="43.16708" lon="0.87937">
        <ele>384.1</ele>
        <time>2019-01-23T12:41:48.000Z</time>
      </trkpt>
      <trkpt lat="43.16699" lon="0.87931">
        <ele>384.8</ele>
        <time>2019-01-23T12:41:56.000Z</time>
      </trkpt>
      <trkpt lat="43.1669" lon="0.87925">
        <ele>385.3</ele>
        <time>2019-01-23T12:42:4.000Z</time>
      </trkpt>
      <trkpt lat="43.16681" lon="0.87921">
        <ele>385.7</ele>
        <time>2019-01-23T12:42:9.000Z</time>
      </trkpt>
      <trkpt lat="43.16671" lon="0.87918">
        <ele>386.1</ele>
        <time>2019-01-23T12:42:14.000Z</time>
      </trkpt>
      <trkpt lat="43.16661" lon="0.87915">
        <ele>386.5</ele>
        <time>2019-01-23T12:42:18.000Z</time>
      </trkpt>
      <trkpt lat="43.16651" lon="0.87912">
        <ele>387</ele>
        <time>2019-01-23T12:42:23.000Z</time>
      </trkpt>
      <trkpt lat="43.16644" lon="0.87904">
        <ele>387.6</ele>
        <time>2019-01-23T12:42:29.000Z</time>
      </trkpt>
      <trkpt lat="43.16655" lon="0.87898">
        <ele>387.8</ele>
        <time>2019-01-23T12:42:32.000Z</time>
      </trkpt>
      <trkpt lat="43.16663" lon="0.87889">
        <ele>388.3</ele>
        <time>2019-01-23T12:42:42.000Z</time>
      </trkpt>
      <trkpt lat="43.1667" lon="0.87881">
        <ele>389</ele>
        <time>2019-01-23T12:42:51.000Z</time>
      </trkpt>
      <trkpt lat="43.16676" lon="0.87869">
        <ele>389.7</ele>
        <time>2019-01-23T12:42:58.000Z</time>
      </trkpt>
      <trkpt lat="43.1668" lon="0.87858">
        <ele>390.5</ele>
        <time>2019-01-23T12:43:4.000Z</time>
      </trkpt>
      <trkpt lat="43.16684" lon="0.87845">
        <ele>391.3</ele>
        <time>2019-01-23T12:43:11.000Z</time>
      </trkpt>
      <trkpt lat="43.16687" lon="0.87833">
        <ele>391.8</ele>
        <time>2019-01-23T12:43:17.000Z</time>
      </trkpt>
      <trkpt lat="43.16695" lon="0.87825">
        <ele>392.3</ele>
        <time>2019-01-23T12:43:24.000Z</time>
      </trkpt>
      <trkpt lat="43.16703" lon="0.87818">
        <ele>392.9</ele>
        <time>2019-01-23T12:43:36.000Z</time>
      </trkpt>
      <trkpt lat="43.16712" lon="0.87812">
        <ele>393.4</ele>
        <time>2019-01-23T12:43:46.000Z</time>
      </trkpt>
      <trkpt lat="43.1672" lon="0.87805">
        <ele>394</ele>
        <time>2019-01-23T12:43:54.000Z</time>
      </trkpt>
      <trkpt lat="43.16729" lon="0.87797">
        <ele>394.4</ele>
        <time>2019-01-23T12:44:1.000Z</time>
      </trkpt>
      <trkpt lat="43.16737" lon="0.8779">
        <ele>394.9</ele>
        <time>2019-01-23T12:44:11.000Z</time>
      </trkpt>
      <trkpt lat="43.16744" lon="0.87781">
        <ele>395.2</ele>
        <time>2019-01-23T12:44:16.000Z</time>
      </trkpt>
      <trkpt lat="43.16751" lon="0.87772">
        <ele>395.4</ele>
        <time>2019-01-23T12:44:21.000Z</time>
      </trkpt>
      <trkpt lat="43.16757" lon="0.87763">
        <ele>395.7</ele>
        <time>2019-01-23T12:44:26.000Z</time>
      </trkpt>
      <trkpt lat="43.16765" lon="0.87753">
        <ele>396.3</ele>
        <time>2019-01-23T12:44:35.000Z</time>
      </trkpt>
      <trkpt lat="43.16772" lon="0.87744">
        <ele>397</ele>
        <time>2019-01-23T12:44:44.000Z</time>
      </trkpt>
      <trkpt lat="43.16779" lon="0.87735">
        <ele>397.6</ele>
        <time>2019-01-23T12:44:53.000Z</time>
      </trkpt>
      <trkpt lat="43.16786" lon="0.87726">
        <ele>398.5</ele>
        <time>2019-01-23T12:45:5.000Z</time>
      </trkpt>
      <trkpt lat="43.16793" lon="0.87717">
        <ele>399.2</ele>
        <time>2019-01-23T12:45:14.000Z</time>
      </trkpt>
      <trkpt lat="43.168" lon="0.87709">
        <ele>400.2</ele>
        <time>2019-01-23T12:45:22.000Z</time>
      </trkpt>
      <trkpt lat="43.16807" lon="0.877">
        <ele>401.5</ele>
        <time>2019-01-23T12:45:32.000Z</time>
      </trkpt>
      <trkpt lat="43.16814" lon="0.87691">
        <ele>403.1</ele>
        <time>2019-01-23T12:45:42.000Z</time>
      </trkpt>
      <trkpt lat="43.16821" lon="0.87683">
        <ele>404.9</ele>
        <time>2019-01-23T12:45:54.000Z</time>
      </trkpt>
      <trkpt lat="43.16828" lon="0.87673">
        <ele>406.9</ele>
        <time>2019-01-23T12:46:6.000Z</time>
      </trkpt>
      <trkpt lat="43.16835" lon="0.87665">
        <ele>409</ele>
        <time>2019-01-23T12:46:18.000Z</time>
      </trkpt>
      <trkpt lat="43.16843" lon="0.87656">
        <ele>411.2</ele>
        <time>2019-01-23T12:46:28.000Z</time>
      </trkpt>
      <trkpt lat="43.1685" lon="0.87647">
        <ele>412.9</ele>
        <time>2019-01-23T12:46:36.000Z</time>
      </trkpt>
      <trkpt lat="43.16857" lon="0.87638">
        <ele>414.8</ele>
        <time>2019-01-23T12:46:45.000Z</time>
      </trkpt>
      <trkpt lat="43.16863" lon="0.87628">
        <ele>416.5</ele>
        <time>2019-01-23T12:46:54.000Z</time>
      </trkpt>
      <trkpt lat="43.16869" lon="0.87617">
        <ele>417.9</ele>
        <time>2019-01-23T12:47:2.000Z</time>
      </trkpt>
      <trkpt lat="43.16869" lon="0.87604">
        <ele>419</ele>
        <time>2019-01-23T12:47:10.000Z</time>
      </trkpt>
      <trkpt lat="43.16866" lon="0.87593">
        <ele>422.9</ele>
        <time>2019-01-23T12:48:25.000Z</time>
      </trkpt>
      <trkpt lat="43.16859" lon="0.87583">
        <ele>423.2</ele>
        <time>2019-01-23T12:48:43.000Z</time>
      </trkpt>
      <trkpt lat="43.16852" lon="0.87574">
        <ele>423.4</ele>
        <time>2019-01-23T12:48:54.000Z</time>
      </trkpt>
      <trkpt lat="43.16844" lon="0.87567">
        <ele>423.6</ele>
        <time>2019-01-23T12:49:3.000Z</time>
      </trkpt>
      <trkpt lat="43.16837" lon="0.87558">
        <ele>423.7</ele>
        <time>2019-01-23T12:49:14.000Z</time>
      </trkpt>
      <trkpt lat="43.16827" lon="0.87553">
        <ele>423.9</ele>
        <time>2019-01-23T12:49:22.000Z</time>
      </trkpt>
      <trkpt lat="43.16819" lon="0.87547">
        <ele>424.2</ele>
        <time>2019-01-23T12:49:32.000Z</time>
      </trkpt>
      <trkpt lat="43.1681" lon="0.87542">
        <ele>424.4</ele>
        <time>2019-01-23T12:49:39.000Z</time>
      </trkpt>
      <trkpt lat="43.168" lon="0.87539">
        <ele>424.5</ele>
        <time>2019-01-23T12:49:46.000Z</time>
      </trkpt>
      <trkpt lat="43.16791" lon="0.87534">
        <ele>424.9</ele>
        <time>2019-01-23T12:49:55.000Z</time>
      </trkpt>
      <trkpt lat="43.16782" lon="0.8753">
        <ele>425.3</ele>
        <time>2019-01-23T12:50:3.000Z</time>
      </trkpt>
      <trkpt lat="43.16772" lon="0.87527">
        <ele>425.7</ele>
        <time>2019-01-23T12:50:11.000Z</time>
      </trkpt>
      <trkpt lat="43.16763" lon="0.87523">
        <ele>426</ele>
        <time>2019-01-23T12:50:19.000Z</time>
      </trkpt>
      <trkpt lat="43.16754" lon="0.8752">
        <ele>426.2</ele>
        <time>2019-01-23T12:50:27.000Z</time>
      </trkpt>
      <trkpt lat="43.16744" lon="0.87518">
        <ele>426.4</ele>
        <time>2019-01-23T12:50:34.000Z</time>
      </trkpt>
      <trkpt lat="43.16734" lon="0.87516">
        <ele>426.6</ele>
        <time>2019-01-23T12:50:41.000Z</time>
      </trkpt>
      <trkpt lat="43.16725" lon="0.87514">
        <ele>426.8</ele>
        <time>2019-01-23T12:50:49.000Z</time>
      </trkpt>
      <trkpt lat="43.16715" lon="0.87511">
        <ele>426.9</ele>
        <time>2019-01-23T12:50:55.000Z</time>
      </trkpt>
      <trkpt lat="43.16706" lon="0.87511">
        <ele>427</ele>
        <time>2019-01-23T12:51:2.000Z</time>
      </trkpt>
      <trkpt lat="43.16696" lon="0.8751">
        <ele>427.1</ele>
        <time>2019-01-23T12:51:10.000Z</time>
      </trkpt>
      <trkpt lat="43.16686" lon="0.87508">
        <ele>427.2</ele>
        <time>2019-01-23T12:51:16.000Z</time>
      </trkpt>
      <trkpt lat="43.16677" lon="0.87508">
        <ele>427.4</ele>
        <time>2019-01-23T12:51:21.000Z</time>
      </trkpt>
      <trkpt lat="43.16667" lon="0.87504">
        <ele>427.8</ele>
        <time>2019-01-23T12:51:32.000Z</time>
      </trkpt>
      <trkpt lat="43.16657" lon="0.87501">
        <ele>427.9</ele>
        <time>2019-01-23T12:51:39.000Z</time>
      </trkpt>
      <trkpt lat="43.16648" lon="0.87498">
        <ele>428</ele>
        <time>2019-01-23T12:51:46.000Z</time>
      </trkpt>
      <trkpt lat="43.16639" lon="0.87495">
        <ele>428.1</ele>
        <time>2019-01-23T12:51:53.000Z</time>
      </trkpt>
      <trkpt lat="43.1663" lon="0.8749">
        <ele>428.1</ele>
        <time>2019-01-23T12:52:3.000Z</time>
      </trkpt>
      <trkpt lat="43.16621" lon="0.87482">
        <ele>428</ele>
        <time>2019-01-23T12:52:13.000Z</time>
      </trkpt>
      <trkpt lat="43.16613" lon="0.87476">
        <ele>427.9</ele>
        <time>2019-01-23T12:52:21.000Z</time>
      </trkpt>
      <trkpt lat="43.16605" lon="0.87469">
        <ele>427.8</ele>
        <time>2019-01-23T12:52:28.000Z</time>
      </trkpt>
      <trkpt lat="43.16597" lon="0.87462">
        <ele>427.8</ele>
        <time>2019-01-23T12:52:36.000Z</time>
      </trkpt>
      <trkpt lat="43.1659" lon="0.87454">
        <ele>427.8</ele>
        <time>2019-01-23T12:52:44.000Z</time>
      </trkpt>
      <trkpt lat="43.16582" lon="0.87446">
        <ele>427.8</ele>
        <time>2019-01-23T12:52:53.000Z</time>
      </trkpt>
      <trkpt lat="43.16572" lon="0.87442">
        <ele>427.9</ele>
        <time>2019-01-23T12:52:58.000Z</time>
      </trkpt>
      <trkpt lat="43.16562" lon="0.87438">
        <ele>427.8</ele>
        <time>2019-01-23T12:53:2.000Z</time>
      </trkpt>
      <trkpt lat="43.16556" lon="0.87429">
        <ele>427.3</ele>
        <time>2019-01-23T12:53:11.000Z</time>
      </trkpt>
      <trkpt lat="43.16547" lon="0.87422">
        <ele>426.7</ele>
        <time>2019-01-23T12:53:18.000Z</time>
      </trkpt>
      <trkpt lat="43.16538" lon="0.87417">
        <ele>426.1</ele>
        <time>2019-01-23T12:53:25.000Z</time>
      </trkpt>
      <trkpt lat="43.16528" lon="0.87413">
        <ele>425.5</ele>
        <time>2019-01-23T12:53:31.000Z</time>
      </trkpt>
      <trkpt lat="43.16519" lon="0.87412">
        <ele>425.2</ele>
        <time>2019-01-23T12:53:36.000Z</time>
      </trkpt>
      <trkpt lat="43.1651" lon="0.87409">
        <ele>424.9</ele>
        <time>2019-01-23T12:53:42.000Z</time>
      </trkpt>
      <trkpt lat="43.165" lon="0.87405">
        <ele>424.6</ele>
        <time>2019-01-23T12:53:50.000Z</time>
      </trkpt>
      <trkpt lat="43.1649" lon="0.87403">
        <ele>424.5</ele>
        <time>2019-01-23T12:53:57.000Z</time>
      </trkpt>
      <trkpt lat="43.16481" lon="0.87398">
        <ele>424.3</ele>
        <time>2019-01-23T12:54:5.000Z</time>
      </trkpt>
      <trkpt lat="43.16472" lon="0.87393">
        <ele>424.2</ele>
        <time>2019-01-23T12:54:12.000Z</time>
      </trkpt>
      <trkpt lat="43.16463" lon="0.87389">
        <ele>424.1</ele>
        <time>2019-01-23T12:54:19.000Z</time>
      </trkpt>
      <trkpt lat="43.16454" lon="0.87385">
        <ele>424.1</ele>
        <time>2019-01-23T12:54:27.000Z</time>
      </trkpt>
      <trkpt lat="43.16444" lon="0.87381">
        <ele>424.1</ele>
        <time>2019-01-23T12:54:34.000Z</time>
      </trkpt>
      <trkpt lat="43.16435" lon="0.87378">
        <ele>424.2</ele>
        <time>2019-01-23T12:54:41.000Z</time>
      </trkpt>
      <trkpt lat="43.16426" lon="0.87376">
        <ele>424.3</ele>
        <time>2019-01-23T12:54:47.000Z</time>
      </trkpt>
      <trkpt lat="43.16416" lon="0.87373">
        <ele>424.4</ele>
        <time>2019-01-23T12:54:53.000Z</time>
      </trkpt>
      <trkpt lat="43.16406" lon="0.87373">
        <ele>424.8</ele>
        <time>2019-01-23T12:55:1.000Z</time>
      </trkpt>
      <trkpt lat="43.16397" lon="0.87371">
        <ele>425.3</ele>
        <time>2019-01-23T12:55:9.000Z</time>
      </trkpt>
      <trkpt lat="43.16388" lon="0.87369">
        <ele>425.6</ele>
        <time>2019-01-23T12:55:16.000Z</time>
      </trkpt>
      <trkpt lat="43.16378" lon="0.87366">
        <ele>425.9</ele>
        <time>2019-01-23T12:55:24.000Z</time>
      </trkpt>
      <trkpt lat="43.16369" lon="0.87363">
        <ele>426.3</ele>
        <time>2019-01-23T12:55:31.000Z</time>
      </trkpt>
      <trkpt lat="43.1636" lon="0.87359">
        <ele>426.5</ele>
        <time>2019-01-23T12:55:37.000Z</time>
      </trkpt>
      <trkpt lat="43.16351" lon="0.87354">
        <ele>426.7</ele>
        <time>2019-01-23T12:55:44.000Z</time>
      </trkpt>
      <trkpt lat="43.16343" lon="0.87347">
        <ele>426.7</ele>
        <time>2019-01-23T12:55:51.000Z</time>
      </trkpt>
      <trkpt lat="43.16334" lon="0.87341">
        <ele>426.5</ele>
        <time>2019-01-23T12:55:58.000Z</time>
      </trkpt>
      <trkpt lat="43.16323" lon="0.87339">
        <ele>426.1</ele>
        <time>2019-01-23T12:56:4.000Z</time>
      </trkpt>
      <trkpt lat="43.16313" lon="0.87338">
        <ele>425.9</ele>
        <time>2019-01-23T12:56:11.000Z</time>
      </trkpt>
      <trkpt lat="43.16303" lon="0.87335">
        <ele>425.5</ele>
        <time>2019-01-23T12:56:20.000Z</time>
      </trkpt>
      <trkpt lat="43.16294" lon="0.87334">
        <ele>425.2</ele>
        <time>2019-01-23T12:56:25.000Z</time>
      </trkpt>
      <trkpt lat="43.16284" lon="0.87332">
        <ele>425</ele>
        <time>2019-01-23T12:56:31.000Z</time>
      </trkpt>
      <trkpt lat="43.16275" lon="0.8733">
        <ele>424.8</ele>
        <time>2019-01-23T12:56:39.000Z</time>
      </trkpt>
      <trkpt lat="43.16264" lon="0.8733">
        <ele>424.8</ele>
        <time>2019-01-23T12:56:45.000Z</time>
      </trkpt>
      <trkpt lat="43.16255" lon="0.8733">
        <ele>424.8</ele>
        <time>2019-01-23T12:56:52.000Z</time>
      </trkpt>
      <trkpt lat="43.16245" lon="0.87329">
        <ele>424.8</ele>
        <time>2019-01-23T12:56:59.000Z</time>
      </trkpt>
      <trkpt lat="43.16235" lon="0.8733">
        <ele>424.9</ele>
        <time>2019-01-23T12:57:5.000Z</time>
      </trkpt>
      <trkpt lat="43.16225" lon="0.87328">
        <ele>424.9</ele>
        <time>2019-01-23T12:57:14.000Z</time>
      </trkpt>
      <trkpt lat="43.16216" lon="0.87328">
        <ele>425</ele>
        <time>2019-01-23T12:57:22.000Z</time>
      </trkpt>
      <trkpt lat="43.16205" lon="0.8733">
        <ele>425</ele>
        <time>2019-01-23T12:57:29.000Z</time>
      </trkpt>
      <trkpt lat="43.16195" lon="0.87331">
        <ele>425.8</ele>
        <time>2019-01-23T12:57:37.000Z</time>
      </trkpt>
      <trkpt lat="43.16186" lon="0.87334">
        <ele>426.2</ele>
        <time>2019-01-23T12:57:45.000Z</time>
      </trkpt>
      <trkpt lat="43.16177" lon="0.87337">
        <ele>426.2</ele>
        <time>2019-01-23T12:57:52.000Z</time>
      </trkpt>
      <trkpt lat="43.16168" lon="0.87341">
        <ele>426</ele>
        <time>2019-01-23T12:58:0.000Z</time>
      </trkpt>
      <trkpt lat="43.16159" lon="0.87344">
        <ele>425.8</ele>
        <time>2019-01-23T12:58:7.000Z</time>
      </trkpt>
      <trkpt lat="43.1615" lon="0.87349">
        <ele>425.7</ele>
        <time>2019-01-23T12:58:16.000Z</time>
      </trkpt>
      <trkpt lat="43.16141" lon="0.87355">
        <ele>425.7</ele>
        <time>2019-01-23T12:58:24.000Z</time>
      </trkpt>
      <trkpt lat="43.16132" lon="0.87361">
        <ele>426</ele>
        <time>2019-01-23T12:58:31.000Z</time>
      </trkpt>
      <trkpt lat="43.16123" lon="0.87366">
        <ele>426.3</ele>
        <time>2019-01-23T12:58:38.000Z</time>
      </trkpt>
      <trkpt lat="43.16114" lon="0.8737">
        <ele>426.6</ele>
        <time>2019-01-23T12:58:44.000Z</time>
      </trkpt>
      <trkpt lat="43.16104" lon="0.8737">
        <ele>427.1</ele>
        <time>2019-01-23T12:58:54.000Z</time>
      </trkpt>
      <trkpt lat="43.16094" lon="0.87373">
        <ele>427.6</ele>
        <time>2019-01-23T12:59:1.000Z</time>
      </trkpt>
      <trkpt lat="43.16085" lon="0.87377">
        <ele>428</ele>
        <time>2019-01-23T12:59:8.000Z</time>
      </trkpt>
      <trkpt lat="43.16076" lon="0.87379">
        <ele>428.3</ele>
        <time>2019-01-23T12:59:14.000Z</time>
      </trkpt>
      <trkpt lat="43.16067" lon="0.87383">
        <ele>428.6</ele>
        <time>2019-01-23T12:59:21.000Z</time>
      </trkpt>
      <trkpt lat="43.16058" lon="0.8739">
        <ele>429</ele>
        <time>2019-01-23T12:59:29.000Z</time>
      </trkpt>
      <trkpt lat="43.16049" lon="0.87395">
        <ele>429.5</ele>
        <time>2019-01-23T12:59:36.000Z</time>
      </trkpt>
      <trkpt lat="43.1604" lon="0.87397">
        <ele>430</ele>
        <time>2019-01-23T12:59:42.000Z</time>
      </trkpt>
      <trkpt lat="43.1603" lon="0.87398">
        <ele>430.9</ele>
        <time>2019-01-23T12:59:50.000Z</time>
      </trkpt>
      <trkpt lat="43.1602" lon="0.87399">
        <ele>432</ele>
        <time>2019-01-23T12:59:57.000Z</time>
      </trkpt>
      <trkpt lat="43.1601" lon="0.874">
        <ele>433.3</ele>
        <time>2019-01-23T13:00:5.000Z</time>
      </trkpt>
      <trkpt lat="43.16001" lon="0.87401">
        <ele>434.2</ele>
        <time>2019-01-23T13:00:11.000Z</time>
      </trkpt>
      <trkpt lat="43.15991" lon="0.87405">
        <ele>435.2</ele>
        <time>2019-01-23T13:00:19.000Z</time>
      </trkpt>
      <trkpt lat="43.15983" lon="0.87411">
        <ele>436.1</ele>
        <time>2019-01-23T13:00:28.000Z</time>
      </trkpt>
      <trkpt lat="43.15974" lon="0.87417">
        <ele>436.6</ele>
        <time>2019-01-23T13:00:36.000Z</time>
      </trkpt>
      <trkpt lat="43.15966" lon="0.87426">
        <ele>437</ele>
        <time>2019-01-23T13:00:44.000Z</time>
      </trkpt>
      <trkpt lat="43.15959" lon="0.87433">
        <ele>437.2</ele>
        <time>2019-01-23T13:00:51.000Z</time>
      </trkpt>
      <trkpt lat="43.1595" lon="0.87439">
        <ele>437.7</ele>
        <time>2019-01-23T13:01:0.000Z</time>
      </trkpt>
      <trkpt lat="43.15941" lon="0.87446">
        <ele>438.7</ele>
        <time>2019-01-23T13:01:9.000Z</time>
      </trkpt>
      <trkpt lat="43.15934" lon="0.87452">
        <ele>439.4</ele>
        <time>2019-01-23T13:01:17.000Z</time>
      </trkpt>
      <trkpt lat="43.15925" lon="0.87458">
        <ele>440.4</ele>
        <time>2019-01-23T13:01:26.000Z</time>
      </trkpt>
      <trkpt lat="43.15916" lon="0.87462">
        <ele>441.4</ele>
        <time>2019-01-23T13:01:35.000Z</time>
      </trkpt>
      <trkpt lat="43.15907" lon="0.87466">
        <ele>442.4</ele>
        <time>2019-01-23T13:01:43.000Z</time>
      </trkpt>
      <trkpt lat="43.15898" lon="0.87468">
        <ele>443.1</ele>
        <time>2019-01-23T13:01:48.000Z</time>
      </trkpt>
      <trkpt lat="43.15889" lon="0.87469">
        <ele>444.2</ele>
        <time>2019-01-23T13:01:55.000Z</time>
      </trkpt>
      <trkpt lat="43.1588" lon="0.87471">
        <ele>446.1</ele>
        <time>2019-01-23T13:02:6.000Z</time>
      </trkpt>
      <trkpt lat="43.1587" lon="0.87472">
        <ele>447.5</ele>
        <time>2019-01-23T13:02:15.000Z</time>
      </trkpt>
      <trkpt lat="43.1586" lon="0.8747">
        <ele>448.7</ele>
        <time>2019-01-23T13:02:23.000Z</time>
      </trkpt>
      <trkpt lat="43.1585" lon="0.87468">
        <ele>450.5</ele>
        <time>2019-01-23T13:02:34.000Z</time>
      </trkpt>
      <trkpt lat="43.15841" lon="0.87468">
        <ele>452.8</ele>
        <time>2019-01-23T13:03:3.000Z</time>
      </trkpt>
      <trkpt lat="43.15831" lon="0.87468">
        <ele>454.3</ele>
        <time>2019-01-23T13:06:6.000Z</time>
      </trkpt>
      <trkpt lat="43.15822" lon="0.87469">
        <ele>454.3</ele>
        <time>2019-01-23T13:06:16.000Z</time>
      </trkpt>
      <trkpt lat="43.15813" lon="0.87472">
        <ele>454.2</ele>
        <time>2019-01-23T13:06:25.000Z</time>
      </trkpt>
      <trkpt lat="43.15804" lon="0.87471">
        <ele>454.4</ele>
        <time>2019-01-23T13:06:36.000Z</time>
      </trkpt>
      <trkpt lat="43.15795" lon="0.87472">
        <ele>454.7</ele>
        <time>2019-01-23T13:06:45.000Z</time>
      </trkpt>
      <trkpt lat="43.15786" lon="0.87476">
        <ele>455</ele>
        <time>2019-01-23T13:06:51.000Z</time>
      </trkpt>
      <trkpt lat="43.15777" lon="0.87479">
        <ele>455.5</ele>
        <time>2019-01-23T13:06:59.000Z</time>
      </trkpt>
      <trkpt lat="43.15767" lon="0.87483">
        <ele>455.8</ele>
        <time>2019-01-23T13:07:7.000Z</time>
      </trkpt>
      <trkpt lat="43.15757" lon="0.87489">
        <ele>456</ele>
        <time>2019-01-23T13:07:13.000Z</time>
      </trkpt>
      <trkpt lat="43.15751" lon="0.87498">
        <ele>456.1</ele>
        <time>2019-01-23T13:07:20.000Z</time>
      </trkpt>
      <trkpt lat="43.15743" lon="0.87506">
        <ele>456.2</ele>
        <time>2019-01-23T13:07:23.000Z</time>
      </trkpt>
      <trkpt lat="43.15741" lon="0.87519">
        <ele>455.9</ele>
        <time>2019-01-23T13:07:29.000Z</time>
      </trkpt>
      <trkpt lat="43.15738" lon="0.87531">
        <ele>455.6</ele>
        <time>2019-01-23T13:07:36.000Z</time>
      </trkpt>
      <trkpt lat="43.15738" lon="0.87544">
        <ele>455.4</ele>
        <time>2019-01-23T13:07:44.000Z</time>
      </trkpt>
      <trkpt lat="43.15737" lon="0.87558">
        <ele>455.2</ele>
        <time>2019-01-23T13:07:52.000Z</time>
      </trkpt>
      <trkpt lat="43.15736" lon="0.8757">
        <ele>455.1</ele>
        <time>2019-01-23T13:07:59.000Z</time>
      </trkpt>
      <trkpt lat="43.15735" lon="0.87583">
        <ele>455</ele>
        <time>2019-01-23T13:08:6.000Z</time>
      </trkpt>
      <trkpt lat="43.15732" lon="0.87595">
        <ele>454.9</ele>
        <time>2019-01-23T13:08:13.000Z</time>
      </trkpt>
      <trkpt lat="43.15731" lon="0.87609">
        <ele>454.9</ele>
        <time>2019-01-23T13:08:21.000Z</time>
      </trkpt>
      <trkpt lat="43.15731" lon="0.87622">
        <ele>454.8</ele>
        <time>2019-01-23T13:08:29.000Z</time>
      </trkpt>
      <trkpt lat="43.15731" lon="0.87635">
        <ele>454.8</ele>
        <time>2019-01-23T13:08:36.000Z</time>
      </trkpt>
      <trkpt lat="43.15729" lon="0.87648">
        <ele>454.8</ele>
        <time>2019-01-23T13:08:44.000Z</time>
      </trkpt>
      <trkpt lat="43.15729" lon="0.87663">
        <ele>454.7</ele>
        <time>2019-01-23T13:08:52.000Z</time>
      </trkpt>
      <trkpt lat="43.15729" lon="0.87676">
        <ele>454.7</ele>
        <time>2019-01-23T13:08:59.000Z</time>
      </trkpt>
      <trkpt lat="43.15728" lon="0.87688">
        <ele>454.7</ele>
        <time>2019-01-23T13:09:6.000Z</time>
      </trkpt>
      <trkpt lat="43.15727" lon="0.87702">
        <ele>454.7</ele>
        <time>2019-01-23T13:09:14.000Z</time>
      </trkpt>
      <trkpt lat="43.15728" lon="0.87715">
        <ele>454.6</ele>
        <time>2019-01-23T13:09:21.000Z</time>
      </trkpt>
      <trkpt lat="43.15727" lon="0.87728">
        <ele>454.6</ele>
        <time>2019-01-23T13:09:29.000Z</time>
      </trkpt>
      <trkpt lat="43.15728" lon="0.87741">
        <ele>454.6</ele>
        <time>2019-01-23T13:09:38.000Z</time>
      </trkpt>
      <trkpt lat="43.15726" lon="0.87754">
        <ele>454.7</ele>
        <time>2019-01-23T13:09:47.000Z</time>
      </trkpt>
      <trkpt lat="43.15726" lon="0.87767">
        <ele>454.8</ele>
        <time>2019-01-23T13:09:56.000Z</time>
      </trkpt>
      <trkpt lat="43.15728" lon="0.87779">
        <ele>454.8</ele>
        <time>2019-01-23T13:10:3.000Z</time>
      </trkpt>
      <trkpt lat="43.15725" lon="0.87792">
        <ele>454.9</ele>
        <time>2019-01-23T13:10:10.000Z</time>
      </trkpt>
      <trkpt lat="43.15722" lon="0.87804">
        <ele>454.9</ele>
        <time>2019-01-23T13:10:17.000Z</time>
      </trkpt>
      <trkpt lat="43.15721" lon="0.87817">
        <ele>454.9</ele>
        <time>2019-01-23T13:10:24.000Z</time>
      </trkpt>
      <trkpt lat="43.1572" lon="0.87831">
        <ele>454.9</ele>
        <time>2019-01-23T13:10:31.000Z</time>
      </trkpt>
      <trkpt lat="43.15718" lon="0.87843">
        <ele>455</ele>
        <time>2019-01-23T13:10:39.000Z</time>
      </trkpt>
      <trkpt lat="43.15716" lon="0.87856">
        <ele>455</ele>
        <time>2019-01-23T13:10:47.000Z</time>
      </trkpt>
      <trkpt lat="43.15713" lon="0.87868">
        <ele>454.8</ele>
        <time>2019-01-23T13:10:56.000Z</time>
      </trkpt>
      <trkpt lat="43.15709" lon="0.8788">
        <ele>454.5</ele>
        <time>2019-01-23T13:11:6.000Z</time>
      </trkpt>
      <trkpt lat="43.15705" lon="0.87892">
        <ele>454.2</ele>
        <time>2019-01-23T13:11:14.000Z</time>
      </trkpt>
      <trkpt lat="43.15699" lon="0.87902">
        <ele>453.7</ele>
        <time>2019-01-23T13:11:21.000Z</time>
      </trkpt>
      <trkpt lat="43.15694" lon="0.87914">
        <ele>453.3</ele>
        <time>2019-01-23T13:11:28.000Z</time>
      </trkpt>
      <trkpt lat="43.15689" lon="0.87926">
        <ele>452.9</ele>
        <time>2019-01-23T13:11:35.000Z</time>
      </trkpt>
      <trkpt lat="43.15684" lon="0.87937">
        <ele>452.6</ele>
        <time>2019-01-23T13:11:42.000Z</time>
      </trkpt>
      <trkpt lat="43.15679" lon="0.87949">
        <ele>452.1</ele>
        <time>2019-01-23T13:11:50.000Z</time>
      </trkpt>
      <trkpt lat="43.15675" lon="0.8796">
        <ele>451.9</ele>
        <time>2019-01-23T13:11:56.000Z</time>
      </trkpt>
      <trkpt lat="43.1567" lon="0.87972">
        <ele>451.7</ele>
        <time>2019-01-23T13:12:3.000Z</time>
      </trkpt>
      <trkpt lat="43.15665" lon="0.87984">
        <ele>451.3</ele>
        <time>2019-01-23T13:12:11.000Z</time>
      </trkpt>
      <trkpt lat="43.15662" lon="0.87998">
        <ele>450.8</ele>
        <time>2019-01-23T13:12:20.000Z</time>
      </trkpt>
      <trkpt lat="43.15658" lon="0.88009">
        <ele>450.4</ele>
        <time>2019-01-23T13:12:29.000Z</time>
      </trkpt>
      <trkpt lat="43.15653" lon="0.88021">
        <ele>450.2</ele>
        <time>2019-01-23T13:12:37.000Z</time>
      </trkpt>
      <trkpt lat="43.15645" lon="0.88031">
        <ele>450.1</ele>
        <time>2019-01-23T13:12:46.000Z</time>
      </trkpt>
      <trkpt lat="43.15638" lon="0.88038">
        <ele>450</ele>
        <time>2019-01-23T13:12:54.000Z</time>
      </trkpt>
      <trkpt lat="43.15633" lon="0.88048">
        <ele>449.9</ele>
        <time>2019-01-23T13:13:2.000Z</time>
      </trkpt>
      <trkpt lat="43.15627" lon="0.88059">
        <ele>449.8</ele>
        <time>2019-01-23T13:13:9.000Z</time>
      </trkpt>
      <trkpt lat="43.15621" lon="0.88071">
        <ele>449.7</ele>
        <time>2019-01-23T13:13:16.000Z</time>
      </trkpt>
      <trkpt lat="43.15617" lon="0.88083">
        <ele>449.6</ele>
        <time>2019-01-23T13:13:24.000Z</time>
      </trkpt>
      <trkpt lat="43.1561" lon="0.88092">
        <ele>449.5</ele>
        <time>2019-01-23T13:13:33.000Z</time>
      </trkpt>
      <trkpt lat="43.15603" lon="0.88104">
        <ele>449.4</ele>
        <time>2019-01-23T13:13:37.000Z</time>
      </trkpt>
      <trkpt lat="43.15599" lon="0.88114">
        <ele>449.2</ele>
        <time>2019-01-23T13:13:43.000Z</time>
      </trkpt>
      <trkpt lat="43.15596" lon="0.88128">
        <ele>449.1</ele>
        <time>2019-01-23T13:13:49.000Z</time>
      </trkpt>
      <trkpt lat="43.15597" lon="0.88141">
        <ele>449</ele>
        <time>2019-01-23T13:13:57.000Z</time>
      </trkpt>
      <trkpt lat="43.156" lon="0.88153">
        <ele>449</ele>
        <time>2019-01-23T13:14:5.000Z</time>
      </trkpt>
      <trkpt lat="43.15603" lon="0.88166">
        <ele>449</ele>
        <time>2019-01-23T13:14:15.000Z</time>
      </trkpt>
      <trkpt lat="43.15609" lon="0.88174">
        <ele>448.7</ele>
        <time>2019-01-23T13:14:40.000Z</time>
      </trkpt>
      <trkpt lat="43.15603" lon="0.88164">
        <ele>446.8</ele>
        <time>2019-01-23T13:16:11.000Z</time>
      </trkpt>
      <trkpt lat="43.15593" lon="0.88163">
        <ele>446.8</ele>
        <time>2019-01-23T13:16:46.000Z</time>
      </trkpt>
      <trkpt lat="43.15588" lon="0.88152">
        <ele>447</ele>
        <time>2019-01-23T13:17:4.000Z</time>
      </trkpt>
      <trkpt lat="43.1558" lon="0.88145">
        <ele>446.9</ele>
        <time>2019-01-23T13:17:17.000Z</time>
      </trkpt>
      <trkpt lat="43.15569" lon="0.88143">
        <ele>446.9</ele>
        <time>2019-01-23T13:17:25.000Z</time>
      </trkpt>
      <trkpt lat="43.15559" lon="0.8814">
        <ele>446.8</ele>
        <time>2019-01-23T13:17:32.000Z</time>
      </trkpt>
      <trkpt lat="43.1555" lon="0.88137">
        <ele>446.7</ele>
        <time>2019-01-23T13:17:38.000Z</time>
      </trkpt>
      <trkpt lat="43.15541" lon="0.88134">
        <ele>446.6</ele>
        <time>2019-01-23T13:17:45.000Z</time>
      </trkpt>
      <trkpt lat="43.15532" lon="0.88131">
        <ele>446.5</ele>
        <time>2019-01-23T13:17:53.000Z</time>
      </trkpt>
      <trkpt lat="43.15522" lon="0.88128">
        <ele>446.4</ele>
        <time>2019-01-23T13:18:0.000Z</time>
      </trkpt>
      <trkpt lat="43.15512" lon="0.88126">
        <ele>446.3</ele>
        <time>2019-01-23T13:18:8.000Z</time>
      </trkpt>
      <trkpt lat="43.15503" lon="0.88124">
        <ele>446.1</ele>
        <time>2019-01-23T13:18:16.000Z</time>
      </trkpt>
      <trkpt lat="43.15494" lon="0.88122">
        <ele>445.6</ele>
        <time>2019-01-23T13:18:26.000Z</time>
      </trkpt>
      <trkpt lat="43.15485" lon="0.88118">
        <ele>445.2</ele>
        <time>2019-01-23T13:18:33.000Z</time>
      </trkpt>
      <trkpt lat="43.15476" lon="0.88114">
        <ele>444.6</ele>
        <time>2019-01-23T13:18:43.000Z</time>
      </trkpt>
      <trkpt lat="43.15466" lon="0.8811">
        <ele>444.1</ele>
        <time>2019-01-23T13:18:50.000Z</time>
      </trkpt>
      <trkpt lat="43.15457" lon="0.88107">
        <ele>443.6</ele>
        <time>2019-01-23T13:18:59.000Z</time>
      </trkpt>
      <trkpt lat="43.15448" lon="0.88103">
        <ele>443.1</ele>
        <time>2019-01-23T13:19:7.000Z</time>
      </trkpt>
      <trkpt lat="43.15438" lon="0.88099">
        <ele>442.5</ele>
        <time>2019-01-23T13:19:16.000Z</time>
      </trkpt>
      <trkpt lat="43.15429" lon="0.88095">
        <ele>442.1</ele>
        <time>2019-01-23T13:19:25.000Z</time>
      </trkpt>
      <trkpt lat="43.15422" lon="0.88085">
        <ele>441.6</ele>
        <time>2019-01-23T13:19:35.000Z</time>
      </trkpt>
      <trkpt lat="43.15414" lon="0.88077">
        <ele>440.8</ele>
        <time>2019-01-23T13:19:47.000Z</time>
      </trkpt>
      <trkpt lat="43.15404" lon="0.8807">
        <ele>440</ele>
        <time>2019-01-23T13:19:57.000Z</time>
      </trkpt>
      <trkpt lat="43.15394" lon="0.88069">
        <ele>439.4</ele>
        <time>2019-01-23T13:20:3.000Z</time>
      </trkpt>
      <trkpt lat="43.15384" lon="0.88066">
        <ele>438.6</ele>
        <time>2019-01-23T13:20:10.000Z</time>
      </trkpt>
      <trkpt lat="43.15375" lon="0.88062">
        <ele>437.8</ele>
        <time>2019-01-23T13:20:17.000Z</time>
      </trkpt>
      <trkpt lat="43.15367" lon="0.88055">
        <ele>437.1</ele>
        <time>2019-01-23T13:20:27.000Z</time>
      </trkpt>
      <trkpt lat="43.15359" lon="0.88048">
        <ele>436.4</ele>
        <time>2019-01-23T13:20:37.000Z</time>
      </trkpt>
      <trkpt lat="43.15352" lon="0.88039">
        <ele>435.3</ele>
        <time>2019-01-23T13:20:49.000Z</time>
      </trkpt>
      <trkpt lat="43.15344" lon="0.88032">
        <ele>434.2</ele>
        <time>2019-01-23T13:20:57.000Z</time>
      </trkpt>
      <trkpt lat="43.15337" lon="0.88024">
        <ele>433</ele>
        <time>2019-01-23T13:21:8.000Z</time>
      </trkpt>
      <trkpt lat="43.15328" lon="0.88018">
        <ele>431.6</ele>
        <time>2019-01-23T13:21:21.000Z</time>
      </trkpt>
      <trkpt lat="43.15318" lon="0.88014">
        <ele>430.6</ele>
        <time>2019-01-23T13:21:30.000Z</time>
      </trkpt>
      <trkpt lat="43.15309" lon="0.8801">
        <ele>429.8</ele>
        <time>2019-01-23T13:21:39.000Z</time>
      </trkpt>
      <trkpt lat="43.153" lon="0.88007">
        <ele>428.6</ele>
        <time>2019-01-23T13:21:50.000Z</time>
      </trkpt>
      <trkpt lat="43.15291" lon="0.88006">
        <ele>427.5</ele>
        <time>2019-01-23T13:22:1.000Z</time>
      </trkpt>
      <trkpt lat="43.15282" lon="0.88009">
        <ele>426.6</ele>
        <time>2019-01-23T13:22:11.000Z</time>
      </trkpt>
      <trkpt lat="43.15257" lon="0.88013">
        <ele>424</ele>
        <time>2019-01-23T13:22:37.000Z</time>
      </trkpt>
      <trkpt lat="43.15248" lon="0.88016">
        <ele>424.2</ele>
        <time>2019-01-23T13:22:44.000Z</time>
      </trkpt>
      <trkpt lat="43.15239" lon="0.88019">
        <ele>423.8</ele>
        <time>2019-01-23T13:22:52.000Z</time>
      </trkpt>
      <trkpt lat="43.15229" lon="0.88023">
        <ele>423.4</ele>
        <time>2019-01-23T13:23:1.000Z</time>
      </trkpt>
      <trkpt lat="43.1522" lon="0.88025">
        <ele>422.8</ele>
        <time>2019-01-23T13:23:10.000Z</time>
      </trkpt>
      <trkpt lat="43.1521" lon="0.8803">
        <ele>422.2</ele>
        <time>2019-01-23T13:23:18.000Z</time>
      </trkpt>
      <trkpt lat="43.15202" lon="0.88035">
        <ele>421.2</ele>
        <time>2019-01-23T13:23:27.000Z</time>
      </trkpt>
      <trkpt lat="43.15192" lon="0.88037">
        <ele>420.8</ele>
        <time>2019-01-23T13:23:32.000Z</time>
      </trkpt>
      <trkpt lat="43.15182" lon="0.8804">
        <ele>420.4</ele>
        <time>2019-01-23T13:23:36.000Z</time>
      </trkpt>
      <trkpt lat="43.15173" lon="0.88045">
        <ele>419.5</ele>
        <time>2019-01-23T13:23:44.000Z</time>
      </trkpt>
      <trkpt lat="43.15164" lon="0.88049">
        <ele>418.7</ele>
        <time>2019-01-23T13:23:52.000Z</time>
      </trkpt>
      <trkpt lat="43.15155" lon="0.88053">
        <ele>417.8</ele>
        <time>2019-01-23T13:24:1.000Z</time>
      </trkpt>
      <trkpt lat="43.15146" lon="0.88058">
        <ele>416.3</ele>
        <time>2019-01-23T13:24:15.000Z</time>
      </trkpt>
      <trkpt lat="43.15138" lon="0.88063">
        <ele>415.4</ele>
        <time>2019-01-23T13:24:23.000Z</time>
      </trkpt>
      <trkpt lat="43.1513" lon="0.88071">
        <ele>414.1</ele>
        <time>2019-01-23T13:24:35.000Z</time>
      </trkpt>
      <trkpt lat="43.15124" lon="0.8808">
        <ele>413.2</ele>
        <time>2019-01-23T13:24:45.000Z</time>
      </trkpt>
      <trkpt lat="43.15117" lon="0.8809">
        <ele>412.4</ele>
        <time>2019-01-23T13:24:56.000Z</time>
      </trkpt>
      <trkpt lat="43.15108" lon="0.88094">
        <ele>408.6</ele>
        <time>2019-01-23T13:26:32.000Z</time>
      </trkpt>
      <trkpt lat="43.151" lon="0.88088">
        <ele>408.4</ele>
        <time>2019-01-23T13:26:40.000Z</time>
      </trkpt>
      <trkpt lat="43.1509" lon="0.88081">
        <ele>408</ele>
        <time>2019-01-23T13:26:48.000Z</time>
      </trkpt>
      <trkpt lat="43.15081" lon="0.88074">
        <ele>407.5</ele>
        <time>2019-01-23T13:26:54.000Z</time>
      </trkpt>
      <trkpt lat="43.15072" lon="0.88068">
        <ele>407.1</ele>
        <time>2019-01-23T13:27:0.000Z</time>
      </trkpt>
      <trkpt lat="43.15064" lon="0.88061">
        <ele>406.4</ele>
        <time>2019-01-23T13:27:8.000Z</time>
      </trkpt>
      <trkpt lat="43.15057" lon="0.88053">
        <ele>405.6</ele>
        <time>2019-01-23T13:27:15.000Z</time>
      </trkpt>
      <trkpt lat="43.15049" lon="0.88045">
        <ele>404.8</ele>
        <time>2019-01-23T13:27:21.000Z</time>
      </trkpt>
      <trkpt lat="43.15041" lon="0.88037">
        <ele>403.9</ele>
        <time>2019-01-23T13:27:27.000Z</time>
      </trkpt>
      <trkpt lat="43.15034" lon="0.88028">
        <ele>402.9</ele>
        <time>2019-01-23T13:27:33.000Z</time>
      </trkpt>
      <trkpt lat="43.15028" lon="0.88019">
        <ele>402.1</ele>
        <time>2019-01-23T13:27:39.000Z</time>
      </trkpt>
      <trkpt lat="43.15022" lon="0.88008">
        <ele>401.3</ele>
        <time>2019-01-23T13:27:47.000Z</time>
      </trkpt>
      <trkpt lat="43.15015" lon="0.87999">
        <ele>400.2</ele>
        <time>2019-01-23T13:27:54.000Z</time>
      </trkpt>
      <trkpt lat="43.15007" lon="0.8799">
        <ele>399.5</ele>
        <time>2019-01-23T13:28:1.000Z</time>
      </trkpt>
      <trkpt lat="43.15" lon="0.87979">
        <ele>399.1</ele>
        <time>2019-01-23T13:28:8.000Z</time>
      </trkpt>
      <trkpt lat="43.14994" lon="0.8797">
        <ele>398.7</ele>
        <time>2019-01-23T13:28:15.000Z</time>
      </trkpt>
      <trkpt lat="43.14988" lon="0.87958">
        <ele>397.6</ele>
        <time>2019-01-23T13:28:23.000Z</time>
      </trkpt>
      <trkpt lat="43.14982" lon="0.87948">
        <ele>396.9</ele>
        <time>2019-01-23T13:28:30.000Z</time>
      </trkpt>
      <trkpt lat="43.14975" lon="0.87939">
        <ele>396.2</ele>
        <time>2019-01-23T13:28:36.000Z</time>
      </trkpt>
      <trkpt lat="43.14969" lon="0.87929">
        <ele>395.3</ele>
        <time>2019-01-23T13:28:43.000Z</time>
      </trkpt>
      <trkpt lat="43.14963" lon="0.87919">
        <ele>394.6</ele>
        <time>2019-01-23T13:28:50.000Z</time>
      </trkpt>
      <trkpt lat="43.14958" lon="0.87908">
        <ele>394.1</ele>
        <time>2019-01-23T13:28:57.000Z</time>
      </trkpt>
      <trkpt lat="43.14951" lon="0.87899">
        <ele>393.6</ele>
        <time>2019-01-23T13:29:5.000Z</time>
      </trkpt>
      <trkpt lat="43.14946" lon="0.87888">
        <ele>393.2</ele>
        <time>2019-01-23T13:29:12.000Z</time>
      </trkpt>
      <trkpt lat="43.14939" lon="0.87877">
        <ele>392.9</ele>
        <time>2019-01-23T13:29:18.000Z</time>
      </trkpt>
      <trkpt lat="43.14932" lon="0.87869">
        <ele>392.7</ele>
        <time>2019-01-23T13:29:24.000Z</time>
      </trkpt>
      <trkpt lat="43.14925" lon="0.8786">
        <ele>392.5</ele>
        <time>2019-01-23T13:29:32.000Z</time>
      </trkpt>
      <trkpt lat="43.1492" lon="0.87849">
        <ele>392.2</ele>
        <time>2019-01-23T13:29:39.000Z</time>
      </trkpt>
      <trkpt lat="43.1491" lon="0.87845">
        <ele>391.7</ele>
        <time>2019-01-23T13:29:47.000Z</time>
      </trkpt>
      <trkpt lat="43.14901" lon="0.87842">
        <ele>391.2</ele>
        <time>2019-01-23T13:29:54.000Z</time>
      </trkpt>
      <trkpt lat="43.14891" lon="0.8784">
        <ele>390.9</ele>
        <time>2019-01-23T13:30:0.000Z</time>
      </trkpt>
      <trkpt lat="43.14882" lon="0.87838">
        <ele>390.7</ele>
        <time>2019-01-23T13:30:6.000Z</time>
      </trkpt>
      <trkpt lat="43.14872" lon="0.87834">
        <ele>390.5</ele>
        <time>2019-01-23T13:30:13.000Z</time>
      </trkpt>
      <trkpt lat="43.14864" lon="0.87831">
        <ele>390.4</ele>
        <time>2019-01-23T13:30:19.000Z</time>
      </trkpt>
      <trkpt lat="43.14854" lon="0.8783">
        <ele>390.6</ele>
        <time>2019-01-23T13:30:28.000Z</time>
      </trkpt>
      <trkpt lat="43.14845" lon="0.87828">
        <ele>390.8</ele>
        <time>2019-01-23T13:30:35.000Z</time>
      </trkpt>
      <trkpt lat="43.14835" lon="0.8783">
        <ele>390.8</ele>
        <time>2019-01-23T13:30:40.000Z</time>
      </trkpt>
      <trkpt lat="43.14825" lon="0.87831">
        <ele>390.8</ele>
        <time>2019-01-23T13:30:47.000Z</time>
      </trkpt>
      <trkpt lat="43.14816" lon="0.8783">
        <ele>390.6</ele>
        <time>2019-01-23T13:30:53.000Z</time>
      </trkpt>
      <trkpt lat="43.14806" lon="0.87826">
        <ele>390.4</ele>
        <time>2019-01-23T13:30:59.000Z</time>
      </trkpt>
      <trkpt lat="43.14797" lon="0.87822">
        <ele>390.1</ele>
        <time>2019-01-23T13:31:6.000Z</time>
      </trkpt>
      <trkpt lat="43.14789" lon="0.87818">
        <ele>389.9</ele>
        <time>2019-01-23T13:31:14.000Z</time>
      </trkpt>
      <trkpt lat="43.1478" lon="0.87814">
        <ele>389.7</ele>
        <time>2019-01-23T13:31:21.000Z</time>
      </trkpt>
      <trkpt lat="43.14771" lon="0.87807">
        <ele>389.4</ele>
        <time>2019-01-23T13:31:26.000Z</time>
      </trkpt>
      <trkpt lat="43.14764" lon="0.87798">
        <ele>388.9</ele>
        <time>2019-01-23T13:31:37.000Z</time>
      </trkpt>
      <trkpt lat="43.14755" lon="0.87791">
        <ele>388.7</ele>
        <time>2019-01-23T13:31:44.000Z</time>
      </trkpt>
      <trkpt lat="43.14746" lon="0.87788">
        <ele>388.5</ele>
        <time>2019-01-23T13:31:50.000Z</time>
      </trkpt>
      <trkpt lat="43.14736" lon="0.87786">
        <ele>388.4</ele>
        <time>2019-01-23T13:31:55.000Z</time>
      </trkpt>
      <trkpt lat="43.14726" lon="0.87786">
        <ele>388.3</ele>
        <time>2019-01-23T13:32:1.000Z</time>
      </trkpt>
      <trkpt lat="43.14716" lon="0.87784">
        <ele>388.2</ele>
        <time>2019-01-23T13:32:7.000Z</time>
      </trkpt>
      <trkpt lat="43.14706" lon="0.87782">
        <ele>388.1</ele>
        <time>2019-01-23T13:32:14.000Z</time>
      </trkpt>
      <trkpt lat="43.14696" lon="0.8778">
        <ele>388</ele>
        <time>2019-01-23T13:32:20.000Z</time>
      </trkpt>
      <trkpt lat="43.14687" lon="0.87777">
        <ele>387.7</ele>
        <time>2019-01-23T13:32:27.000Z</time>
      </trkpt>
      <trkpt lat="43.14678" lon="0.87774">
        <ele>387.1</ele>
        <time>2019-01-23T13:32:35.000Z</time>
      </trkpt>
      <trkpt lat="43.14668" lon="0.87772">
        <ele>386</ele>
        <time>2019-01-23T13:32:44.000Z</time>
      </trkpt>
      <trkpt lat="43.14658" lon="0.8777">
        <ele>385.2</ele>
        <time>2019-01-23T13:32:53.000Z</time>
      </trkpt>
      <trkpt lat="43.14649" lon="0.87765">
        <ele>384.5</ele>
        <time>2019-01-23T13:33:5.000Z</time>
      </trkpt>
      <trkpt lat="43.14641" lon="0.87763">
        <ele>384.3</ele>
        <time>2019-01-23T13:33:12.000Z</time>
      </trkpt>
      <trkpt lat="43.14631" lon="0.87761">
        <ele>384.1</ele>
        <time>2019-01-23T13:33:20.000Z</time>
      </trkpt>
      <trkpt lat="43.14619" lon="0.8776">
        <ele>383.8</ele>
        <time>2019-01-23T13:33:26.000Z</time>
      </trkpt>
      <trkpt lat="43.1461" lon="0.87757">
        <ele>383.5</ele>
        <time>2019-01-23T13:33:31.000Z</time>
      </trkpt>
      <trkpt lat="43.14602" lon="0.87751">
        <ele>383.2</ele>
        <time>2019-01-23T13:33:38.000Z</time>
      </trkpt>
      <trkpt lat="43.14594" lon="0.87745">
        <ele>382.4</ele>
        <time>2019-01-23T13:33:45.000Z</time>
      </trkpt>
      <trkpt lat="43.14586" lon="0.8774">
        <ele>381.4</ele>
        <time>2019-01-23T13:33:53.000Z</time>
      </trkpt>
      <trkpt lat="43.14576" lon="0.87734">
        <ele>380.8</ele>
        <time>2019-01-23T13:34:1.000Z</time>
      </trkpt>
      <trkpt lat="43.14568" lon="0.87728">
        <ele>380.6</ele>
        <time>2019-01-23T13:34:7.000Z</time>
      </trkpt>
      <trkpt lat="43.1456" lon="0.87721">
        <ele>380.5</ele>
        <time>2019-01-23T13:34:13.000Z</time>
      </trkpt>
      <trkpt lat="43.14552" lon="0.87714">
        <ele>380.5</ele>
        <time>2019-01-23T13:34:20.000Z</time>
      </trkpt>
      <trkpt lat="43.14543" lon="0.87707">
        <ele>380.5</ele>
        <time>2019-01-23T13:34:30.000Z</time>
      </trkpt>
      <trkpt lat="43.14535" lon="0.87701">
        <ele>380.6</ele>
        <time>2019-01-23T13:34:37.000Z</time>
      </trkpt>
      <trkpt lat="43.14526" lon="0.87697">
        <ele>381</ele>
        <time>2019-01-23T13:34:48.000Z</time>
      </trkpt>
      <trkpt lat="43.14517" lon="0.87691">
        <ele>381.3</ele>
        <time>2019-01-23T13:34:56.000Z</time>
      </trkpt>
      <trkpt lat="43.14507" lon="0.8769">
        <ele>381.7</ele>
        <time>2019-01-23T13:35:3.000Z</time>
      </trkpt>
      <trkpt lat="43.14497" lon="0.8769">
        <ele>382.1</ele>
        <time>2019-01-23T13:35:8.000Z</time>
      </trkpt>
      <trkpt lat="43.14488" lon="0.87689">
        <ele>382.8</ele>
        <time>2019-01-23T13:35:17.000Z</time>
      </trkpt>
      <trkpt lat="43.14479" lon="0.87689">
        <ele>383.5</ele>
        <time>2019-01-23T13:35:25.000Z</time>
      </trkpt>
      <trkpt lat="43.14468" lon="0.87689">
        <ele>384</ele>
        <time>2019-01-23T13:35:33.000Z</time>
      </trkpt>
      <trkpt lat="43.14458" lon="0.87691">
        <ele>384.1</ele>
        <time>2019-01-23T13:35:38.000Z</time>
      </trkpt>
      <trkpt lat="43.14449" lon="0.87692">
        <ele>384.4</ele>
        <time>2019-01-23T13:35:43.000Z</time>
      </trkpt>
      <trkpt lat="43.1444" lon="0.8769">
        <ele>384.7</ele>
        <time>2019-01-23T13:35:49.000Z</time>
      </trkpt>
      <trkpt lat="43.14431" lon="0.87689">
        <ele>384.9</ele>
        <time>2019-01-23T13:35:56.000Z</time>
      </trkpt>
      <trkpt lat="43.14421" lon="0.87687">
        <ele>385.3</ele>
        <time>2019-01-23T13:36:4.000Z</time>
      </trkpt>
      <trkpt lat="43.14411" lon="0.87685">
        <ele>385.6</ele>
        <time>2019-01-23T13:36:12.000Z</time>
      </trkpt>
      <trkpt lat="43.14402" lon="0.87682">
        <ele>386.2</ele>
        <time>2019-01-23T13:36:20.000Z</time>
      </trkpt>
      <trkpt lat="43.14393" lon="0.87678">
        <ele>386.9</ele>
        <time>2019-01-23T13:36:27.000Z</time>
      </trkpt>
      <trkpt lat="43.14384" lon="0.87675">
        <ele>387.4</ele>
        <time>2019-01-23T13:36:35.000Z</time>
      </trkpt>
      <trkpt lat="43.14375" lon="0.87671">
        <ele>387.7</ele>
        <time>2019-01-23T13:36:43.000Z</time>
      </trkpt>
      <trkpt lat="43.14365" lon="0.8767">
        <ele>387.8</ele>
        <time>2019-01-23T13:36:51.000Z</time>
      </trkpt>
      <trkpt lat="43.14356" lon="0.87668">
        <ele>387.9</ele>
        <time>2019-01-23T13:36:58.000Z</time>
      </trkpt>
      <trkpt lat="43.14347" lon="0.87666">
        <ele>387.7</ele>
        <time>2019-01-23T13:37:6.000Z</time>
      </trkpt>
      <trkpt lat="43.14336" lon="0.87665">
        <ele>387.3</ele>
        <time>2019-01-23T13:37:15.000Z</time>
      </trkpt>
      <trkpt lat="43.14326" lon="0.87665">
        <ele>386.6</ele>
        <time>2019-01-23T13:37:23.000Z</time>
      </trkpt>
      <trkpt lat="43.14317" lon="0.87664">
        <ele>386</ele>
        <time>2019-01-23T13:37:30.000Z</time>
      </trkpt>
      <trkpt lat="43.14307" lon="0.87663">
        <ele>385.3</ele>
        <time>2019-01-23T13:37:39.000Z</time>
      </trkpt>
      <trkpt lat="43.14298" lon="0.87662">
        <ele>384.8</ele>
        <time>2019-01-23T13:37:47.000Z</time>
      </trkpt>
      <trkpt lat="43.14287" lon="0.8766">
        <ele>384.1</ele>
        <time>2019-01-23T13:37:54.000Z</time>
      </trkpt>
      <trkpt lat="43.14277" lon="0.8766">
        <ele>383.4</ele>
        <time>2019-01-23T13:38:2.000Z</time>
      </trkpt>
      <trkpt lat="43.14267" lon="0.87659">
        <ele>382.7</ele>
        <time>2019-01-23T13:38:10.000Z</time>
      </trkpt>
      <trkpt lat="43.14257" lon="0.87658">
        <ele>382</ele>
        <time>2019-01-23T13:38:18.000Z</time>
      </trkpt>
      <trkpt lat="43.14248" lon="0.87658">
        <ele>381.3</ele>
        <time>2019-01-23T13:38:26.000Z</time>
      </trkpt>
      <trkpt lat="43.14239" lon="0.87656">
        <ele>380.5</ele>
        <time>2019-01-23T13:38:34.000Z</time>
      </trkpt>
      <trkpt lat="43.14229" lon="0.87655">
        <ele>379.6</ele>
        <time>2019-01-23T13:38:43.000Z</time>
      </trkpt>
      <trkpt lat="43.14219" lon="0.87655">
        <ele>379.2</ele>
        <time>2019-01-23T13:38:49.000Z</time>
      </trkpt>
      <trkpt lat="43.14209" lon="0.87654">
        <ele>378.5</ele>
        <time>2019-01-23T13:38:57.000Z</time>
      </trkpt>
      <trkpt lat="43.142" lon="0.87652">
        <ele>377.6</ele>
        <time>2019-01-23T13:39:5.000Z</time>
      </trkpt>
      <trkpt lat="43.1419" lon="0.87651">
        <ele>377</ele>
        <time>2019-01-23T13:39:13.000Z</time>
      </trkpt>
      <trkpt lat="43.14181" lon="0.8765">
        <ele>376.5</ele>
        <time>2019-01-23T13:39:20.000Z</time>
      </trkpt>
      <trkpt lat="43.1417" lon="0.87649">
        <ele>375.1</ele>
        <time>2019-01-23T13:39:42.000Z</time>
      </trkpt>
      <trkpt lat="43.14168" lon="0.87636">
        <ele>373.5</ele>
        <time>2019-01-23T13:41:21.000Z</time>
      </trkpt>
      <trkpt lat="43.14171" lon="0.87624">
        <ele>373.2</ele>
        <time>2019-01-23T13:41:33.000Z</time>
      </trkpt>
      <trkpt lat="43.14176" lon="0.87613">
        <ele>372.9</ele>
        <time>2019-01-23T13:41:47.000Z</time>
      </trkpt>
      <trkpt lat="43.14183" lon="0.87604">
        <ele>372.8</ele>
        <time>2019-01-23T13:41:58.000Z</time>
      </trkpt>
      <trkpt lat="43.14191" lon="0.87598">
        <ele>372.8</ele>
        <time>2019-01-23T13:42:9.000Z</time>
      </trkpt>
      <trkpt lat="43.142" lon="0.87591">
        <ele>373.1</ele>
        <time>2019-01-23T13:42:19.000Z</time>
      </trkpt>
      <trkpt lat="43.14206" lon="0.8758">
        <ele>373.4</ele>
        <time>2019-01-23T13:42:27.000Z</time>
      </trkpt>
      <trkpt lat="43.1421" lon="0.87569">
        <ele>373.6</ele>
        <time>2019-01-23T13:42:34.000Z</time>
      </trkpt>
      <trkpt lat="43.14216" lon="0.87558">
        <ele>373.7</ele>
        <time>2019-01-23T13:42:42.000Z</time>
      </trkpt>
      <trkpt lat="43.14221" lon="0.87546">
        <ele>373.7</ele>
        <time>2019-01-23T13:42:51.000Z</time>
      </trkpt>
      <trkpt lat="43.14226" lon="0.87534">
        <ele>373.7</ele>
        <time>2019-01-23T13:43:0.000Z</time>
      </trkpt>
      <trkpt lat="43.14231" lon="0.87523">
        <ele>373.6</ele>
        <time>2019-01-23T13:43:8.000Z</time>
      </trkpt>
      <trkpt lat="43.14235" lon="0.87511">
        <ele>373.4</ele>
        <time>2019-01-23T13:43:24.000Z</time>
      </trkpt>
      <trkpt lat="43.1424" lon="0.8749">
        <ele>371.9</ele>
        <time>2019-01-23T13:44:6.000Z</time>
      </trkpt>
      <trkpt lat="43.14245" lon="0.87478">
        <ele>371.7</ele>
        <time>2019-01-23T13:44:18.000Z</time>
      </trkpt>
      <trkpt lat="43.14247" lon="0.87466">
        <ele>371.5</ele>
        <time>2019-01-23T13:44:30.000Z</time>
      </trkpt>
      <trkpt lat="43.14248" lon="0.87453">
        <ele>371.3</ele>
        <time>2019-01-23T13:44:41.000Z</time>
      </trkpt>
      <trkpt lat="43.14253" lon="0.87441">
        <ele>371.1</ele>
        <time>2019-01-23T13:44:56.000Z</time>
      </trkpt>
      <trkpt lat="43.14255" lon="0.87428">
        <ele>370.9</ele>
        <time>2019-01-23T13:45:5.000Z</time>
      </trkpt>
      <trkpt lat="43.14254" lon="0.87416">
        <ele>370.1</ele>
        <time>2019-01-23T13:45:56.000Z</time>
      </trkpt>
      <trkpt lat="43.1425" lon="0.87404">
        <ele>370.1</ele>
        <time>2019-01-23T13:46:35.000Z</time>
      </trkpt>
      <trkpt lat="43.14242" lon="0.8741">
        <ele>369.6</ele>
        <time>2019-01-23T13:54:26.000Z</time>
      </trkpt>
      <trkpt lat="43.14232" lon="0.87408">
        <ele>368.9</ele>
        <time>2019-01-23T13:54:36.000Z</time>
      </trkpt>
      <trkpt lat="43.14224" lon="0.87404">
        <ele>368.2</ele>
        <time>2019-01-23T13:54:46.000Z</time>
      </trkpt>
      <trkpt lat="43.14213" lon="0.87402">
        <ele>367.7</ele>
        <time>2019-01-23T13:54:54.000Z</time>
      </trkpt>
      <trkpt lat="43.14204" lon="0.874">
        <ele>367.4</ele>
        <time>2019-01-23T13:55:3.000Z</time>
      </trkpt>
      <trkpt lat="43.14195" lon="0.87398">
        <ele>366.8</ele>
        <time>2019-01-23T13:55:11.000Z</time>
      </trkpt>
      <trkpt lat="43.14186" lon="0.87397">
        <ele>366.1</ele>
        <time>2019-01-23T13:55:19.000Z</time>
      </trkpt>
      <trkpt lat="43.14176" lon="0.87395">
        <ele>365.5</ele>
        <time>2019-01-23T13:55:29.000Z</time>
      </trkpt>
      <trkpt lat="43.14166" lon="0.87393">
        <ele>365.2</ele>
        <time>2019-01-23T13:55:41.000Z</time>
      </trkpt>
      <trkpt lat="43.14157" lon="0.87389">
        <ele>365.2</ele>
        <time>2019-01-23T13:55:50.000Z</time>
      </trkpt>
      <trkpt lat="43.14148" lon="0.87386">
        <ele>365</ele>
        <time>2019-01-23T13:55:58.000Z</time>
      </trkpt>
      <trkpt lat="43.14138" lon="0.87384">
        <ele>364.6</ele>
        <time>2019-01-23T13:56:7.000Z</time>
      </trkpt>
      <trkpt lat="43.14129" lon="0.8738">
        <ele>364.4</ele>
        <time>2019-01-23T13:56:21.000Z</time>
      </trkpt>
      <trkpt lat="43.14122" lon="0.87387">
        <ele>364.3</ele>
        <time>2019-01-23T13:56:29.000Z</time>
      </trkpt>
      <trkpt lat="43.14117" lon="0.87398">
        <ele>363.9</ele>
        <time>2019-01-23T13:56:39.000Z</time>
      </trkpt>
      <trkpt lat="43.14115" lon="0.8741">
        <ele>363.7</ele>
        <time>2019-01-23T13:56:47.000Z</time>
      </trkpt>
      <trkpt lat="43.14115" lon="0.87423">
        <ele>363.5</ele>
        <time>2019-01-23T13:57:1.000Z</time>
      </trkpt>
      <trkpt lat="43.14121" lon="0.87434">
        <ele>362.1</ele>
        <time>2019-01-23T13:57:44.000Z</time>
      </trkpt>
      <trkpt lat="43.14128" lon="0.87442">
        <ele>362.1</ele>
        <time>2019-01-23T13:57:54.000Z</time>
      </trkpt>
      <trkpt lat="43.14135" lon="0.8745">
        <ele>362</ele>
        <time>2019-01-23T13:58:23.000Z</time>
      </trkpt>
      <trkpt lat="43.14143" lon="0.87457">
        <ele>362.2</ele>
        <time>2019-01-23T13:59:7.000Z</time>
      </trkpt>
      <trkpt lat="43.14151" lon="0.87448">
        <ele>362.8</ele>
        <time>2019-01-23T14:00:40.000Z</time>
      </trkpt>
      <trkpt lat="43.14154" lon="0.87436">
        <ele>362.8</ele>
        <time>2019-01-23T14:00:48.000Z</time>
      </trkpt>
      <trkpt lat="43.14157" lon="0.87424">
        <ele>362.8</ele>
        <time>2019-01-23T14:00:57.000Z</time>
      </trkpt>
      <trkpt lat="43.1416" lon="0.87411">
        <ele>362.7</ele>
        <time>2019-01-23T14:01:7.000Z</time>
      </trkpt>
      <trkpt lat="43.14164" lon="0.87399">
        <ele>362.7</ele>
        <time>2019-01-23T14:01:17.000Z</time>
      </trkpt>
      <trkpt lat="43.14173" lon="0.87399">
        <ele>362.7</ele>
        <time>2019-01-23T14:01:33.000Z</time>
      </trkpt>
      <trkpt lat="43.14182" lon="0.87399">
        <ele>363</ele>
        <time>2019-01-23T14:01:41.000Z</time>
      </trkpt>
      <trkpt lat="43.14191" lon="0.87401">
        <ele>363.3</ele>
        <time>2019-01-23T14:01:50.000Z</time>
      </trkpt>
      <trkpt lat="43.142" lon="0.87404">
        <ele>363.5</ele>
        <time>2019-01-23T14:01:59.000Z</time>
      </trkpt>
      <trkpt lat="43.1421" lon="0.87405">
        <ele>363.9</ele>
        <time>2019-01-23T14:02:7.000Z</time>
      </trkpt>
      <trkpt lat="43.14219" lon="0.87407">
        <ele>364.2</ele>
        <time>2019-01-23T14:02:14.000Z</time>
      </trkpt>
      <trkpt lat="43.14228" lon="0.87411">
        <ele>364.6</ele>
        <time>2019-01-23T14:02:23.000Z</time>
      </trkpt>
      <trkpt lat="43.14237" lon="0.87415">
        <ele>365.1</ele>
        <time>2019-01-23T14:02:34.000Z</time>
      </trkpt>
      <trkpt lat="43.14247" lon="0.87414">
        <ele>365.7</ele>
        <time>2019-01-23T14:02:46.000Z</time>
      </trkpt>
      <trkpt lat="43.14256" lon="0.87416">
        <ele>366.2</ele>
        <time>2019-01-23T14:02:55.000Z</time>
      </trkpt>
      <trkpt lat="43.14266" lon="0.87415">
        <ele>366.5</ele>
        <time>2019-01-23T14:03:2.000Z</time>
      </trkpt>
      <trkpt lat="43.14276" lon="0.87412">
        <ele>366.8</ele>
        <time>2019-01-23T14:03:10.000Z</time>
      </trkpt>
      <trkpt lat="43.14285" lon="0.87408">
        <ele>367.1</ele>
        <time>2019-01-23T14:03:21.000Z</time>
      </trkpt>
      <trkpt lat="43.14292" lon="0.87399">
        <ele>367.6</ele>
        <time>2019-01-23T14:03:38.000Z</time>
      </trkpt>
      <trkpt lat="43.14301" lon="0.87394">
        <ele>367.9</ele>
        <time>2019-01-23T14:03:48.000Z</time>
      </trkpt>
      <trkpt lat="43.14306" lon="0.87385">
        <ele>368.4</ele>
        <time>2019-01-23T14:03:56.000Z</time>
      </trkpt>
      <trkpt lat="43.14309" lon="0.87373">
        <ele>369.2</ele>
        <time>2019-01-23T14:04:4.000Z</time>
      </trkpt>
      <trkpt lat="43.14313" lon="0.8736">
        <ele>369.7</ele>
        <time>2019-01-23T14:04:13.000Z</time>
      </trkpt>
      <trkpt lat="43.14315" lon="0.87349">
        <ele>369.9</ele>
        <time>2019-01-23T14:04:33.000Z</time>
      </trkpt>
      <trkpt lat="43.1432" lon="0.87337">
        <ele>369.1</ele>
        <time>2019-01-23T14:04:56.000Z</time>
      </trkpt>
      <trkpt lat="43.14323" lon="0.87324">
        <ele>369</ele>
        <time>2019-01-23T14:05:4.000Z</time>
      </trkpt>
      <trkpt lat="43.14325" lon="0.8731">
        <ele>368.9</ele>
        <time>2019-01-23T14:05:12.000Z</time>
      </trkpt>
      <trkpt lat="43.14328" lon="0.87298">
        <ele>368.8</ele>
        <time>2019-01-23T14:05:20.000Z</time>
      </trkpt>
      <trkpt lat="43.14332" lon="0.87286">
        <ele>368.7</ele>
        <time>2019-01-23T14:05:27.000Z</time>
      </trkpt>
      <trkpt lat="43.14335" lon="0.87272">
        <ele>368.7</ele>
        <time>2019-01-23T14:05:35.000Z</time>
      </trkpt>
      <trkpt lat="43.14338" lon="0.87258">
        <ele>368.4</ele>
        <time>2019-01-23T14:05:43.000Z</time>
      </trkpt>
      <trkpt lat="43.14341" lon="0.87246">
        <ele>367.9</ele>
        <time>2019-01-23T14:05:52.000Z</time>
      </trkpt>
      <trkpt lat="43.14344" lon="0.87233">
        <ele>367.3</ele>
        <time>2019-01-23T14:06:3.000Z</time>
      </trkpt>
      <trkpt lat="43.1434" lon="0.87219">
        <ele>366.2</ele>
        <time>2019-01-23T14:06:27.000Z</time>
      </trkpt>
      <trkpt lat="43.14343" lon="0.87207">
        <ele>365.9</ele>
        <time>2019-01-23T14:06:41.000Z</time>
      </trkpt>
      <trkpt lat="43.14346" lon="0.87195">
        <ele>365.5</ele>
        <time>2019-01-23T14:06:51.000Z</time>
      </trkpt>
      <trkpt lat="43.14351" lon="0.87184">
        <ele>365.3</ele>
        <time>2019-01-23T14:06:59.000Z</time>
      </trkpt>
      <trkpt lat="43.14357" lon="0.87174">
        <ele>365.1</ele>
        <time>2019-01-23T14:07:8.000Z</time>
      </trkpt>
      <trkpt lat="43.14361" lon="0.87162">
        <ele>364.9</ele>
        <time>2019-01-23T14:07:16.000Z</time>
      </trkpt>
      <trkpt lat="43.14365" lon="0.87151">
        <ele>364.6</ele>
        <time>2019-01-23T14:07:30.000Z</time>
      </trkpt>
      <trkpt lat="43.14373" lon="0.87144">
        <ele>364.5</ele>
        <time>2019-01-23T14:07:49.000Z</time>
      </trkpt>
      <trkpt lat="43.14382" lon="0.87142">
        <ele>364.5</ele>
        <time>2019-01-23T14:07:58.000Z</time>
      </trkpt>
      <trkpt lat="43.14392" lon="0.87141">
        <ele>364.5</ele>
        <time>2019-01-23T14:08:7.000Z</time>
      </trkpt>
      <trkpt lat="43.14402" lon="0.87141">
        <ele>364.6</ele>
        <time>2019-01-23T14:08:15.000Z</time>
      </trkpt>
      <trkpt lat="43.14412" lon="0.8714">
        <ele>364.6</ele>
        <time>2019-01-23T14:08:24.000Z</time>
      </trkpt>
      <trkpt lat="43.14421" lon="0.87138">
        <ele>364.6</ele>
        <time>2019-01-23T14:08:33.000Z</time>
      </trkpt>
      <trkpt lat="43.1443" lon="0.87137">
        <ele>364.6</ele>
        <time>2019-01-23T14:08:41.000Z</time>
      </trkpt>
      <trkpt lat="43.14439" lon="0.87133">
        <ele>364.6</ele>
        <time>2019-01-23T14:08:48.000Z</time>
      </trkpt>
      <trkpt lat="43.14449" lon="0.87132">
        <ele>364.7</ele>
        <time>2019-01-23T14:08:56.000Z</time>
      </trkpt>
      <trkpt lat="43.14458" lon="0.87128">
        <ele>364.8</ele>
        <time>2019-01-23T14:09:4.000Z</time>
      </trkpt>
      <trkpt lat="43.14468" lon="0.87125">
        <ele>365</ele>
        <time>2019-01-23T14:09:13.000Z</time>
      </trkpt>
      <trkpt lat="43.14477" lon="0.87123">
        <ele>365.3</ele>
        <time>2019-01-23T14:09:24.000Z</time>
      </trkpt>
      <trkpt lat="43.14486" lon="0.87122">
        <ele>365.7</ele>
        <time>2019-01-23T14:09:32.000Z</time>
      </trkpt>
      <trkpt lat="43.14496" lon="0.8712">
        <ele>366</ele>
        <time>2019-01-23T14:09:42.000Z</time>
      </trkpt>
      <trkpt lat="43.14505" lon="0.87118">
        <ele>366.1</ele>
        <time>2019-01-23T14:09:51.000Z</time>
      </trkpt>
      <trkpt lat="43.14515" lon="0.87117">
        <ele>366.3</ele>
        <time>2019-01-23T14:09:59.000Z</time>
      </trkpt>
      <trkpt lat="43.14525" lon="0.87118">
        <ele>366.6</ele>
        <time>2019-01-23T14:10:6.000Z</time>
      </trkpt>
      <trkpt lat="43.14534" lon="0.87118">
        <ele>367</ele>
        <time>2019-01-23T14:10:15.000Z</time>
      </trkpt>
      <trkpt lat="43.14544" lon="0.87116">
        <ele>367.3</ele>
        <time>2019-01-23T14:10:24.000Z</time>
      </trkpt>
      <trkpt lat="43.14552" lon="0.8711">
        <ele>367.5</ele>
        <time>2019-01-23T14:10:32.000Z</time>
      </trkpt>
      <trkpt lat="43.14561" lon="0.87103">
        <ele>367.9</ele>
        <time>2019-01-23T14:10:40.000Z</time>
      </trkpt>
      <trkpt lat="43.1457" lon="0.87095">
        <ele>368.4</ele>
        <time>2019-01-23T14:10:48.000Z</time>
      </trkpt>
      <trkpt lat="43.14577" lon="0.87088">
        <ele>368.8</ele>
        <time>2019-01-23T14:10:55.000Z</time>
      </trkpt>
      <trkpt lat="43.14586" lon="0.87086">
        <ele>369</ele>
        <time>2019-01-23T14:11:4.000Z</time>
      </trkpt>
      <trkpt lat="43.14595" lon="0.87082">
        <ele>369.2</ele>
        <time>2019-01-23T14:11:13.000Z</time>
      </trkpt>
      <trkpt lat="43.14603" lon="0.87076">
        <ele>369.3</ele>
        <time>2019-01-23T14:11:21.000Z</time>
      </trkpt>
      <trkpt lat="43.14612" lon="0.87073">
        <ele>369.3</ele>
        <time>2019-01-23T14:11:29.000Z</time>
      </trkpt>
      <trkpt lat="43.14622" lon="0.87069">
        <ele>369.4</ele>
        <time>2019-01-23T14:11:38.000Z</time>
      </trkpt>
      <trkpt lat="43.1463" lon="0.87064">
        <ele>369.4</ele>
        <time>2019-01-23T14:11:46.000Z</time>
      </trkpt>
      <trkpt lat="43.1464" lon="0.8706">
        <ele>369.4</ele>
        <time>2019-01-23T14:11:56.000Z</time>
      </trkpt>
      <trkpt lat="43.14648" lon="0.87055">
        <ele>369.6</ele>
        <time>2019-01-23T14:12:4.000Z</time>
      </trkpt>
      <trkpt lat="43.14657" lon="0.8705">
        <ele>370</ele>
        <time>2019-01-23T14:12:15.000Z</time>
      </trkpt>
      <trkpt lat="43.14666" lon="0.87052">
        <ele>370.8</ele>
        <time>2019-01-23T14:12:29.000Z</time>
      </trkpt>
      <trkpt lat="43.14669" lon="0.87039">
        <ele>372.4</ele>
        <time>2019-01-23T14:14:11.000Z</time>
      </trkpt>
      <trkpt lat="43.14678" lon="0.87037">
        <ele>372.4</ele>
        <time>2019-01-23T14:14:21.000Z</time>
      </trkpt>
      <trkpt lat="43.14687" lon="0.87037">
        <ele>372.4</ele>
        <time>2019-01-23T14:14:33.000Z</time>
      </trkpt>
      <trkpt lat="43.14697" lon="0.87033">
        <ele>372.5</ele>
        <time>2019-01-23T14:14:41.000Z</time>
      </trkpt>
      <trkpt lat="43.14706" lon="0.87031">
        <ele>372.7</ele>
        <time>2019-01-23T14:14:50.000Z</time>
      </trkpt>
      <trkpt lat="43.14715" lon="0.87029">
        <ele>372.8</ele>
        <time>2019-01-23T14:15:0.000Z</time>
      </trkpt>
      <trkpt lat="43.14725" lon="0.87026">
        <ele>373</ele>
        <time>2019-01-23T14:15:8.000Z</time>
      </trkpt>
      <trkpt lat="43.14734" lon="0.87021">
        <ele>373.3</ele>
        <time>2019-01-23T14:15:14.000Z</time>
      </trkpt>
      <trkpt lat="43.14743" lon="0.87018">
        <ele>373.6</ele>
        <time>2019-01-23T14:15:20.000Z</time>
      </trkpt>
      <trkpt lat="43.14752" lon="0.87015">
        <ele>374.1</ele>
        <time>2019-01-23T14:15:29.000Z</time>
      </trkpt>
      <trkpt lat="43.14761" lon="0.87013">
        <ele>374.3</ele>
        <time>2019-01-23T14:15:36.000Z</time>
      </trkpt>
      <trkpt lat="43.1477" lon="0.87011">
        <ele>374.6</ele>
        <time>2019-01-23T14:15:44.000Z</time>
      </trkpt>
      <trkpt lat="43.14779" lon="0.87008">
        <ele>374.9</ele>
        <time>2019-01-23T14:15:51.000Z</time>
      </trkpt>
      <trkpt lat="43.14789" lon="0.87006">
        <ele>375.1</ele>
        <time>2019-01-23T14:16:0.000Z</time>
      </trkpt>
      <trkpt lat="43.14799" lon="0.87004">
        <ele>375.3</ele>
        <time>2019-01-23T14:16:9.000Z</time>
      </trkpt>
      <trkpt lat="43.14808" lon="0.87">
        <ele>375.5</ele>
        <time>2019-01-23T14:16:18.000Z</time>
      </trkpt>
      <trkpt lat="43.14817" lon="0.86998">
        <ele>375.8</ele>
        <time>2019-01-23T14:16:28.000Z</time>
      </trkpt>
      <trkpt lat="43.14826" lon="0.86995">
        <ele>376</ele>
        <time>2019-01-23T14:16:38.000Z</time>
      </trkpt>
      <trkpt lat="43.14836" lon="0.86991">
        <ele>376.4</ele>
        <time>2019-01-23T14:16:49.000Z</time>
      </trkpt>
      <trkpt lat="43.14845" lon="0.86987">
        <ele>376.7</ele>
        <time>2019-01-23T14:16:58.000Z</time>
      </trkpt>
      <trkpt lat="43.14853" lon="0.86981">
        <ele>377.1</ele>
        <time>2019-01-23T14:17:7.000Z</time>
      </trkpt>
      <trkpt lat="43.14861" lon="0.86972">
        <ele>377.6</ele>
        <time>2019-01-23T14:17:16.000Z</time>
      </trkpt>
      <trkpt lat="43.14868" lon="0.86962">
        <ele>378</ele>
        <time>2019-01-23T14:17:26.000Z</time>
      </trkpt>
      <trkpt lat="43.14871" lon="0.8695">
        <ele>378.1</ele>
        <time>2019-01-23T14:17:34.000Z</time>
      </trkpt>
      <trkpt lat="43.14876" lon="0.86938">
        <ele>378.2</ele>
        <time>2019-01-23T14:17:43.000Z</time>
      </trkpt>
      <trkpt lat="43.14882" lon="0.86929">
        <ele>378.3</ele>
        <time>2019-01-23T14:17:50.000Z</time>
      </trkpt>
      <trkpt lat="43.14887" lon="0.86918">
        <ele>378.5</ele>
        <time>2019-01-23T14:17:59.000Z</time>
      </trkpt>
      <trkpt lat="43.14892" lon="0.86908">
        <ele>378.7</ele>
        <time>2019-01-23T14:18:11.000Z</time>
      </trkpt>
      <trkpt lat="43.14899" lon="0.86898">
        <ele>379.1</ele>
        <time>2019-01-23T14:18:22.000Z</time>
      </trkpt>
      <trkpt lat="43.14905" lon="0.86889">
        <ele>379.3</ele>
        <time>2019-01-23T14:18:30.000Z</time>
      </trkpt>
      <trkpt lat="43.14911" lon="0.86879">
        <ele>379.6</ele>
        <time>2019-01-23T14:18:39.000Z</time>
      </trkpt>
      <trkpt lat="43.14919" lon="0.86871">
        <ele>380</ele>
        <time>2019-01-23T14:18:49.000Z</time>
      </trkpt>
      <trkpt lat="43.14927" lon="0.86863">
        <ele>380.2</ele>
        <time>2019-01-23T14:18:57.000Z</time>
      </trkpt>
      <trkpt lat="43.14933" lon="0.86853">
        <ele>380.3</ele>
        <time>2019-01-23T14:19:5.000Z</time>
      </trkpt>
      <trkpt lat="43.1494" lon="0.86845">
        <ele>380.5</ele>
        <time>2019-01-23T14:19:12.000Z</time>
      </trkpt>
      <trkpt lat="43.14947" lon="0.86836">
        <ele>380.7</ele>
        <time>2019-01-23T14:19:20.000Z</time>
      </trkpt>
      <trkpt lat="43.14953" lon="0.86825">
        <ele>380.9</ele>
        <time>2019-01-23T14:19:29.000Z</time>
      </trkpt>
      <trkpt lat="43.14959" lon="0.86815">
        <ele>381.6</ele>
        <time>2019-01-23T14:19:58.000Z</time>
      </trkpt>
      <trkpt lat="43.14965" lon="0.86805">
        <ele>381.8</ele>
        <time>2019-01-23T14:20:5.000Z</time>
      </trkpt>
      <trkpt lat="43.14972" lon="0.86795">
        <ele>382.2</ele>
        <time>2019-01-23T14:20:14.000Z</time>
      </trkpt>
      <trkpt lat="43.14979" lon="0.86787">
        <ele>382.6</ele>
        <time>2019-01-23T14:20:27.000Z</time>
      </trkpt>
      <trkpt lat="43.14986" lon="0.86778">
        <ele>382.9</ele>
        <time>2019-01-23T14:20:37.000Z</time>
      </trkpt>
      <trkpt lat="43.14994" lon="0.86772">
        <ele>383.1</ele>
        <time>2019-01-23T14:20:46.000Z</time>
      </trkpt>
      <trkpt lat="43.15002" lon="0.86767">
        <ele>383.3</ele>
        <time>2019-01-23T14:21:2.000Z</time>
      </trkpt>
      <trkpt lat="43.15013" lon="0.86765">
        <ele>383.4</ele>
        <time>2019-01-23T14:21:13.000Z</time>
      </trkpt>
      <trkpt lat="43.15023" lon="0.86766">
        <ele>383.9</ele>
        <time>2019-01-23T14:21:23.000Z</time>
      </trkpt>
      <trkpt lat="43.15032" lon="0.86768">
        <ele>385</ele>
        <time>2019-01-23T14:21:34.000Z</time>
      </trkpt>
      <trkpt lat="43.15041" lon="0.86769">
        <ele>385.7</ele>
        <time>2019-01-23T14:21:46.000Z</time>
      </trkpt>
      <trkpt lat="43.1505" lon="0.86772">
        <ele>386.3</ele>
        <time>2019-01-23T14:21:54.000Z</time>
      </trkpt>
      <trkpt lat="43.15057" lon="0.86764">
        <ele>387.2</ele>
        <time>2019-01-23T14:22:3.000Z</time>
      </trkpt>
      <trkpt lat="43.15063" lon="0.86752">
        <ele>387.8</ele>
        <time>2019-01-23T14:22:12.000Z</time>
      </trkpt>
      <trkpt lat="43.15068" lon="0.86737">
        <ele>388.1</ele>
        <time>2019-01-23T14:22:20.000Z</time>
      </trkpt>
      <trkpt lat="43.1507" lon="0.86725">
        <ele>388.3</ele>
        <time>2019-01-23T14:22:27.000Z</time>
      </trkpt>
      <trkpt lat="43.15074" lon="0.86713">
        <ele>388.4</ele>
        <time>2019-01-23T14:22:37.000Z</time>
      </trkpt>
      <trkpt lat="43.15078" lon="0.86701">
        <ele>388.5</ele>
        <time>2019-01-23T14:22:44.000Z</time>
      </trkpt>
      <trkpt lat="43.15082" lon="0.86689">
        <ele>388.4</ele>
        <time>2019-01-23T14:22:51.000Z</time>
      </trkpt>
      <trkpt lat="43.15086" lon="0.86677">
        <ele>388.3</ele>
        <time>2019-01-23T14:22:58.000Z</time>
      </trkpt>
      <trkpt lat="43.15088" lon="0.86664">
        <ele>388.4</ele>
        <time>2019-01-23T14:23:6.000Z</time>
      </trkpt>
      <trkpt lat="43.15091" lon="0.86652">
        <ele>388.8</ele>
        <time>2019-01-23T14:23:14.000Z</time>
      </trkpt>
      <trkpt lat="43.15093" lon="0.86639">
        <ele>389.3</ele>
        <time>2019-01-23T14:23:22.000Z</time>
      </trkpt>
      <trkpt lat="43.15097" lon="0.86627">
        <ele>389.9</ele>
        <time>2019-01-23T14:23:31.000Z</time>
      </trkpt>
      <trkpt lat="43.15104" lon="0.86619">
        <ele>390.3</ele>
        <time>2019-01-23T14:23:42.000Z</time>
      </trkpt>
      <trkpt lat="43.15113" lon="0.86614">
        <ele>390.6</ele>
        <time>2019-01-23T14:23:53.000Z</time>
      </trkpt>
      <trkpt lat="43.15122" lon="0.8661">
        <ele>390.9</ele>
        <time>2019-01-23T14:24:2.000Z</time>
      </trkpt>
      <trkpt lat="43.15132" lon="0.86604">
        <ele>391.1</ele>
        <time>2019-01-23T14:24:10.000Z</time>
      </trkpt>
      <trkpt lat="43.15141" lon="0.86603">
        <ele>391.3</ele>
        <time>2019-01-23T14:24:16.000Z</time>
      </trkpt>
      <trkpt lat="43.15151" lon="0.86598">
        <ele>391.9</ele>
        <time>2019-01-23T14:24:26.000Z</time>
      </trkpt>
      <trkpt lat="43.1516" lon="0.86592">
        <ele>392.4</ele>
        <time>2019-01-23T14:24:34.000Z</time>
      </trkpt>
      <trkpt lat="43.15169" lon="0.86587">
        <ele>392.9</ele>
        <time>2019-01-23T14:24:44.000Z</time>
      </trkpt>
      <trkpt lat="43.15178" lon="0.86581">
        <ele>393.2</ele>
        <time>2019-01-23T14:24:51.000Z</time>
      </trkpt>
      <trkpt lat="43.15187" lon="0.86575">
        <ele>393.7</ele>
        <time>2019-01-23T14:25:0.000Z</time>
      </trkpt>
      <trkpt lat="43.15196" lon="0.8657">
        <ele>394.3</ele>
        <time>2019-01-23T14:25:9.000Z</time>
      </trkpt>
      <trkpt lat="43.15204" lon="0.86566">
        <ele>394.6</ele>
        <time>2019-01-23T14:25:17.000Z</time>
      </trkpt>
      <trkpt lat="43.15212" lon="0.8656">
        <ele>394.7</ele>
        <time>2019-01-23T14:25:25.000Z</time>
      </trkpt>
      <trkpt lat="43.15222" lon="0.86555">
        <ele>395.1</ele>
        <time>2019-01-23T14:25:34.000Z</time>
      </trkpt>
      <trkpt lat="43.1523" lon="0.8655">
        <ele>395.6</ele>
        <time>2019-01-23T14:25:43.000Z</time>
      </trkpt>
      <trkpt lat="43.1524" lon="0.86545">
        <ele>396</ele>
        <time>2019-01-23T14:25:51.000Z</time>
      </trkpt>
      <trkpt lat="43.15249" lon="0.8654">
        <ele>396.5</ele>
        <time>2019-01-23T14:26:2.000Z</time>
      </trkpt>
      <trkpt lat="43.15258" lon="0.86535">
        <ele>396.9</ele>
        <time>2019-01-23T14:26:13.000Z</time>
      </trkpt>
      <trkpt lat="43.15264" lon="0.86524">
        <ele>397.1</ele>
        <time>2019-01-23T14:26:21.000Z</time>
      </trkpt>
      <trkpt lat="43.15268" lon="0.86513">
        <ele>397.5</ele>
        <time>2019-01-23T14:26:30.000Z</time>
      </trkpt>
      <trkpt lat="43.15269" lon="0.86501">
        <ele>397.8</ele>
        <time>2019-01-23T14:26:42.000Z</time>
      </trkpt>
      <trkpt lat="43.1527" lon="0.86488">
        <ele>398.3</ele>
        <time>2019-01-23T14:26:52.000Z</time>
      </trkpt>
      <trkpt lat="43.15272" lon="0.86475">
        <ele>399.3</ele>
        <time>2019-01-23T14:27:5.000Z</time>
      </trkpt>
      <trkpt lat="43.15274" lon="0.86462">
        <ele>400.6</ele>
        <time>2019-01-23T14:27:17.000Z</time>
      </trkpt>
      <trkpt lat="43.15275" lon="0.86449">
        <ele>402.2</ele>
        <time>2019-01-23T14:27:30.000Z</time>
      </trkpt>
      <trkpt lat="43.15277" lon="0.86436">
        <ele>403.6</ele>
        <time>2019-01-23T14:27:41.000Z</time>
      </trkpt>
      <trkpt lat="43.15278" lon="0.86424">
        <ele>405</ele>
        <time>2019-01-23T14:27:52.000Z</time>
      </trkpt>
      <trkpt lat="43.1528" lon="0.86411">
        <ele>406.4</ele>
        <time>2019-01-23T14:28:2.000Z</time>
      </trkpt>
      <trkpt lat="43.1528" lon="0.86398">
        <ele>407.9</ele>
        <time>2019-01-23T14:28:17.000Z</time>
      </trkpt>
      <trkpt lat="43.15279" lon="0.86384">
        <ele>408.6</ele>
        <time>2019-01-23T14:28:26.000Z</time>
      </trkpt>
      <trkpt lat="43.1528" lon="0.86372">
        <ele>409.3</ele>
        <time>2019-01-23T14:28:33.000Z</time>
      </trkpt>
      <trkpt lat="43.15281" lon="0.86359">
        <ele>410.1</ele>
        <time>2019-01-23T14:28:42.000Z</time>
      </trkpt>
      <trkpt lat="43.15283" lon="0.86346">
        <ele>410.8</ele>
        <time>2019-01-23T14:28:51.000Z</time>
      </trkpt>
      <trkpt lat="43.15284" lon="0.86332">
        <ele>411.3</ele>
        <time>2019-01-23T14:29:1.000Z</time>
      </trkpt>
      <trkpt lat="43.15283" lon="0.86319">
        <ele>412.2</ele>
        <time>2019-01-23T14:29:12.000Z</time>
      </trkpt>
      <trkpt lat="43.1528" lon="0.86307">
        <ele>412.8</ele>
        <time>2019-01-23T14:29:27.000Z</time>
      </trkpt>
      <trkpt lat="43.15282" lon="0.86295">
        <ele>412.9</ele>
        <time>2019-01-23T14:29:40.000Z</time>
      </trkpt>
      <trkpt lat="43.15278" lon="0.86281">
        <ele>413</ele>
        <time>2019-01-23T14:29:49.000Z</time>
      </trkpt>
      <trkpt lat="43.15276" lon="0.86269">
        <ele>412.9</ele>
        <time>2019-01-23T14:29:57.000Z</time>
      </trkpt>
      <trkpt lat="43.15274" lon="0.86256">
        <ele>412.6</ele>
        <time>2019-01-23T14:30:5.000Z</time>
      </trkpt>
      <trkpt lat="43.1527" lon="0.86245">
        <ele>412.1</ele>
        <time>2019-01-23T14:30:14.000Z</time>
      </trkpt>
      <trkpt lat="43.15267" lon="0.86232">
        <ele>411.4</ele>
        <time>2019-01-23T14:30:23.000Z</time>
      </trkpt>
      <trkpt lat="43.15266" lon="0.86219">
        <ele>410.9</ele>
        <time>2019-01-23T14:30:32.000Z</time>
      </trkpt>
      <trkpt lat="43.15264" lon="0.86205">
        <ele>410.1</ele>
        <time>2019-01-23T14:30:41.000Z</time>
      </trkpt>
      <trkpt lat="43.15265" lon="0.86192">
        <ele>409.2</ele>
        <time>2019-01-23T14:30:50.000Z</time>
      </trkpt>
      <trkpt lat="43.15264" lon="0.86179">
        <ele>408</ele>
        <time>2019-01-23T14:30:59.000Z</time>
      </trkpt>
      <trkpt lat="43.15263" lon="0.86167">
        <ele>406.9</ele>
        <time>2019-01-23T14:31:7.000Z</time>
      </trkpt>
      <trkpt lat="43.15263" lon="0.86153">
        <ele>405.6</ele>
        <time>2019-01-23T14:31:16.000Z</time>
      </trkpt>
      <trkpt lat="43.15263" lon="0.8614">
        <ele>404.6</ele>
        <time>2019-01-23T14:31:24.000Z</time>
      </trkpt>
      <trkpt lat="43.15264" lon="0.86127">
        <ele>403.1</ele>
        <time>2019-01-23T14:31:33.000Z</time>
      </trkpt>
      <trkpt lat="43.15264" lon="0.86115">
        <ele>401.8</ele>
        <time>2019-01-23T14:31:42.000Z</time>
      </trkpt>
      <trkpt lat="43.15265" lon="0.86102">
        <ele>400.5</ele>
        <time>2019-01-23T14:31:50.000Z</time>
      </trkpt>
      <trkpt lat="43.15265" lon="0.86089">
        <ele>399.2</ele>
        <time>2019-01-23T14:31:58.000Z</time>
      </trkpt>
      <trkpt lat="43.15264" lon="0.86076">
        <ele>398.1</ele>
        <time>2019-01-23T14:32:6.000Z</time>
      </trkpt>
      <trkpt lat="43.15265" lon="0.86063">
        <ele>397.3</ele>
        <time>2019-01-23T14:32:13.000Z</time>
      </trkpt>
      <trkpt lat="43.15263" lon="0.86048">
        <ele>396.1</ele>
        <time>2019-01-23T14:32:23.000Z</time>
      </trkpt>
      <trkpt lat="43.15263" lon="0.86035">
        <ele>395.6</ele>
        <time>2019-01-23T14:32:31.000Z</time>
      </trkpt>
      <trkpt lat="43.15272" lon="0.86028">
        <ele>394.5</ele>
        <time>2019-01-23T14:32:45.000Z</time>
      </trkpt>
      <trkpt lat="43.15282" lon="0.86027">
        <ele>394.2</ele>
        <time>2019-01-23T14:32:55.000Z</time>
      </trkpt>
      <trkpt lat="43.15291" lon="0.86024">
        <ele>394.4</ele>
        <time>2019-01-23T14:33:8.000Z</time>
      </trkpt>
      <trkpt lat="43.153" lon="0.86019">
        <ele>395.1</ele>
        <time>2019-01-23T14:33:18.000Z</time>
      </trkpt>
      <trkpt lat="43.15309" lon="0.86015">
        <ele>395.4</ele>
        <time>2019-01-23T14:33:26.000Z</time>
      </trkpt>
      <trkpt lat="43.15319" lon="0.86012">
        <ele>395.9</ele>
        <time>2019-01-23T14:33:35.000Z</time>
      </trkpt>
      <trkpt lat="43.15328" lon="0.8601">
        <ele>396.4</ele>
        <time>2019-01-23T14:33:44.000Z</time>
      </trkpt>
      <trkpt lat="43.15337" lon="0.86011">
        <ele>397</ele>
        <time>2019-01-23T14:33:54.000Z</time>
      </trkpt>
      <trkpt lat="43.15346" lon="0.86013">
        <ele>397.7</ele>
        <time>2019-01-23T14:34:4.000Z</time>
      </trkpt>
      <trkpt lat="43.15356" lon="0.86014">
        <ele>398.3</ele>
        <time>2019-01-23T14:34:12.000Z</time>
      </trkpt>
      <trkpt lat="43.15366" lon="0.86015">
        <ele>399.3</ele>
        <time>2019-01-23T14:34:20.000Z</time>
      </trkpt>
      <trkpt lat="43.15374" lon="0.86012">
        <ele>400.5</ele>
        <time>2019-01-23T14:34:30.000Z</time>
      </trkpt>
      <trkpt lat="43.15383" lon="0.86006">
        <ele>401.1</ele>
        <time>2019-01-23T14:34:39.000Z</time>
      </trkpt>
      <trkpt lat="43.15391" lon="0.86001">
        <ele>401.3</ele>
        <time>2019-01-23T14:34:49.000Z</time>
      </trkpt>
      <trkpt lat="43.154" lon="0.85997">
        <ele>401.1</ele>
        <time>2019-01-23T14:34:59.000Z</time>
      </trkpt>
      <trkpt lat="43.15409" lon="0.85989">
        <ele>400.5</ele>
        <time>2019-01-23T14:35:14.000Z</time>
      </trkpt>
      <trkpt lat="43.15417" lon="0.85983">
        <ele>400.3</ele>
        <time>2019-01-23T14:35:22.000Z</time>
      </trkpt>
      <trkpt lat="43.15425" lon="0.85977">
        <ele>400.2</ele>
        <time>2019-01-23T14:35:32.000Z</time>
      </trkpt>
      <trkpt lat="43.15434" lon="0.85973">
        <ele>400.1</ele>
        <time>2019-01-23T14:35:44.000Z</time>
      </trkpt>
      <trkpt lat="43.15444" lon="0.85969">
        <ele>399.8</ele>
        <time>2019-01-23T14:35:54.000Z</time>
      </trkpt>
      <trkpt lat="43.15454" lon="0.85968">
        <ele>399.5</ele>
        <time>2019-01-23T14:36:2.000Z</time>
      </trkpt>
      <trkpt lat="43.15461" lon="0.85961">
        <ele>399.4</ele>
        <time>2019-01-23T14:36:8.000Z</time>
      </trkpt>
      <trkpt lat="43.15469" lon="0.85951">
        <ele>399.3</ele>
        <time>2019-01-23T14:36:13.000Z</time>
      </trkpt>
      <trkpt lat="43.15475" lon="0.8594">
        <ele>399.2</ele>
        <time>2019-01-23T14:36:20.000Z</time>
      </trkpt>
      <trkpt lat="43.1548" lon="0.85928">
        <ele>399.2</ele>
        <time>2019-01-23T14:36:28.000Z</time>
      </trkpt>
      <trkpt lat="43.15486" lon="0.85918">
        <ele>399.2</ele>
        <time>2019-01-23T14:36:35.000Z</time>
      </trkpt>
      <trkpt lat="43.15491" lon="0.85906">
        <ele>399.1</ele>
        <time>2019-01-23T14:36:43.000Z</time>
      </trkpt>
      <trkpt lat="43.15496" lon="0.85895">
        <ele>399.1</ele>
        <time>2019-01-23T14:36:51.000Z</time>
      </trkpt>
      <trkpt lat="43.15502" lon="0.85885">
        <ele>399.3</ele>
        <time>2019-01-23T14:37:1.000Z</time>
      </trkpt>
      <trkpt lat="43.15508" lon="0.85875">
        <ele>399.6</ele>
        <time>2019-01-23T14:37:11.000Z</time>
      </trkpt>
      <trkpt lat="43.15516" lon="0.85868">
        <ele>400.1</ele>
        <time>2019-01-23T14:37:23.000Z</time>
      </trkpt>
      <trkpt lat="43.15525" lon="0.85868">
        <ele>400.3</ele>
        <time>2019-01-23T14:37:31.000Z</time>
      </trkpt>
      <trkpt lat="43.15534" lon="0.85866">
        <ele>400.5</ele>
        <time>2019-01-23T14:37:42.000Z</time>
      </trkpt>
      <trkpt lat="43.15543" lon="0.8587">
        <ele>400.9</ele>
        <time>2019-01-23T14:37:57.000Z</time>
      </trkpt>
      <trkpt lat="43.15549" lon="0.85879">
        <ele>402</ele>
        <time>2019-01-23T14:38:13.000Z</time>
      </trkpt>
      <trkpt lat="43.15556" lon="0.85887">
        <ele>403.5</ele>
        <time>2019-01-23T14:38:27.000Z</time>
      </trkpt>
      <trkpt lat="43.15564" lon="0.85895">
        <ele>405.3</ele>
        <time>2019-01-23T14:38:43.000Z</time>
      </trkpt>
      <trkpt lat="43.15571" lon="0.85903">
        <ele>407.5</ele>
        <time>2019-01-23T14:39:4.000Z</time>
      </trkpt>
      <trkpt lat="43.15578" lon="0.85916">
        <ele>409.8</ele>
        <time>2019-01-23T14:39:24.000Z</time>
      </trkpt>
      <trkpt lat="43.15585" lon="0.85926">
        <ele>411.3</ele>
        <time>2019-01-23T14:39:39.000Z</time>
      </trkpt>
      <trkpt lat="43.15592" lon="0.85935">
        <ele>412.7</ele>
        <time>2019-01-23T14:39:51.000Z</time>
      </trkpt>
      <trkpt lat="43.15598" lon="0.85945">
        <ele>413.7</ele>
        <time>2019-01-23T14:40:2.000Z</time>
      </trkpt>
      <trkpt lat="43.15603" lon="0.85956">
        <ele>414.7</ele>
        <time>2019-01-23T14:40:13.000Z</time>
      </trkpt>
      <trkpt lat="43.15608" lon="0.85966">
        <ele>415.7</ele>
        <time>2019-01-23T14:40:24.000Z</time>
      </trkpt>
      <trkpt lat="43.15614" lon="0.85977">
        <ele>416.5</ele>
        <time>2019-01-23T14:40:34.000Z</time>
      </trkpt>
      <trkpt lat="43.15621" lon="0.85986">
        <ele>417.5</ele>
        <time>2019-01-23T14:40:45.000Z</time>
      </trkpt>
      <trkpt lat="43.15628" lon="0.85994">
        <ele>418.2</ele>
        <time>2019-01-23T14:40:56.000Z</time>
      </trkpt>
      <trkpt lat="43.15636" lon="0.86002">
        <ele>418.8</ele>
        <time>2019-01-23T14:41:4.000Z</time>
      </trkpt>
      <trkpt lat="43.15646" lon="0.86003">
        <ele>419.6</ele>
        <time>2019-01-23T14:41:13.000Z</time>
      </trkpt>
      <trkpt lat="43.15654" lon="0.86008">
        <ele>420.3</ele>
        <time>2019-01-23T14:41:24.000Z</time>
      </trkpt>
      <trkpt lat="43.15662" lon="0.86015">
        <ele>421.4</ele>
        <time>2019-01-23T14:41:36.000Z</time>
      </trkpt>
      <trkpt lat="43.1567" lon="0.86021">
        <ele>422.5</ele>
        <time>2019-01-23T14:41:46.000Z</time>
      </trkpt>
      <trkpt lat="43.15677" lon="0.8603">
        <ele>423.9</ele>
        <time>2019-01-23T14:41:58.000Z</time>
      </trkpt>
      <trkpt lat="43.15684" lon="0.86038">
        <ele>425.2</ele>
        <time>2019-01-23T14:42:10.000Z</time>
      </trkpt>
      <trkpt lat="43.15692" lon="0.86047">
        <ele>426.3</ele>
        <time>2019-01-23T14:42:25.000Z</time>
      </trkpt>
      <trkpt lat="43.15698" lon="0.86057">
        <ele>427.1</ele>
        <time>2019-01-23T14:42:38.000Z</time>
      </trkpt>
      <trkpt lat="43.15705" lon="0.86066">
        <ele>428.4</ele>
        <time>2019-01-23T14:42:56.000Z</time>
      </trkpt>
      <trkpt lat="43.1571" lon="0.86076">
        <ele>429.8</ele>
        <time>2019-01-23T14:43:9.000Z</time>
      </trkpt>
      <trkpt lat="43.15714" lon="0.86087">
        <ele>431.6</ele>
        <time>2019-01-23T14:43:20.000Z</time>
      </trkpt>
      <trkpt lat="43.15721" lon="0.86096">
        <ele>432.9</ele>
        <time>2019-01-23T14:43:30.000Z</time>
      </trkpt>
      <trkpt lat="43.15726" lon="0.86107">
        <ele>434.3</ele>
        <time>2019-01-23T14:43:43.000Z</time>
      </trkpt>
      <trkpt lat="43.15733" lon="0.86116">
        <ele>435.5</ele>
        <time>2019-01-23T14:43:55.000Z</time>
      </trkpt>
      <trkpt lat="43.15742" lon="0.86122">
        <ele>436.7</ele>
        <time>2019-01-23T14:44:7.000Z</time>
      </trkpt>
      <trkpt lat="43.1575" lon="0.86128">
        <ele>438</ele>
        <time>2019-01-23T14:44:20.000Z</time>
      </trkpt>
      <trkpt lat="43.15757" lon="0.86137">
        <ele>439.8</ele>
        <time>2019-01-23T14:44:34.000Z</time>
      </trkpt>
      <trkpt lat="43.15765" lon="0.86144">
        <ele>441.6</ele>
        <time>2019-01-23T14:44:47.000Z</time>
      </trkpt>
      <trkpt lat="43.15773" lon="0.86151">
        <ele>444.3</ele>
        <time>2019-01-23T14:45:7.000Z</time>
      </trkpt>
      <trkpt lat="43.15782" lon="0.86157">
        <ele>445.5</ele>
        <time>2019-01-23T14:45:24.000Z</time>
      </trkpt>
      <trkpt lat="43.1579" lon="0.86163">
        <ele>446.4</ele>
        <time>2019-01-23T14:45:36.000Z</time>
      </trkpt>
      <trkpt lat="43.158" lon="0.86167">
        <ele>447.4</ele>
        <time>2019-01-23T14:45:47.000Z</time>
      </trkpt>
      <trkpt lat="43.15807" lon="0.86175">
        <ele>448.5</ele>
        <time>2019-01-23T14:45:58.000Z</time>
      </trkpt>
      <trkpt lat="43.15816" lon="0.8618">
        <ele>449.8</ele>
        <time>2019-01-23T14:46:9.000Z</time>
      </trkpt>
      <trkpt lat="43.15824" lon="0.86183">
        <ele>451.4</ele>
        <time>2019-01-23T14:46:19.000Z</time>
      </trkpt>
      <trkpt lat="43.15833" lon="0.86186">
        <ele>452.8</ele>
        <time>2019-01-23T14:46:30.000Z</time>
      </trkpt>
      <trkpt lat="43.15842" lon="0.8619">
        <ele>454.2</ele>
        <time>2019-01-23T14:46:45.000Z</time>
      </trkpt>
      <trkpt lat="43.15851" lon="0.86193">
        <ele>455.7</ele>
        <time>2019-01-23T14:47:3.000Z</time>
      </trkpt>
      <trkpt lat="43.1586" lon="0.86194">
        <ele>456.5</ele>
        <time>2019-01-23T14:47:14.000Z</time>
      </trkpt>
      <trkpt lat="43.15869" lon="0.86197">
        <ele>457.7</ele>
        <time>2019-01-23T14:47:27.000Z</time>
      </trkpt>
      <trkpt lat="43.15878" lon="0.86198">
        <ele>458.8</ele>
        <time>2019-01-23T14:47:39.000Z</time>
      </trkpt>
      <trkpt lat="43.15887" lon="0.86201">
        <ele>460.2</ele>
        <time>2019-01-23T14:47:52.000Z</time>
      </trkpt>
      <trkpt lat="43.15896" lon="0.86206">
        <ele>461.7</ele>
        <time>2019-01-23T14:48:6.000Z</time>
      </trkpt>
      <trkpt lat="43.15905" lon="0.8621">
        <ele>462.5</ele>
        <time>2019-01-23T14:48:13.000Z</time>
      </trkpt>
      <trkpt lat="43.15914" lon="0.86214">
        <ele>463.7</ele>
        <time>2019-01-23T14:48:23.000Z</time>
      </trkpt>
      <trkpt lat="43.15923" lon="0.8622">
        <ele>464.9</ele>
        <time>2019-01-23T14:48:35.000Z</time>
      </trkpt>
      <trkpt lat="43.15932" lon="0.86225">
        <ele>466.1</ele>
        <time>2019-01-23T14:48:46.000Z</time>
      </trkpt>
      <trkpt lat="43.1594" lon="0.86231">
        <ele>467</ele>
        <time>2019-01-23T14:48:55.000Z</time>
      </trkpt>
      <trkpt lat="43.15949" lon="0.86236">
        <ele>468.1</ele>
        <time>2019-01-23T14:49:6.000Z</time>
      </trkpt>
      <trkpt lat="43.15958" lon="0.86241">
        <ele>469.1</ele>
        <time>2019-01-23T14:49:16.000Z</time>
      </trkpt>
      <trkpt lat="43.15966" lon="0.86247">
        <ele>469.7</ele>
        <time>2019-01-23T14:49:24.000Z</time>
      </trkpt>
      <trkpt lat="43.15974" lon="0.86254">
        <ele>470.2</ele>
        <time>2019-01-23T14:49:33.000Z</time>
      </trkpt>
      <trkpt lat="43.15978" lon="0.86266">
        <ele>471</ele>
        <time>2019-01-23T14:49:53.000Z</time>
      </trkpt>
      <trkpt lat="43.15978" lon="0.86266">
        <ele>470.8</ele>
        <time>2019-01-23T14:51:31.000Z</time>
      </trkpt>
    </trkseg>
  </trk>
</gpx>